Provisional Data: Little Mehoopany Creek near North Mehoopany, PA


Please select a monitoring station.
Please select start date.
Please select start date.

Toggle Unit: C/F Toggle Unit: C/F
Sample Time Temperature (C) Temperature (F) Specific Conductivity (mS/cm) pH   Turbidity (NTU+) DO (mg/L)
8/1/2022 12:00:00 AM 18.99 66.182 0.156 7.81 4.12 8.51
8/1/2022 12:15:00 AM 18.94 66.092 0.155 7.8 6.22 8.49
8/1/2022 12:30:00 AM 18.92 66.056 0.163 7.77 2.43 8.32
8/1/2022 12:45:00 AM 18.88 65.984 0.169 7.76 2.28 8.3
8/1/2022 1:00:00 AM 18.84 65.912 0.165 7.75 2.17 8.27
8/1/2022 1:15:00 AM 18.81 65.858 0.159 7.76 2.24 8.34
8/1/2022 1:30:00 AM 18.79 65.82201 0.191 7.75 2.23 8.31
8/1/2022 1:45:00 AM 18.72 65.696 0.152 7.77 2.79 8.48
8/1/2022 2:00:00 AM 18.67 65.606 0.16 7.77 2.26 8.5
8/1/2022 2:15:00 AM 18.65 65.57 0.163 7.77 2.4 8.49
8/1/2022 2:30:00 AM 18.63 65.534 0.162 7.76 2.29 8.42
8/1/2022 2:45:00 AM 18.58 65.444 0.153 7.76 2.13 8.48
8/1/2022 3:00:00 AM 18.56 65.408 0.153 7.76 2.27 8.45
8/1/2022 3:15:00 AM 18.54 65.372 0.152 7.75 2.25 8.43
8/1/2022 3:30:00 AM 18.5 65.3 0.162 7.75 2.46 8.48
8/1/2022 3:45:00 AM 18.47 65.246 0.151 7.74 2.46 8.47
8/1/2022 4:00:00 AM 18.45 65.21 0.147 7.74 2.34 8.42
8/1/2022 4:15:00 AM 18.43 65.174 0.148 7.73 2.41 8.42
8/1/2022 4:30:00 AM 18.41 65.138 0.159 7.74 2.31 8.49
8/1/2022 4:45:00 AM 18.39 65.102 0.191 7.72 2.31 8.46
8/1/2022 5:00:00 AM 18.38 65.084 0.155 7.71 2.44 8.32
8/1/2022 5:15:00 AM 18.36 65.048 0.156 7.69 2.46 8.32
8/1/2022 5:30:00 AM 18.33 64.994 0.162 7.7 2.36 8.36
8/1/2022 5:45:00 AM 18.31 64.958 0.191 7.69 2.57 8.33
8/1/2022 6:00:00 AM 18.29 64.922 0.151 7.71 2.38 8.37
8/1/2022 6:15:00 AM 18.26 64.868 0.159 7.69 2.33 8.36
8/1/2022 6:30:00 AM 18.25 64.85 0.158 7.7 2.39 8.33
8/1/2022 6:45:00 AM 18.23 64.814 0.146 7.7 2.63 8.26
8/1/2022 7:00:00 AM 18.2 64.76 0.156 7.69 2.38 8.3
8/1/2022 7:15:00 AM 18.18 64.724 0.155 7.71 2.39 8.32
8/1/2022 7:30:00 AM 18.17 64.706 0.15 7.7 2.33 8.38
8/1/2022 7:45:00 AM 18.17 64.706 0.19 7.65 2.34 8.33
8/1/2022 8:00:00 AM 18.16 64.688 0.156 7.7 2.34 8.41
8/1/2022 8:15:00 AM 18.16 64.688 0.154 7.7 2.19 8.39
8/1/2022 8:30:00 AM 18.16 64.688 0.145 7.72 2.27 8.42
8/1/2022 8:45:00 AM 18.16 64.688 0.154 7.71 2.25 8.52
8/1/2022 9:00:00 AM 18.17 64.706 0.19 7.72 2.11 8.5
8/1/2022 9:15:00 AM 18.18 64.724 0.155 7.72 2.16 8.48
8/1/2022 9:30:00 AM 18.2 64.76 0.189 7.77 2.85 8.82
8/1/2022 9:45:00 AM 18.22 64.796 0.153 7.78 2.2 8.88
8/1/2022 10:00:00 AM 18.25 64.85 0.153 7.78 2.19 8.83
8/1/2022 10:15:00 AM 18.27 64.886 0.155 7.76 2.09 8.72
8/1/2022 10:30:00 AM 18.31 64.958 0.154 7.78 2.11 8.62
8/1/2022 10:45:00 AM 18.35 65.03 0.155 7.75 2.19 8.87
8/1/2022 11:00:00 AM 18.44 65.192 0.158 7.81 2.19 8.72
8/1/2022 11:15:00 AM 18.57 65.426 0.153 7.83 2.27 8.99
8/1/2022 11:30:00 AM 18.73 65.714 0.146 7.86 2.09 9.36
8/1/2022 11:45:00 AM 18.84 65.912 0.147 7.97 2.15 9.26
8/1/2022 12:00:00 PM 18.97 66.146 0.15 7.96 2.07 9.34
8/1/2022 12:15:00 PM 19.12 66.416 0.158 8.03 2.09 9.54
8/1/2022 12:30:00 PM 19.38 66.884 0.145 8.14 2.12 9.65
8/1/2022 12:45:00 PM 19.5 67.1 0.15 8.06 2.36 9.63
8/1/2022 1:00:00 PM 19.83 67.694 0.155 8.17 2.08 9.71
8/1/2022 1:15:00 PM 20 68 0.157 8.11 2.22 9.7
8/1/2022 1:30:00 PM 20.24 68.432 0.153 8.17 2.07 9.62
8/1/2022 1:45:00 PM 20.5 68.9 0.151 8.25 2.08 9.75
8/1/2022 2:00:00 PM 20.77 69.386 0.151 8.33 2.14 9.79
8/1/2022 2:15:00 PM 21.04 69.872 0.185 8.37 2.16 9.72
8/1/2022 2:30:00 PM 21.31 70.358 0.154 8.42 2.05 9.74
8/1/2022 2:45:00 PM 21.57 70.826 0.158 8.47 2.1 9.85
8/1/2022 3:00:00 PM 21.73 71.114 0.153 8.49 2.11 9.74
8/1/2022 3:15:00 PM 21.89 71.402 0.158 8.4 2.87 9.6
8/1/2022 3:30:00 PM 22.12 71.816 0.156 8.41 2.15 9.66
8/1/2022 3:45:00 PM 22.24 72.032 0.162 8.39 2.36 9.57
8/1/2022 4:00:00 PM 22.35 72.23 0.185 8.37 2.41 9.58
8/1/2022 4:15:00 PM 22.41 72.338 0.157 8.33 2.28 9.47
8/1/2022 4:30:00 PM 22.49 72.482 0.164 8.4 2.29 9.45
8/1/2022 4:45:00 PM 22.58 72.644 0.163 8.53 2.11 9.52
8/1/2022 5:00:00 PM 22.54 72.57201 0.158 8.52 2.11 9.47
8/1/2022 5:15:00 PM 22.36 72.248 0.186 8.53 2.07 9.42
8/1/2022 5:30:00 PM 22.26 72.068 0.166 8.48 2.21 9.39
8/1/2022 5:45:00 PM 22.15 71.87 0.156 8.47 2.15 9.36
8/1/2022 6:00:00 PM 21.99 71.582 0.158 8.44 2.05 9.32
8/1/2022 6:15:00 PM 21.92 71.456 0.16 8.39 2.13 9.23
8/1/2022 6:30:00 PM 21.8 71.24 0.159 8.36 2.1 9.16
8/1/2022 6:45:00 PM 21.66 70.988 0.153 8.31 2.1 9.06
8/1/2022 7:00:00 PM 21.53 70.754 0.15 8.25 2.2 8.95
8/1/2022 7:15:00 PM 21.45 70.61 0.155 8.21 2.15 8.89
8/1/2022 7:30:00 PM 21.36 70.448 0.155 8.17 3.19 8.8
8/1/2022 7:45:00 PM 21.27 70.286 0.156 8.14 2.28 8.74
8/1/2022 8:00:00 PM 21.18 70.124 0.158 8.09 2.26 8.65
8/1/2022 8:15:00 PM 21.09 69.962 0.154 8.04 2.36 8.51
8/1/2022 8:30:00 PM 20.99 69.782 0.188 8.01 2.21 8.47
8/1/2022 8:45:00 PM 20.88 69.584 0.159 7.97 2.24 8.44
8/1/2022 9:00:00 PM 20.81 69.458 0.158 7.93 2.3 8.29
8/1/2022 9:15:00 PM 20.72 69.296 0.189 7.92 2.34 8.31
8/1/2022 9:30:00 PM 20.65 69.17 0.152 7.9 2.31 8.3
8/1/2022 9:45:00 PM 20.57 69.026 0.157 7.88 2.28 8.24
8/1/2022 10:00:00 PM 20.51 68.918 0.16 7.87 2.4 8.24
8/1/2022 10:15:00 PM 20.43 68.774 0.19 7.85 2.29 8.22
8/1/2022 10:30:00 PM 20.38 68.684 0.162 7.84 2.44 8.18
8/1/2022 10:45:00 PM 20.33 68.594 0.157 7.83 2.37 8.16
8/1/2022 11:00:00 PM 20.26 68.468 0.147 7.82 2.47 8.15
8/1/2022 11:15:00 PM 20.2 68.36 0.156 7.81 2.56 8.16
8/1/2022 11:30:00 PM 20.16 68.288 0.16 7.8 2.23 8.07
8/1/2022 11:45:00 PM 20.1 68.18 0.165 7.79 2.31 8.09
8/2/2022 12:00:00 AM 20.03 68.054 0.155 7.79 2.44 8.13
8/2/2022 12:15:00 AM 19.99 67.982 0.192 7.77 2.29 8.09
8/2/2022 12:30:00 AM 19.96 67.92799 0.162 7.75 2.38 7.98
8/2/2022 12:45:00 AM 19.87 67.766 0.15 7.76 2.48 8.08
8/2/2022 1:00:00 AM 19.83 67.694 0.158 7.76 2.62 8.05
8/2/2022 1:15:00 AM 19.78 67.604 0.159 7.75 2.52 8.02
8/2/2022 1:30:00 AM 19.71 67.478 0.161 7.75 2.82 8.04
8/2/2022 1:45:00 AM 19.64 67.352 0.152 7.75 2.52 8.11
8/2/2022 2:00:00 AM 19.58 67.244 0.148 7.75 2.42 8.14
8/2/2022 2:15:00 AM 19.49 67.082 0.163 7.74 2.58 8.2
8/2/2022 2:30:00 AM 19.43 66.974 0.15 7.74 2.48 8.22
8/2/2022 2:45:00 AM 19.34 66.812 0.159 7.74 2.35 8.24
8/2/2022 3:00:00 AM 19.26 66.668 0.157 7.74 2.38 8.29
8/2/2022 3:15:00 AM 19.23 66.614 0.161 7.74 2.32 8.29
8/2/2022 3:30:00 AM 19.18 66.524 0.158 7.74 2.28 8.3
8/2/2022 3:45:00 AM 19.15 66.47 0.15 7.73 2.57 8.26
8/2/2022 4:00:00 AM 19.07 66.326 0.149 7.73 2.37 8.29
8/2/2022 4:15:00 AM 19.04 66.272 0.149 7.73 2.59 8.29
8/2/2022 4:30:00 AM 18.99 66.182 0.192 7.73 2.29 8.3
8/2/2022 4:45:00 AM 18.93 66.074 0.192 7.73 2.38 8.31
8/2/2022 5:00:00 AM 18.9 66.02 0.16 7.72 2.49 8.25
8/2/2022 5:15:00 AM 18.82 65.876 0.165 7.71 3.02 8.27
8/2/2022 5:30:00 AM 18.78 65.804 0.161 7.71 2.45 8.33
8/2/2022 5:45:00 AM 18.74 65.732 0.161 7.7 11.9 8.26
8/2/2022 6:00:00 AM 18.65 65.57 0.191 7.71 25.81 8.38
8/2/2022 6:15:00 AM 18.59 65.462 0.164 7.71 11.27 8.43
8/2/2022 6:30:00 AM 18.59 65.462 0.146 7.71 4.54 8.35
8/2/2022 6:45:00 AM 18.54 65.372 0.156 7.73 2.69 8.46
8/2/2022 7:00:00 AM 18.51 65.318 0.156 7.73 2.23 8.5
8/2/2022 7:15:00 AM 18.49 65.282 0.155 7.74 2.24 8.5
8/2/2022 7:30:00 AM 18.5 65.3 0.156 7.74 2.39 8.46
8/2/2022 7:45:00 AM 18.51 65.318 0.164 7.7 2.42 8.47
8/2/2022 8:00:00 AM 18.53 65.354 0.153 7.7 2.36 8.35
8/2/2022 8:15:00 AM 18.54 65.372 0.151 7.7 5.12 8.3
8/2/2022 8:30:00 AM 18.56 65.408 0.19 7.69 3.26 8.33
8/2/2022 8:45:00 AM 18.56 65.408 0.157 7.7 2.2 8.27
8/2/2022 9:00:00 AM 18.57 65.426 0.161 7.71 2.08 8.36
8/2/2022 9:15:00 AM 18.59 65.462 0.156 7.72 1.96 8.42
8/2/2022 9:30:00 AM 18.64 65.552 0.158 7.68 2.03 8.32
8/2/2022 9:45:00 AM 18.76 65.768 0.16 7.69 2.04 8.45
8/2/2022 10:00:00 AM 18.82 65.876 0.166 7.7 2.02 8.62
8/2/2022 10:15:00 AM 18.92 66.056 0.189 7.71 2.16 8.6
8/2/2022 10:30:00 AM 19.03 66.254 0.156 7.74 2.19 8.66
8/2/2022 10:45:00 AM 19.18 66.524 0.155 7.72 2.72 8.78
8/2/2022 11:00:00 AM 19.37 66.866 0.159 7.86 2.1 9.02
8/2/2022 11:15:00 AM 19.63 67.334 0.154 7.97 2.68 9.37
8/2/2022 11:30:00 AM 19.85 67.73 0.15 8.02 2.42 9.5
8/2/2022 11:45:00 AM 20.05 68.09 0.157 8.08 2.35 9.51
8/2/2022 12:00:00 PM 20.35 68.63 0.187 8.22 5.14 9.64
8/2/2022 12:15:00 PM 20.51 68.918 0.186 8.19 7.56 9.49
8/2/2022 12:30:00 PM 20.68 69.224 0.154 8.28 3.98 9.68
8/2/2022 12:45:00 PM 20.92 69.656 0.156 8.28 2.53 9.81
8/2/2022 1:00:00 PM 21.05 69.89 0.161 8.32 2.62 9.71
8/2/2022 1:15:00 PM 21.25 70.25 0.158 8.36 2.21 9.58
8/2/2022 1:30:00 PM 21.31 70.358 0.185 8.4 3.3 9.77
8/2/2022 1:45:00 PM 21.48 70.664 0.151 8.4 2.03 9.61
8/2/2022 2:00:00 PM 21.57 70.826 0.155 8.42 2.39 9.65
8/2/2022 2:15:00 PM 21.65 70.97 0.152 8.45 2.64 9.6
8/2/2022 2:30:00 PM 21.85 71.33 0.147 8.53 2.22 9.71
8/2/2022 2:45:00 PM 21.95 71.51 0.147 8.51 2.31 9.63
8/2/2022 3:00:00 PM 22.05 71.69 0.156 8.52 2.83 9.66
8/2/2022 3:15:00 PM 22.12 71.816 0.158 8.56 1.94 9.56
8/2/2022 3:30:00 PM 22.13 71.834 0.186 8.48 2.03 9.43
8/2/2022 3:45:00 PM 22.17 71.906 0.154 8.5 1.88 9.29
8/2/2022 4:00:00 PM 22.28 72.104 0.155 8.54 1.85 9.41
8/2/2022 4:15:00 PM 22.4 72.32 0.152 8.54 2.04 9.5
8/2/2022 4:30:00 PM 22.42 72.356 0.161 8.56 1.88 9.41
8/2/2022 4:45:00 PM 22.33 72.194 0.186 8.53 1.86 9.34
8/2/2022 5:00:00 PM 22.29 72.122 0.16 8.61 1.72 9.49
8/2/2022 5:15:00 PM 22.29 72.122 0.155 8.52 2.01 9.25
8/2/2022 5:30:00 PM 22.17 71.906 0.187 8.55 1.8 9.42
8/2/2022 5:45:00 PM 22.1 71.78 0.16 8.54 1.79 9.41
8/2/2022 6:00:00 PM 21.99 71.582 0.16 8.52 1.81 9.41
8/2/2022 6:15:00 PM 21.84 71.312 0.187 8.46 1.91 9.23
8/2/2022 6:30:00 PM 21.75 71.15 0.156 8.41 1.93 9.12
8/2/2022 6:45:00 PM 21.66 70.988 0.15 8.35 1.89 9.04
8/2/2022 7:00:00 PM 21.5 70.7 0.156 8.31 1.89 8.94
8/2/2022 7:15:00 PM 21.39 70.502 0.188 8.24 1.78 8.84
8/2/2022 7:30:00 PM 21.27 70.286 0.154 8.2 1.78 8.77
8/2/2022 7:45:00 PM 21.14 70.052 0.16 8.14 1.93 8.7
8/2/2022 8:00:00 PM 21.05 69.89 0.19 8.1 1.82 8.61
8/2/2022 8:15:00 PM 20.96 69.728 0.189 8.06 1.98 8.54
8/2/2022 8:30:00 PM 20.85 69.53 0.155 8.01 2 8.46
8/2/2022 8:45:00 PM 20.8 69.44 0.149 7.98 7.73 8.39
8/2/2022 9:00:00 PM 20.68 69.224 0.155 7.94 2.15 8.35
8/2/2022 9:15:00 PM 20.66 69.188 0.154 7.93 1.96 8.3
8/2/2022 9:30:00 PM 20.55 68.99 0.161 7.91 1.85 8.29
8/2/2022 9:45:00 PM 20.43 68.774 0.154 7.89 2.35 8.27
8/2/2022 10:00:00 PM 20.27 68.486 0.162 7.87 2.13 8.31
8/2/2022 10:15:00 PM 20.17 68.306 0.158 7.86 2.17 8.3
8/2/2022 10:30:00 PM 20.1 68.18 0.156 7.85 1.97 8.29
8/2/2022 10:45:00 PM 19.99 67.982 0.149 7.84 2.26 8.31
8/2/2022 11:00:00 PM 19.91 67.838 0.16 7.83 2.21 8.31
8/2/2022 11:15:00 PM 19.82 67.676 0.155 7.82 2.13 8.31
8/2/2022 11:30:00 PM 19.71 67.478 0.162 7.81 2.22 8.31
8/2/2022 11:45:00 PM 19.63 67.334 0.163 7.81 2.07 8.34
8/3/2022 12:00:00 AM 19.55 67.19 0.159 7.8 2.52 8.31
8/3/2022 12:15:00 AM 19.44 66.992 0.157 7.8 2.2 8.33
8/3/2022 12:30:00 AM 19.31 66.758 0.151 7.79 2.16 8.38
8/3/2022 12:45:00 AM 19.26 66.668 0.152 7.78 5.07 8.36
8/3/2022 1:00:00 AM 19.16 66.488 0.151 7.77 2.76 8.35
8/3/2022 1:15:00 AM 19.1 66.38 0.161 7.77 2.22 8.37
8/3/2022 1:30:00 AM 18.98 66.164 0.155 7.77 2.02 8.41
8/3/2022 1:45:00 AM 18.89 66.002 0.151 7.77 2.37 8.45
8/3/2022 2:00:00 AM 18.85 65.93 0.162 7.76 2.09 8.42
8/3/2022 2:15:00 AM 18.75 65.75 0.154 7.76 2.07 8.46
8/3/2022 2:30:00 AM 18.66 65.588 0.157 7.76 3.63 8.47
8/3/2022 2:45:00 AM 18.63 65.534 0.171 7.75 2.06 8.45
8/3/2022 3:00:00 AM 18.54 65.372 0.162 7.75 2.12 8.48
8/3/2022 3:15:00 AM 18.45 65.21 0.16 7.75 2.16 8.5
8/3/2022 3:30:00 AM 18.36 65.048 0.16 7.75 2.06 8.53
8/3/2022 3:45:00 AM 18.29 64.922 0.161 7.75 2.05 8.55
8/3/2022 4:00:00 AM 18.23 64.814 0.156 7.75 2.18 8.54
8/3/2022 4:15:00 AM 18.15 64.67 0.157 7.74 2.27 8.55
8/3/2022 4:30:00 AM 18.07 64.526 0.164 7.74 2.37 8.57
8/3/2022 4:45:00 AM 17.98 64.364 0.161 7.75 2.27 8.62
8/3/2022 5:00:00 AM 17.92 64.256 0.154 7.74 2.6 8.58
8/3/2022 5:15:00 AM 17.85 64.13 0.154 7.74 2.15 8.65
8/3/2022 5:30:00 AM 17.77 63.986 0.154 7.74 2.2 8.64
8/3/2022 5:45:00 AM 17.7 63.86 0.163 7.74 1.99 8.67
8/3/2022 6:00:00 AM 17.61 63.698 0.152 7.74 2.02 8.7
8/3/2022 6:15:00 AM 17.53 63.554 0.16 7.75 2.09 8.73
8/3/2022 6:30:00 AM 17.48 63.464 0.174 7.75 2.43 8.76
8/3/2022 6:45:00 AM 17.41 63.338 0.163 7.75 2.2 8.83
8/3/2022 7:00:00 AM 17.38 63.284 0.162 7.75 2.6 8.84
8/3/2022 7:15:00 AM 17.34 63.212 0.166 7.76 2.23 8.86
8/3/2022 7:30:00 AM 17.32 63.176 0.155 7.76 2.34 8.88
8/3/2022 7:45:00 AM 17.32 63.176 0.152 7.76 2.1 8.89
8/3/2022 8:00:00 AM 17.29 63.122 0.158 7.78 2.18 8.93
8/3/2022 8:15:00 AM 17.27 63.086 0.15 7.79 2.03 8.98
8/3/2022 8:30:00 AM 17.3 63.14 0.163 7.76 2.96 8.93
8/3/2022 8:45:00 AM 17.32 63.176 0.15 7.75 2.28 8.86
8/3/2022 9:00:00 AM 17.33 63.194 0.154 7.73 6.19 8.77
8/3/2022 9:15:00 AM 17.34 63.212 0.151 7.73 2.2 8.74
8/3/2022 9:30:00 AM 17.34 63.212 0.168 7.75 2.13 8.78
8/3/2022 9:45:00 AM 17.36 63.248 0.167 7.72 2.18 8.6
8/3/2022 10:00:00 AM 17.41 63.338 0.192 7.7 2.18 8.62
8/3/2022 10:15:00 AM 17.55 63.59 0.148 7.71 2.42 8.7
8/3/2022 10:30:00 AM 17.64 63.752 0.191 7.77 1.96 8.85
8/3/2022 10:45:00 AM 17.89 64.202 0.19 7.78 2.69 9.07
8/3/2022 11:00:00 AM 18.04 64.472 0.151 7.8 2.03 9.06
8/3/2022 11:15:00 AM 18.34 65.012 0.158 7.84 1.99 9.23
8/3/2022 11:30:00 AM 18.62 65.516 0.189 7.83 2.08 9.13
8/3/2022 11:45:00 AM 18.92 66.056 0.149 7.93 1.87 9.43
8/3/2022 12:00:00 PM 19.2 66.56 0.157 8.02 1.88 9.56
8/3/2022 12:15:00 PM 19.48 67.064 0.155 8.07 1.96 9.59
8/3/2022 12:30:00 PM 19.74 67.532 0.153 8.08 1.94 9.56
8/3/2022 12:45:00 PM 20.12 68.216 0.16 8.22 2.08 9.65
8/3/2022 1:00:00 PM 20.42 68.756 0.165 8.23 3.74 9.66
8/3/2022 1:15:00 PM 20.7 69.26 0.154 8.25 1.94 9.68
8/3/2022 1:30:00 PM 20.93 69.674 0.15 8.32 1.96 9.74
8/3/2022 1:45:00 PM 21.15 70.07 0.155 8.39 1.84 9.79
8/3/2022 2:00:00 PM 21.45 70.61 0.15 8.43 4.14 9.8
8/3/2022 2:15:00 PM 21.69 71.042 0.153 8.47 1.97 9.71
8/3/2022 2:30:00 PM 21.89 71.402 0.158 8.5 1.84 9.74
8/3/2022 2:45:00 PM 22.07 71.726 0.159 8.5 1.81 9.74
8/3/2022 3:00:00 PM 22.26 72.068 0.16 8.57 2.22 9.75
8/3/2022 3:15:00 PM 22.44 72.392 0.159 8.59 2.2 9.77
8/3/2022 3:30:00 PM 22.51 72.518 0.156 8.52 1.88 9.8
8/3/2022 3:45:00 PM 22.63 72.734 0.161 8.48 2.09 9.62
8/3/2022 4:00:00 PM 22.81 73.058 0.163 8.52 2.25 9.71
8/3/2022 4:15:00 PM 22.77 72.986 0.161 8.53 2.12 9.58
8/3/2022 4:30:00 PM 22.99 73.382 0.161 8.62 2.02 9.63
8/3/2022 4:45:00 PM 23 73.4 0.158 8.58 2.04 9.81
8/3/2022 5:00:00 PM 22.92 73.256 0.156 8.64 2.01 9.76
8/3/2022 5:15:00 PM 22.8 73.04 0.188 8.59 2 9.62
8/3/2022 5:30:00 PM 22.69 72.842 0.166 8.59 1.89 9.64
8/3/2022 5:45:00 PM 22.51 72.518 0.163 8.55 1.97 9.55
8/3/2022 6:00:00 PM 22.32 72.176 0.156 8.49 2.03 9.41
8/3/2022 6:15:00 PM 22.16 71.888 0.162 8.42 2.02 9.26
8/3/2022 6:30:00 PM 22.08 71.744 0.159 8.38 4.06 9.15
8/3/2022 6:45:00 PM 21.89 71.402 0.161 8.3 5.09 9.03
8/3/2022 7:00:00 PM 21.76 71.168 0.162 8.27 2.25 8.97
8/3/2022 7:15:00 PM 21.66 70.988 0.163 8.22 2.11 8.88
8/3/2022 7:30:00 PM 21.53 70.754 0.163 8.17 2.09 8.8
8/3/2022 7:45:00 PM 21.41 70.538 0.164 8.12 2.61 8.71
8/3/2022 8:00:00 PM 21.32 70.376 0.163 8.08 2.02 8.63
8/3/2022 8:15:00 PM 21.22 70.196 0.158 8.03 2.01 8.54
8/3/2022 8:30:00 PM 21.15 70.07 0.152 8.01 2.26 8.46
8/3/2022 8:45:00 PM 21.03 69.854 0.157 7.97 2.02 8.37
8/3/2022 9:00:00 PM 20.96 69.728 0.164 7.94 2.34 8.34
8/3/2022 9:15:00 PM 20.83 69.494 0.192 7.92 2.03 8.31
8/3/2022 9:30:00 PM 20.77 69.386 0.164 7.9 2.17 8.27
8/3/2022 9:45:00 PM 20.65 69.17 0.158 7.88 2.41 8.24
8/3/2022 10:00:00 PM 20.58 69.044 0.166 7.87 2.14 8.24
8/3/2022 10:15:00 PM 20.46 68.828 0.159 7.85 2.69 8.22
8/3/2022 10:30:00 PM 20.4 68.72 0.155 7.84 2.17 8.21
8/3/2022 10:45:00 PM 20.28 68.504 0.193 7.83 2 8.2
8/3/2022 11:00:00 PM 20.2 68.36 0.164 7.82 2.11 8.18
8/3/2022 11:15:00 PM 20.13 68.234 0.163 7.8 2.14 8.16
8/3/2022 11:30:00 PM 19.99 67.982 0.161 7.8 2.08 8.21
8/3/2022 11:45:00 PM 19.94 67.892 0.157 7.79 2.2 8.19
8/4/2022 12:00:00 AM 19.86 67.748 0.161 7.78 2.39 8.19
8/4/2022 12:15:00 AM 19.78 67.604 0.159 7.77 2.29 8.2
8/4/2022 12:30:00 AM 19.7 67.46 0.162 7.77 2.43 8.19
8/4/2022 12:45:00 AM 19.6 67.28 0.158 7.76 2.19 8.21
8/4/2022 1:00:00 AM 19.55 67.19 0.161 7.76 2.11 8.22
8/4/2022 1:15:00 AM 19.49 67.082 0.158 7.75 2.43 8.23
8/4/2022 1:30:00 AM 19.41 66.938 0.194 7.75 2.21 8.22
8/4/2022 1:45:00 AM 19.32 66.776 0.164 7.75 2.49 8.26
8/4/2022 2:00:00 AM 19.24 66.632 0.168 7.75 2.2 8.26
8/4/2022 2:15:00 AM 19.18 66.524 0.161 7.75 2.14 8.28
8/4/2022 2:30:00 AM 19.12 66.416 0.166 7.74 2.25 8.3
8/4/2022 2:45:00 AM 19.06 66.308 0.174 7.74 2.33 8.3
8/4/2022 3:00:00 AM 18.97 66.146 0.172 7.74 2.52 8.34
8/4/2022 3:15:00 AM 18.9 66.02 0.172 7.74 2.54 8.36
8/4/2022 3:30:00 AM 18.86 65.948 0.165 7.73 2.32 8.33
8/4/2022 3:45:00 AM 18.79 65.82201 0.196 7.73 2.07 8.37
8/4/2022 4:00:00 AM 18.74 65.732 0.157 7.73 2.53 8.39
8/4/2022 4:15:00 AM 18.67 65.606 0.155 7.73 2.38 8.41
8/4/2022 4:30:00 AM 18.6 65.48 0.195 7.73 2.02 8.42
8/4/2022 4:45:00 AM 18.56 65.408 0.195 7.73 2.03 8.43
8/4/2022 5:00:00 AM 18.5 65.3 0.157 7.72 3.87 8.42
8/4/2022 5:15:00 AM 18.44 65.192 0.157 7.72 2.62 8.41
8/4/2022 5:30:00 AM 18.43 65.174 0.169 7.71 2.07 8.39
8/4/2022 5:45:00 AM 18.34 65.012 0.163 7.72 2.18 8.47
8/4/2022 6:00:00 AM 18.28 64.904 0.156 7.72 2.13 8.49
8/4/2022 6:15:00 AM 18.25 64.85 0.159 7.72 2.08 8.47
8/4/2022 6:30:00 AM 18.23 64.814 0.166 7.71 2.28 8.44
8/4/2022 6:45:00 AM 18.17 64.706 0.156 7.72 2.36 8.55
8/4/2022 7:00:00 AM 18.14 64.652 0.146 7.73 2.23 8.58
8/4/2022 7:15:00 AM 18.15 64.67 0.157 7.68 2.28 8.51
8/4/2022 7:30:00 AM 18.11 64.598 0.164 7.73 2.31 8.64
8/4/2022 7:45:00 AM 18.17 64.706 0.157 7.72 4.78 8.54
8/4/2022 8:00:00 AM 18.16 64.688 0.163 7.69 2.49 8.42
8/4/2022 8:15:00 AM 18.15 64.67 0.195 7.71 2.4 8.4
8/4/2022 8:30:00 AM 18.13 64.634 0.164 7.71 2.28 8.54
8/4/2022 8:45:00 AM 18.15 64.67 0.195 7.7 2.1 8.43
8/4/2022 9:00:00 AM 18.15 64.67 0.17 7.7 2.08 8.37
8/4/2022 9:15:00 AM 18.17 64.706 0.158 7.72 2.86 8.56
8/4/2022 9:30:00 AM 18.2 64.76 0.157 7.72 2.03 8.57
8/4/2022 9:45:00 AM 18.26 64.868 0.154 7.72 2 8.61
8/4/2022 10:00:00 AM 18.38 65.084 0.161 7.7 2.04 8.58
8/4/2022 10:15:00 AM 18.48 65.264 0.154 7.73 2.23 8.64
8/4/2022 10:30:00 AM 18.58 65.444 0.159 7.75 2.05 8.79
8/4/2022 10:45:00 AM 18.75 65.75 0.161 7.75 2.09 8.91
8/4/2022 11:00:00 AM 19.14 66.452 0.157 7.91 3.55 9.11
8/4/2022 11:15:00 AM 19.14 66.452 0.162 7.81 3.07 9.02
8/4/2022 11:30:00 AM 19.31 66.758 0.191 7.8 2.72 9.2
8/4/2022 11:45:00 AM 19.86 67.748 0.19 8.01 2.09 9.59
8/4/2022 12:00:00 PM 20.07 68.126 0.152 7.98 4.87 9.48
8/4/2022 12:15:00 PM 20.23 68.414 0.161 8.03 2.23 9.49
8/4/2022 12:30:00 PM 20.52 68.936 0.154 8.1 2.25 9.66
8/4/2022 12:45:00 PM 20.81 69.458 0.153 8.19 1.97 9.8
8/4/2022 1:00:00 PM 21.18 70.124 0.152 8.31 2.08 9.9
8/4/2022 1:15:00 PM 21.43 70.574 0.163 8.27 2.01 9.73
8/4/2022 1:30:00 PM 21.76 71.168 0.189 8.37 1.92 9.84
8/4/2022 1:45:00 PM 22.06 71.708 0.166 8.4 1.97 9.86
8/4/2022 2:00:00 PM 22.44 72.392 0.165 8.49 2.07 9.83
8/4/2022 2:15:00 PM 22.61 72.698 0.161 8.51 2.2 9.81
8/4/2022 2:30:00 PM 22.89 73.202 0.164 8.56 1.86 9.74
8/4/2022 2:45:00 PM 23.13 73.634 0.16 8.63 2.25 9.73
8/4/2022 3:00:00 PM 23.1 73.58 0.156 8.59 2.07 9.47
8/4/2022 3:15:00 PM 23.32 73.976 0.167 8.55 2.28 9.54
8/4/2022 3:30:00 PM 23.36 74.048 0.166 8.61 1.95 9.56
8/4/2022 3:45:00 PM 23.36 74.048 0.16 8.67 1.85 9.61
8/4/2022 4:00:00 PM 23.2 73.76 0.17 8.55 2.26 9.19
8/4/2022 4:15:00 PM 23.06 73.508 0.156 8.53 2.55 8.97
8/4/2022 4:30:00 PM 22.97 73.346 0.159 8.46 2.3 8.76
8/4/2022 4:45:00 PM 22.86 73.148 0.158 8.43 2.43 8.82
8/4/2022 5:00:00 PM 22.75 72.95 0.155 8.38 2.53 8.79
8/4/2022 5:15:00 PM 22.67 72.806 0.154 8.28 2.71 8.73
8/4/2022 5:30:00 PM 22.56 72.608 0.157 8.2 2.86 8.36
8/4/2022 5:45:00 PM 22.49 72.482 0.161 8.16 2.72 8.52
8/4/2022 6:00:00 PM 22.44 72.392 0.157 8.13 2.69 8.23
8/4/2022 6:15:00 PM 22.37 72.266 0.16 8.11 2.78 8.21
8/4/2022 6:30:00 PM 22.31 72.158 0.16 8.12 2.69 8.43
8/4/2022 6:45:00 PM 22.25 72.05 0.159 8.09 2.85 8.22
8/4/2022 7:00:00 PM 22.19 71.942 0.164 8.09 2.59 8.32
8/4/2022 7:15:00 PM 22.1 71.78 0.164 8.28 2.63 8.84
8/4/2022 7:30:00 PM 21.99 71.582 0.189 8.23 2.22 8.81
8/4/2022 7:45:00 PM 21.89 71.402 0.165 8.18 2.18 8.72
8/4/2022 8:00:00 PM 21.78 71.204 0.162 8.13 2.29 8.64
8/4/2022 8:15:00 PM 21.7 71.06 0.16 8.06 2.7 8.48
8/4/2022 8:30:00 PM 21.58 70.844 0.158 8.03 2.23 8.44
8/4/2022 8:45:00 PM 21.51 70.718 0.157 7.95 3.12 8.18
8/4/2022 9:00:00 PM 21.39 70.502 0.156 7.95 2.42 8.18
8/4/2022 9:15:00 PM 21.28 70.304 0.162 7.92 2.48 8.22
8/4/2022 9:30:00 PM 21.2 70.16 0.192 7.89 2.4 8.15
8/4/2022 9:45:00 PM 21.12 70.016 0.155 7.87 2.19 8.13
8/4/2022 10:00:00 PM 21.02 69.836 0.164 7.85 2.29 8.11
8/4/2022 10:15:00 PM 20.93 69.674 0.167 7.83 2.37 8.07
8/4/2022 10:30:00 PM 20.86 69.548 0.159 7.8 2.99 8.04
8/4/2022 10:45:00 PM 20.81 69.458 0.152 7.8 2.22 7.97
8/4/2022 11:00:00 PM 20.7 69.26 0.158 7.79 2.31 7.99
8/4/2022 11:15:00 PM 20.62 69.116 0.158 7.78 2.06 7.99
8/4/2022 11:30:00 PM 20.55 68.99 0.162 7.76 2.14 8.02
8/4/2022 11:45:00 PM 20.48 68.864 0.154 7.75 2.06 7.99
8/5/2022 12:00:00 AM 20.41 68.738 0.155 7.75 2.26 8.02
8/5/2022 12:15:00 AM 20.35 68.63 0.152 7.75 2.15 8.03
8/5/2022 12:30:00 AM 20.25 68.45 0.149 7.74 2.07 8.09
8/5/2022 12:45:00 AM 20.19 68.342 0.162 7.73 2.77 8.1
8/5/2022 1:00:00 AM 20.1 68.18 0.161 7.73 2.1 8.12
8/5/2022 1:15:00 AM 20.06 68.108 0.16 7.72 2.21 8.12
8/5/2022 1:30:00 AM 20 68 0.166 7.72 2.18 8.15
8/5/2022 1:45:00 AM 19.93 67.874 0.162 7.72 2.02 8.15
8/5/2022 2:00:00 AM 19.89 67.802 0.194 7.71 2.85 8.14
8/5/2022 2:15:00 AM 19.83 67.694 0.162 7.71 2.2 8.17
8/5/2022 2:30:00 AM 19.81 67.658 0.163 7.71 2.39 8.14
8/5/2022 2:45:00 AM 19.75 67.55 0.167 7.7 2.28 8.17
8/5/2022 3:00:00 AM 19.7 67.46 0.16 7.7 2.23 8.15
8/5/2022 3:15:00 AM 19.63 67.334 0.159 7.71 2.15 8.23
8/5/2022 3:30:00 AM 19.61 67.298 0.194 7.7 1.91 8.18
8/5/2022 3:45:00 AM 19.58 67.244 0.165 7.7 2.16 8.18
8/5/2022 4:00:00 AM 19.53 67.154 0.156 7.7 2.19 8.24
8/5/2022 4:15:00 AM 19.46 67.028 0.169 7.7 2.2 8.26
8/5/2022 4:30:00 AM 19.45 67.01 0.156 7.7 2.23 8.27
8/5/2022 4:45:00 AM 19.4 66.92 0.164 7.7 2.88 8.28
8/5/2022 5:00:00 AM 19.4 66.92 0.156 7.69 2.6 8.23
8/5/2022 5:15:00 AM 19.36 66.848 0.152 7.67 5.37 8.21
8/5/2022 5:30:00 AM 19.33 66.794 0.158 7.64 15.62 8.08
8/5/2022 5:45:00 AM 19.29 66.722 0.158 7.67 3.62 8.18
8/5/2022 6:00:00 AM 19.26 66.668 0.164 7.65 2.87 8.11
8/5/2022 6:15:00 AM 19.18 66.524 0.164 7.68 2.8 8.31
8/5/2022 6:30:00 AM 19.16 66.488 0.158 7.68 2.09 8.3
8/5/2022 6:45:00 AM 19.14 66.452 0.153 7.67 2.2 8.3
8/5/2022 7:00:00 AM 19.14 66.452 0.166 7.65 2.12 8.3
8/5/2022 7:15:00 AM 19.15 66.47 0.151 7.65 2.2 8.07
8/5/2022 7:30:00 AM 19.14 66.452 0.158 7.65 2.17 8.06
8/5/2022 7:45:00 AM 19.14 66.452 0.151 7.68 2.16 8.16
8/5/2022 8:00:00 AM 19.13 66.434 0.166 7.67 2.34 8.18
8/5/2022 8:15:00 AM 19.13 66.434 0.156 7.67 2.07 8.17
8/5/2022 8:30:00 AM 19.12 66.416 0.161 7.67 2.2 8.16
8/5/2022 8:45:00 AM 19.13 66.434 0.161 7.68 2.04 8.24
8/5/2022 9:00:00 AM 19.14 66.452 0.151 7.68 1.98 8.21
8/5/2022 9:15:00 AM 19.15 66.47 0.147 7.68 2.49 8.2
8/5/2022 9:30:00 AM 19.17 66.506 0.192 7.65 2.28 8.21
8/5/2022 9:45:00 AM 19.24 66.632 0.16 7.66 2 8.41
8/5/2022 10:00:00 AM 19.34 66.812 0.154 7.73 6.33 8.52
8/5/2022 10:15:00 AM 19.39 66.902 0.191 7.74 2.31 8.64
8/5/2022 10:30:00 AM 19.44 66.992 0.19 7.72 2.02 8.5
8/5/2022 10:45:00 AM 19.62 67.316 0.152 7.76 2.43 8.99
8/5/2022 11:00:00 AM 19.79 67.622 0.15 7.81 2 9.1
8/5/2022 11:15:00 AM 20.08 68.144 0.149 7.97 1.93 9.37
8/5/2022 11:30:00 AM 20.35 68.63 0.151 8.1 1.85 9.58
8/5/2022 11:45:00 AM 20.52 68.936 0.153 8.1 1.85 9.5
8/5/2022 12:00:00 PM 20.8 69.44 0.151 8.23 1.78 9.66
8/5/2022 12:15:00 PM 21.04 69.872 0.15 8.29 1.75 9.72
8/5/2022 12:30:00 PM 21.36 70.448 0.149 8.39 1.85 9.74
8/5/2022 12:45:00 PM 21.61 70.898 0.15 8.45 1.87 9.89
8/5/2022 1:00:00 PM 21.95 71.51 0.154 8.49 2.22 10.06
8/5/2022 1:15:00 PM 22.13 71.834 0.158 8.5 1.82 9.9
8/5/2022 1:30:00 PM 22.34 72.212 0.184 8.56 1.9 9.84
8/5/2022 1:45:00 PM 22.55 72.59 0.158 8.62 1.78 9.98
8/5/2022 2:00:00 PM 22.69 72.842 0.184 8.65 1.86 9.89
8/5/2022 2:15:00 PM 22.82 73.076 0.16 8.65 1.86 9.84
8/5/2022 2:30:00 PM 22.87 73.166 0.16 8.69 1.79 9.84
8/5/2022 2:45:00 PM 23.02 73.436 0.16 8.74 1.76 9.76
8/5/2022 3:00:00 PM 23.06 73.508 0.155 8.75 1.8 9.82
8/5/2022 3:15:00 PM 23.03 73.454 0.15 8.75 1.97 9.85
8/5/2022 3:30:00 PM 22.91 73.238 0.158 8.72 1.89 9.51
8/5/2022 3:45:00 PM 22.84 73.112 0.159 8.62 1.95 9.37
8/5/2022 4:00:00 PM 22.86 73.148 0.185 8.62 1.95 9.27
8/5/2022 4:15:00 PM 22.82 73.076 0.16 8.65 1.97 9.3
8/5/2022 4:30:00 PM 22.75 72.95 0.16 8.6 2.11 9.27
8/5/2022 4:45:00 PM 22.72 72.896 0.184 8.56 2.43 9.17
8/5/2022 5:00:00 PM 22.67 72.806 0.166 8.54 2.11 9.19
8/5/2022 5:15:00 PM 22.59 72.662 0.159 8.53 2.06 9.1
8/5/2022 5:30:00 PM 22.47 72.446 0.184 8.52 2.07 9.14
8/5/2022 5:45:00 PM 22.41 72.338 0.156 8.46 2.06 9.06
8/5/2022 6:00:00 PM 22.31 72.158 0.159 8.44 1.93 9.05
8/5/2022 6:15:00 PM 22.26 72.068 0.158 8.43 2.04 9.04
8/5/2022 6:30:00 PM 22.2 71.96 0.147 8.34 2.01 8.77
8/5/2022 6:45:00 PM 22.14 71.852 0.148 8.31 2.17 8.9
8/5/2022 7:00:00 PM 22.03 71.654 0.158 8.3 2.04 8.87
8/5/2022 7:15:00 PM 22 71.6 0.158 8.24 1.92 8.77
8/5/2022 7:30:00 PM 21.91 71.438 0.155 8.19 2.32 8.65
8/5/2022 7:45:00 PM 21.81 71.258 0.154 8.13 2.66 8.64
8/5/2022 8:00:00 PM 21.72 71.096 0.157 8.08 2.69 8.57
8/5/2022 8:15:00 PM 21.63 70.934 0.157 8.04 2.1 8.47
8/5/2022 8:30:00 PM 21.51 70.718 0.155 8 2.23 8.38
8/5/2022 8:45:00 PM 21.41 70.538 0.153 7.93 2.61 8.26
8/5/2022 9:00:00 PM 21.33 70.394 0.188 7.91 2.1 8.21
8/5/2022 9:15:00 PM 21.27 70.286 0.152 7.91 2.05 8.27
8/5/2022 9:30:00 PM 21.21 70.17799 0.156 7.89 2.48 8.21
8/5/2022 9:45:00 PM 21.09 69.962 0.157 7.87 2.03 8.22
8/5/2022 10:00:00 PM 21.06 69.908 0.161 7.85 2.19 8.18
8/5/2022 10:15:00 PM 20.96 69.728 0.158 7.83 2.08 8.16
8/5/2022 10:30:00 PM 20.89 69.602 0.163 7.81 2.16 8.16
8/5/2022 10:45:00 PM 20.83 69.494 0.161 7.8 2.95 8.14
8/5/2022 11:00:00 PM 20.72 69.296 0.152 7.79 2.12 8.17
8/5/2022 11:15:00 PM 20.67 69.206 0.157 7.78 2.15 8.15
8/5/2022 11:30:00 PM 20.59 69.062 0.189 7.78 2.32 8.14
8/5/2022 11:45:00 PM 20.53 68.954 0.16 7.76 4.62 8.11
8/6/2022 12:00:00 AM 20.46 68.828 0.157 7.76 2.55 8.15
8/6/2022 12:15:00 AM 20.38 68.684 0.149 7.76 2.77 8.15
8/6/2022 12:30:00 AM 20.31 68.558 0.149 7.76 2.2 8.16
8/6/2022 12:45:00 AM 20.25 68.45 0.149 7.75 2.72 8.17
8/6/2022 1:00:00 AM 20.16 68.288 0.154 7.75 2.03 8.21
8/6/2022 1:15:00 AM 20.11 68.198 0.156 7.74 2.18 8.16
8/6/2022 1:30:00 AM 20.07 68.126 0.162 7.74 1.97 8.19
8/6/2022 1:45:00 AM 20.01 68.018 0.189 7.73 2.02 8.21
8/6/2022 2:00:00 AM 19.92 67.856 0.156 7.74 2.05 8.25
8/6/2022 2:15:00 AM 19.91 67.838 0.156 7.73 2.08 8.2
8/6/2022 2:30:00 AM 19.86 67.748 0.156 7.72 2.01 8.25
8/6/2022 2:45:00 AM 19.76 67.568 0.154 7.72 2.04 8.3
8/6/2022 3:00:00 AM 19.75 67.55 0.189 7.72 1.9 8.25
8/6/2022 3:15:00 AM 19.73 67.514 0.152 7.71 2.53 8.25
8/6/2022 3:30:00 AM 19.68 67.424 0.153 7.71 2.29 8.26
8/6/2022 3:45:00 AM 19.6 67.28 0.164 7.72 2.1 8.32
8/6/2022 4:00:00 AM 19.58 67.244 0.159 7.71 3.08 8.3
8/6/2022 4:15:00 AM 19.52 67.136 0.159 7.71 2.22 8.3
8/6/2022 4:30:00 AM 19.46 67.028 0.152 7.71 2.14 8.32
8/6/2022 4:45:00 AM 19.42 66.956 0.154 7.71 2.22 8.33
8/6/2022 5:00:00 AM 19.36 66.848 0.15 7.71 2.09 8.34
8/6/2022 5:15:00 AM 19.36 66.848 0.164 7.68 5.18 8.22
8/6/2022 5:30:00 AM 19.31 66.758 0.16 7.68 4.96 8.24
8/6/2022 5:45:00 AM 19.29 66.722 0.158 7.68 2.17 8.25
8/6/2022 6:00:00 AM 19.27 66.686 0.146 7.67 2.2 8.19
8/6/2022 6:15:00 AM 19.24 66.632 0.158 7.68 2.15 8.23
8/6/2022 6:30:00 AM 19.25 66.65 0.155 7.67 2.14 8.22
8/6/2022 6:45:00 AM 19.21 66.578 0.159 7.71 2.2 8.28
8/6/2022 7:00:00 AM 19.19 66.542 0.151 7.71 2 8.39
8/6/2022 7:15:00 AM 19.21 66.578 0.153 7.66 2.09 8.25
8/6/2022 7:30:00 AM 19.21 66.578 0.16 7.65 2.05 8.19
8/6/2022 7:45:00 AM 19.2 66.56 0.157 7.66 2.02 8.16
8/6/2022 8:00:00 AM 19.19 66.542 0.16 7.67 2.06 8.13
8/6/2022 8:15:00 AM 19.19 66.542 0.16 7.67 2.13 8.21
8/6/2022 8:30:00 AM 19.19 66.542 0.158 7.67 2.05 8.26
8/6/2022 8:45:00 AM 19.2 66.56 0.158 7.68 1.98 8.24
8/6/2022 9:00:00 AM 19.22 66.596 0.188 7.7 2.04 8.26
8/6/2022 9:15:00 AM 19.25 66.65 0.153 7.7 2.37 8.38
8/6/2022 9:30:00 AM 19.27 66.686 0.146 7.69 2.07 8.3
8/6/2022 9:45:00 AM 19.3 66.74 0.153 7.7 1.85 8.53
8/6/2022 10:00:00 AM 19.34 66.812 0.161 7.71 1.89 8.46
8/6/2022 10:15:00 AM 19.38 66.884 0.15 7.75 1.91 8.49
8/6/2022 10:30:00 AM 19.47 67.046 0.155 7.77 2.07 8.67
8/6/2022 10:45:00 AM 19.6 67.28 0.155 7.75 2.18 8.78
8/6/2022 11:00:00 AM 19.77 67.586 0.158 7.81 2.26 8.92
8/6/2022 11:15:00 AM 20.03 68.054 0.156 7.9 2.11 9.05
8/6/2022 11:30:00 AM 20.27 68.486 0.185 7.91 1.97 9.16
8/6/2022 11:45:00 AM 20.56 69.008 0.158 8.01 2.03 9.3
8/6/2022 12:00:00 PM 20.89 69.602 0.15 8.11 1.84 9.44
8/6/2022 12:15:00 PM 21.12 70.016 0.185 8.16 1.86 9.58
8/6/2022 12:30:00 PM 21.44 70.592 0.154 8.22 2.13 9.68
8/6/2022 12:45:00 PM 21.66 70.988 0.155 8.31 1.92 9.66
8/6/2022 1:00:00 PM 21.9 71.42 0.155 8.38 1.85 9.65
8/6/2022 1:15:00 PM 22.05 71.69 0.151 8.46 1.91 9.8
8/6/2022 1:30:00 PM 22.1 71.78 0.154 8.44 1.86 9.72
8/6/2022 1:45:00 PM 22.11 71.798 0.151 8.36 2.29 9.52
8/6/2022 2:00:00 PM 22.45 72.41 0.16 8.48 1.93 9.71
8/6/2022 2:15:00 PM 22.49 72.482 0.158 8.42 2.09 9.58
8/6/2022 2:30:00 PM 22.83 73.094 0.156 8.56 1.91 9.73
8/6/2022 2:45:00 PM 23.04 73.472 0.154 8.59 1.96 9.76
8/6/2022 3:00:00 PM 23.19 73.742 0.163 8.63 1.97 9.77
8/6/2022 3:15:00 PM 23.23 73.814 0.158 8.62 4.67 9.52
8/6/2022 3:30:00 PM 23.33 73.994 0.154 8.65 4 9.51
8/6/2022 3:45:00 PM 23.31 73.958 0.156 8.69 2.53 9.69
8/6/2022 4:00:00 PM 23.38 74.084 0.152 8.71 2.12 9.64
8/6/2022 4:15:00 PM 23.27 73.886 0.151 8.64 2.03 9.46
8/6/2022 4:30:00 PM 23.24 73.832 0.158 8.67 2.01 9.58
8/6/2022 4:45:00 PM 23.24 73.832 0.161 8.73 1.92 9.62
8/6/2022 5:00:00 PM 23.24 73.832 0.183 8.68 1.76 9.49
8/6/2022 5:15:00 PM 23.22 73.796 0.159 8.63 1.82 9.36
8/6/2022 5:30:00 PM 23.25 73.85 0.158 8.62 1.93 9.17
8/6/2022 5:45:00 PM 23.19 73.742 0.159 8.61 2.03 9.26
8/6/2022 6:00:00 PM 23.16 73.688 0.184 8.7 1.8 9.58
8/6/2022 6:15:00 PM 23.11 73.598 0.155 8.69 1.83 9.52
8/6/2022 6:30:00 PM 23.02 73.436 0.159 8.6 1.91 9.27
8/6/2022 6:45:00 PM 22.93 73.274 0.157 8.59 1.84 9.32
8/6/2022 7:00:00 PM 22.82 73.076 0.155 8.53 1.89 9.18
8/6/2022 7:15:00 PM 22.69 72.842 0.148 8.45 2.06 9.02
8/6/2022 7:30:00 PM 22.63 72.734 0.162 8.38 1.98 8.9
8/6/2022 7:45:00 PM 22.51 72.518 0.155 8.29 2 8.77
8/6/2022 8:00:00 PM 22.45 72.41 0.161 8.17 2.32 8.57
8/6/2022 8:15:00 PM 22.38 72.284 0.159 8.14 2.32 8.53
8/6/2022 8:30:00 PM 22.29 72.122 0.157 8.08 2.12 8.42
8/6/2022 8:45:00 PM 22.2 71.96 0.154 8.02 2.25 8.29
8/6/2022 9:00:00 PM 22.1 71.78 0.159 7.96 2.71 8.2
8/6/2022 9:15:00 PM 22 71.6 0.161 7.94 2.01 8.19
8/6/2022 9:30:00 PM 21.93 71.474 0.16 7.91 1.98 8.14
8/6/2022 9:45:00 PM 21.86 71.348 0.155 7.89 2.45 8.1
8/6/2022 10:00:00 PM 21.78 71.204 0.163 7.86 2.03 8.06
8/6/2022 10:15:00 PM 21.7 71.06 0.157 7.85 2.14 8.05
8/6/2022 10:30:00 PM 21.64 70.952 0.154 7.84 2.03 8.05
8/6/2022 10:45:00 PM 21.58 70.844 0.19 7.82 2.03 8.01
8/6/2022 11:00:00 PM 21.52 70.736 0.155 7.81 2.05 8.01
8/6/2022 11:15:00 PM 21.47 70.646 0.154 7.79 2.08 7.96
8/6/2022 11:30:00 PM 21.4 70.52 0.157 7.78 2.37 7.99
8/6/2022 11:45:00 PM 21.33 70.394 0.16 7.78 2.12 8.01
8/7/2022 12:00:00 AM 21.26 70.268 0.16 7.77 2.03 8.01
8/7/2022 12:15:00 AM 21.21 70.17799 0.164 7.76 2.29 8
8/7/2022 12:30:00 AM 21.18 70.124 0.157 7.75 2.17 7.98
8/7/2022 12:45:00 AM 21.13 70.034 0.157 7.74 2.34 7.98
8/7/2022 1:00:00 AM 21.09 69.962 0.158 7.73 2.25 7.98
8/7/2022 1:15:00 AM 21.02 69.836 0.191 7.73 2.45 7.99
8/7/2022 1:30:00 AM 20.97 69.746 0.169 7.72 2.45 7.99
8/7/2022 1:45:00 AM 20.93 69.674 0.162 7.72 2.3 8.02
8/7/2022 2:00:00 AM 20.9 69.62 0.154 7.72 2.15 8
8/7/2022 2:15:00 AM 20.84 69.512 0.16 7.71 2.24 8.03
8/7/2022 2:30:00 AM 20.79 69.422 0.163 7.71 2.01 8.05
8/7/2022 2:45:00 AM 20.76 69.368 0.162 7.7 2.12 8.03
8/7/2022 3:00:00 AM 20.71 69.278 0.154 7.7 2.11 8.05
8/7/2022 3:15:00 AM 20.67 69.206 0.155 7.7 2.08 8.07
8/7/2022 3:30:00 AM 20.63 69.134 0.158 7.7 2.01 8.06
8/7/2022 3:45:00 AM 20.6 69.08 0.162 7.7 2.09 8.07
8/7/2022 4:00:00 AM 20.55 68.99 0.162 7.7 2.2 8.1
8/7/2022 4:15:00 AM 20.53 68.954 0.16 7.7 2.05 8.1
8/7/2022 4:30:00 AM 20.48 68.864 0.156 7.7 2.06 8.11
8/7/2022 4:45:00 AM 20.44 68.792 0.163 7.7 2.31 8.1
8/7/2022 5:00:00 AM 20.39 68.702 0.159 7.7 2.57 8.11
8/7/2022 5:15:00 AM 20.34 68.612 0.156 7.7 2.3 8.15
8/7/2022 5:30:00 AM 20.31 68.558 0.15 7.69 2.19 8.12
8/7/2022 5:45:00 AM 20.27 68.486 0.159 7.69 2.17 8.13
8/7/2022 6:00:00 AM 20.23 68.414 0.167 7.69 2.09 8.13
8/7/2022 6:15:00 AM 20.19 68.342 0.191 7.69 2.23 8.16
8/7/2022 6:30:00 AM 20.15 68.27 0.16 7.7 2.18 8.19
8/7/2022 6:45:00 AM 20.11 68.198 0.161 7.71 2.21 8.23
8/7/2022 7:00:00 AM 20.07 68.126 0.158 7.72 2.31 8.29
8/7/2022 7:15:00 AM 20.06 68.108 0.163 7.72 2.33 8.34
8/7/2022 7:30:00 AM 20.05 68.09 0.19 7.72 2.28 8.35
8/7/2022 7:45:00 AM 20.04 68.07201 0.157 7.74 2.23 8.44
8/7/2022 8:00:00 AM 20.04 68.07201 0.161 7.74 2.31 8.49
8/7/2022 8:15:00 AM 20.08 68.144 0.155 7.78 2.5 8.64
8/7/2022 8:30:00 AM 20.13 68.234 0.19 7.79 2.18 8.67
8/7/2022 8:45:00 AM 20.18 68.324 0.155 7.83 2.3 8.82
8/7/2022 9:00:00 AM 20.24 68.432 0.157 7.86 2.2 8.95
8/7/2022 9:15:00 AM 20.27 68.486 0.155 7.85 2.08 8.86
8/7/2022 9:30:00 AM 20.29 68.522 0.145 7.83 1.99 8.8
8/7/2022 9:45:00 AM 20.28 68.504 0.164 7.75 2.33 8.43
8/7/2022 10:00:00 AM 20.28 68.504 0.164 7.8 2.04 8.55
8/7/2022 10:15:00 AM 20.35 68.63 0.155 7.74 1.96 8.49
8/7/2022 10:30:00 AM 20.52 68.936 0.163 7.75 1.96 8.37
8/7/2022 10:45:00 AM 20.68 69.224 0.163 7.86 1.97 8.67
8/7/2022 11:00:00 AM 20.87 69.566 0.163 7.89 2.12 8.78
8/7/2022 11:15:00 AM 21.07 69.926 0.188 7.87 1.94 8.94
8/7/2022 11:30:00 AM 21.21 70.17799 0.155 7.95 1.85 9.18
8/7/2022 11:45:00 AM 21.3 70.34 0.152 8 2.1 9.08
8/7/2022 12:00:00 PM 21.48 70.664 0.155 8.05 2 9.23
8/7/2022 12:15:00 PM 21.65 70.97 0.16 8.17 2.16 9.34
8/7/2022 12:30:00 PM 21.86 71.348 0.187 8.28 2.73 9.52
8/7/2022 12:45:00 PM 21.84 71.312 0.162 8.2 2.15 9.46
8/7/2022 1:00:00 PM 22.04 71.672 0.163 8.35 2.96 9.47
8/7/2022 1:15:00 PM 22.15 71.87 0.161 8.41 2.13 9.49
8/7/2022 1:30:00 PM 22.17 71.906 0.159 8.34 1.95 9.38
8/7/2022 1:45:00 PM 22.24 72.032 0.157 8.45 2.04 9.67
8/7/2022 2:00:00 PM 22.23 72.014 0.156 8.36 2.02 9.54
8/7/2022 2:15:00 PM 22.25 72.05 0.156 8.34 2.03 9.35
8/7/2022 2:30:00 PM 22.34 72.212 0.158 8.37 2 9.46
8/7/2022 2:45:00 PM 22.4 72.32 0.158 8.41 2 9.47
8/7/2022 3:00:00 PM 22.44 72.392 0.157 8.38 2.01 9.47
8/7/2022 3:15:00 PM 22.72 72.896 0.157 8.56 1.89 9.66
8/7/2022 3:30:00 PM 22.77 72.986 0.154 8.66 2 9.8
8/7/2022 3:45:00 PM 22.85 73.13 0.155 8.71 2.11 9.87
8/7/2022 4:00:00 PM 22.85 73.13 0.159 8.69 2.05 9.69
8/7/2022 4:15:00 PM 22.83 73.094 0.185 8.59 2.05 9.52
8/7/2022 4:30:00 PM 22.99 73.382 0.185 8.61 2.13 9.81
8/7/2022 4:45:00 PM 22.94 73.292 0.154 8.66 2.01 9.68
8/7/2022 5:00:00 PM 23.04 73.472 0.15 8.73 1.91 9.77
8/7/2022 5:15:00 PM 23.01 73.418 0.156 8.77 2.02 9.79
8/7/2022 5:30:00 PM 22.92 73.256 0.162 8.74 1.95 9.7
8/7/2022 5:45:00 PM 22.84 73.112 0.154 8.71 1.91 9.59
8/7/2022 6:00:00 PM 22.79 73.022 0.162 8.67 2 9.51
8/7/2022 6:15:00 PM 22.76 72.968 0.151 8.66 1.98 9.51
8/7/2022 6:30:00 PM 22.68 72.824 0.157 8.59 1.94 9.32
8/7/2022 6:45:00 PM 22.61 72.698 0.157 8.51 1.97 9.15
8/7/2022 7:00:00 PM 22.51 72.518 0.158 8.43 1.94 8.99
8/7/2022 7:15:00 PM 22.43 72.374 0.156 8.36 1.89 8.88
8/7/2022 7:30:00 PM 22.35 72.23 0.151 8.29 1.99 8.76
8/7/2022 7:45:00 PM 22.25 72.05 0.163 8.22 1.99 8.66
8/7/2022 8:00:00 PM 22.15 71.87 0.162 8.15 1.88 8.53
8/7/2022 8:15:00 PM 22.08 71.744 0.149 8.09 1.92 8.44
8/7/2022 8:30:00 PM 22.02 71.636 0.156 8.04 2.01 8.33
8/7/2022 8:45:00 PM 21.96 71.528 0.161 8 2.1 8.26
8/7/2022 9:00:00 PM 21.89 71.402 0.161 7.97 2.02 8.19
8/7/2022 9:15:00 PM 21.82 71.276 0.163 7.93 2.07 8.13
8/7/2022 9:30:00 PM 21.75 71.15 0.155 7.91 2.15 8.14
8/7/2022 9:45:00 PM 21.68 71.024 0.156 7.89 2.33 8.09
8/7/2022 10:00:00 PM 21.62 70.916 0.154 7.87 2.2 8.06
8/7/2022 10:15:00 PM 21.55 70.79 0.161 7.85 2.21 8.04
8/7/2022 10:30:00 PM 21.5 70.7 0.159 7.84 2.02 8.02
8/7/2022 10:45:00 PM 21.42 70.556 0.16 7.82 2.13 8.01
8/7/2022 11:00:00 PM 21.36 70.448 0.159 7.81 2.24 8
8/7/2022 11:15:00 PM 21.29 70.32201 0.16 7.8 2.16 8
8/7/2022 11:30:00 PM 21.2 70.16 0.16 7.79 2.2 8.02
8/7/2022 11:45:00 PM 21.16 70.088 0.156 7.78 2.13 7.99
8/8/2022 12:00:00 AM 21.07 69.926 0.159 7.77 2.64 7.99
8/8/2022 12:15:00 AM 21.03 69.854 0.16 7.76 2.4 7.96
8/8/2022 12:30:00 AM 20.97 69.746 0.162 7.76 2.16 7.96
8/8/2022 12:45:00 AM 20.9 69.62 0.164 7.75 2.94 7.97
8/8/2022 1:00:00 AM 20.84 69.512 0.166 7.74 2.3 7.99
8/8/2022 1:15:00 AM 20.78 69.404 0.158 7.74 2.23 7.98
8/8/2022 1:30:00 AM 20.71 69.278 0.194 7.73 2.12 8
8/8/2022 1:45:00 AM 20.65 69.17 0.156 7.73 2.21 7.99
8/8/2022 2:00:00 AM 20.58 69.044 0.154 7.72 2.32 8.02
8/8/2022 2:15:00 AM 20.53 68.954 0.158 7.72 2.25 8.01
8/8/2022 2:30:00 AM 20.47 68.846 0.159 7.72 2.12 8.03
8/8/2022 2:45:00 AM 20.41 68.738 0.158 7.72 2.05 8.05
8/8/2022 3:00:00 AM 20.35 68.63 0.152 7.72 2.04 8.07
8/8/2022 3:15:00 AM 20.31 68.558 0.164 7.71 3.62 8.03
8/8/2022 3:30:00 AM 20.25 68.45 0.194 7.71 2.14 8.05
8/8/2022 3:45:00 AM 20.19 68.342 0.165 7.72 2.21 8.1
8/8/2022 4:00:00 AM 20.14 68.252 0.157 7.71 3.51 8.09
8/8/2022 4:15:00 AM 20.1 68.18 0.167 7.71 2.49 8.1
8/8/2022 4:30:00 AM 20.04 68.07201 0.167 7.7 2.39 8.12
8/8/2022 4:45:00 AM 19.99 67.982 0.162 7.7 2.28 8.11
8/8/2022 5:00:00 AM 19.94 67.892 0.167 7.71 2.18 8.15
8/8/2022 5:15:00 AM 19.91 67.838 0.164 7.69 2.73 8.08
8/8/2022 5:30:00 AM 19.84 67.712 0.15 7.7 2.25 8.17
8/8/2022 5:45:00 AM 19.81 67.658 0.169 7.69 2.34 8.14
8/8/2022 6:00:00 AM 19.76 67.568 0.168 7.69 2.16 8.17
8/8/2022 6:15:00 AM 19.71 67.478 0.155 7.7 2.15 8.21
8/8/2022 6:30:00 AM 19.67 67.406 0.167 7.7 2.3 8.25
8/8/2022 6:45:00 AM 19.64 67.352 0.155 7.71 2.51 8.29
8/8/2022 7:00:00 AM 19.61 67.298 0.158 7.72 2.52 8.35
8/8/2022 7:15:00 AM 19.59 67.262 0.17 7.73 2.09 8.38
8/8/2022 7:30:00 AM 19.58 67.244 0.173 7.73 2.36 8.43
8/8/2022 7:45:00 AM 19.57 67.226 0.157 7.74 2.35 8.49
8/8/2022 8:00:00 AM 19.57 67.226 0.158 7.76 2.14 8.52
8/8/2022 8:15:00 AM 19.57 67.226 0.164 7.77 2.12 8.58
8/8/2022 8:30:00 AM 19.59 67.262 0.158 7.78 2.13 8.64
8/8/2022 8:45:00 AM 19.62 67.316 0.144 7.77 2.38 8.61
8/8/2022 9:00:00 AM 19.66 67.388 0.158 7.79 2.18 8.63
8/8/2022 9:15:00 AM 19.68 67.424 0.156 7.78 2.18 8.62
8/8/2022 9:30:00 AM 19.75 67.55 0.191 7.77 2.01 8.5
8/8/2022 9:45:00 AM 19.81 67.658 0.192 7.79 2.05 8.57
8/8/2022 10:00:00 AM 19.83 67.694 0.166 7.76 2.1 8.46
8/8/2022 10:15:00 AM 19.84 67.712 0.162 7.72 2.03 8.24
8/8/2022 10:30:00 AM 19.95 67.91 0.156 7.68 2.1 8.23
8/8/2022 10:45:00 AM 20.07 68.126 0.157 7.67 2.04 8.2
8/8/2022 11:00:00 AM 20.34 68.612 0.161 7.77 2.18 8.2
8/8/2022 11:15:00 AM 20.55 68.99 0.19 7.79 2.02 8.61
8/8/2022 11:30:00 AM 20.78 69.404 0.159 7.85 1.99 8.78
8/8/2022 11:45:00 AM 21.11 69.998 0.16 7.97 1.94 8.96
8/8/2022 12:00:00 PM 21.37 70.466 0.189 8 1.86 8.66
8/8/2022 12:15:00 PM 21.73 71.114 0.158 8.14 2.44 9.25
8/8/2022 12:30:00 PM 21.92 71.456 0.189 8.11 2.15 9.06
8/8/2022 12:45:00 PM 22.24 72.032 0.158 8.18 2.22 9.36
8/8/2022 1:00:00 PM 22.57 72.626 0.158 8.36 1.93 9.52
8/8/2022 1:15:00 PM 22.81 73.058 0.159 8.39 2.01 9.56
8/8/2022 1:30:00 PM 23.1 73.58 0.188 8.46 1.92 9.56
8/8/2022 1:45:00 PM 23.31 73.958 0.156 8.51 2.23 9.62
8/8/2022 2:00:00 PM 23.53 74.354 0.156 8.55 1.93 9.61
8/8/2022 2:15:00 PM 23.77 74.786 0.157 8.6 2.15 9.64
8/8/2022 2:30:00 PM 23.89 75.002 0.187 8.61 2.18 9.59
8/8/2022 2:45:00 PM 24.12 75.416 0.161 8.68 1.86 9.63
8/8/2022 3:00:00 PM 24.22 75.596 0.161 8.71 1.95 9.43
8/8/2022 3:15:00 PM 24.26 75.668 0.158 8.66 2.15 9.37
8/8/2022 3:30:00 PM 24.32 75.776 0.155 8.63 2.33 9.31
8/8/2022 3:45:00 PM 24.41 75.938 0.162 8.66 2 9.34
8/8/2022 4:00:00 PM 24.55 76.19 0.16 8.68 1.97 9.34
8/8/2022 4:15:00 PM 24.54 76.172 0.159 8.67 2.28 9.3
8/8/2022 4:30:00 PM 24.5 76.1 0.156 8.65 2.11 9.19
8/8/2022 4:45:00 PM 24.47 76.046 0.168 8.72 1.92 9.4
8/8/2022 5:00:00 PM 24.33 75.794 0.188 8.78 1.87 9.41
8/8/2022 5:15:00 PM 24.15 75.47 0.159 8.72 2.1 9.24
8/8/2022 5:30:00 PM 24.19 75.542 0.164 8.67 1.95 9.14
8/8/2022 5:45:00 PM 24.08 75.344 0.162 8.6 3.25 8.97
8/8/2022 6:00:00 PM 24.03 75.254 0.158 8.6 1.96 8.99
8/8/2022 6:15:00 PM 23.96 75.128 0.167 8.58 2.33 8.83
8/8/2022 6:30:00 PM 23.84 74.912 0.159 8.54 2.2 8.86
8/8/2022 6:45:00 PM 23.75 74.75 0.189 8.54 2.07 8.91
8/8/2022 7:00:00 PM 23.65 74.57 0.164 8.49 2.54 8.82
8/8/2022 7:15:00 PM 23.53 74.354 0.156 8.43 1.98 8.72
8/8/2022 7:30:00 PM 23.45 74.21 0.165 8.33 2.15 8.5
8/8/2022 7:45:00 PM 23.33 73.994 0.158 8.27 2.14 8.47
8/8/2022 8:00:00 PM 23.25 73.85 0.163 8.19 2.09 8.26
8/8/2022 8:15:00 PM 23.2 73.76 0.166 8.18 2.05 8.26
8/8/2022 8:30:00 PM 23.09 73.562 0.191 8.12 1.93 8.21
8/8/2022 8:45:00 PM 22.99 73.382 0.161 8.03 2.26 8.05
8/8/2022 9:00:00 PM 22.87 73.166 0.152 8 2.17 7.91
8/8/2022 9:15:00 PM 22.77 72.986 0.165 7.98 2.05 7.97
8/8/2022 9:30:00 PM 22.69 72.842 0.192 7.94 2.13 7.88
8/8/2022 9:45:00 PM 22.59 72.662 0.168 7.91 3.39 7.85
8/8/2022 10:00:00 PM 22.47 72.446 0.161 7.88 2.37 7.81
8/8/2022 10:15:00 PM 22.39 72.302 0.161 7.86 2.11 7.77
8/8/2022 10:30:00 PM 22.22 71.996 0.157 7.83 2.29 7.78
8/8/2022 10:45:00 PM 22.14 71.852 0.16 7.82 2.12 7.77
8/8/2022 11:00:00 PM 22.02 71.636 0.158 7.81 2.22 7.8
8/8/2022 11:15:00 PM 21.95 71.51 0.163 7.79 2.16 7.78
8/8/2022 11:30:00 PM 21.9 71.42 0.168 7.78 2.29 7.74
8/8/2022 11:45:00 PM 21.81 71.258 0.167 7.78 2.07 7.77
8/9/2022 12:00:00 AM 21.76 71.168 0.16 7.77 2.18 7.76
8/9/2022 12:15:00 AM 21.68 71.024 0.165 7.76 2.15 7.77
8/9/2022 12:30:00 AM 21.64 70.952 0.167 7.75 1.99 7.76
8/9/2022 12:45:00 AM 21.57 70.826 0.162 7.74 2.22 7.75
8/9/2022 1:00:00 AM 21.55 70.79 0.171 7.74 2.12 7.73
8/9/2022 1:15:00 AM 21.47 70.646 0.166 7.74 2.16 7.79
8/9/2022 1:30:00 AM 21.43 70.574 0.168 7.73 2.13 7.78
8/9/2022 1:45:00 AM 21.39 70.502 0.17 7.73 2.09 7.77
8/9/2022 2:00:00 AM 21.33 70.394 0.166 7.73 2.1 7.78
8/9/2022 2:15:00 AM 21.3 70.34 0.153 7.72 2.21 7.77
8/9/2022 2:30:00 AM 21.25 70.25 0.17 7.72 2.08 7.79
8/9/2022 2:45:00 AM 21.21 70.17799 0.161 7.72 2.33 7.78
8/9/2022 3:00:00 AM 21.2 70.16 0.168 7.71 2 7.74
8/9/2022 3:15:00 AM 21.2 70.16 0.197 7.7 2.2 7.68
8/9/2022 3:30:00 AM 21.17 70.106 0.196 7.69 2.6 7.48
8/9/2022 3:45:00 AM 21.11 69.998 0.172 7.68 2.19 7.59
8/9/2022 4:00:00 AM 21.04 69.872 0.16 7.7 3.91 7.7
8/9/2022 4:15:00 AM 21.03 69.854 0.164 7.68 3.88 7.59
8/9/2022 4:30:00 AM 21 69.8 0.169 7.67 2.62 7.52
8/9/2022 4:45:00 AM 20.97 69.746 0.164 7.69 2.14 7.52
8/9/2022 5:00:00 AM 20.94 69.692 0.166 7.68 2.12 7.54
8/9/2022 5:15:00 AM 20.93 69.674 0.196 7.67 2.26 7.51
8/9/2022 5:30:00 AM 20.9 69.62 0.161 7.65 2.54 7.55
8/9/2022 5:45:00 AM 20.88 69.584 0.171 7.65 2.38 7.52
8/9/2022 6:00:00 AM 20.85 69.53 0.162 7.66 2.21 7.57
8/9/2022 6:15:00 AM 20.84 69.512 0.158 7.65 2.43 7.53
8/9/2022 6:30:00 AM 20.83 69.494 0.162 7.63 2.22 7.39
8/9/2022 6:45:00 AM 20.8 69.44 0.164 7.62 2.27 7.35
8/9/2022 7:00:00 AM 20.79 69.422 0.166 7.63 2.07 7.41
8/9/2022 7:15:00 AM 20.76 69.368 0.165 7.65 2.35 7.45
8/9/2022 7:30:00 AM 20.75 69.35 0.159 7.62 2.22 7.41
8/9/2022 7:45:00 AM 20.7 69.26 0.166 7.72 2.25 8.09
8/9/2022 8:00:00 AM 20.69 69.242 0.167 7.75 2.15 8.28
8/9/2022 8:15:00 AM 20.7 69.26 0.158 7.8 2.08 8.46
8/9/2022 8:30:00 AM 20.72 69.296 0.157 7.79 2.09 8.38
8/9/2022 8:45:00 AM 20.76 69.368 0.164 7.8 2.04 8.49
8/9/2022 9:00:00 AM 20.82 69.476 0.163 7.89 2.07 8.8
8/9/2022 9:15:00 AM 20.86 69.548 0.157 7.86 2.08 8.56
8/9/2022 9:30:00 AM 20.95 69.71 0.154 7.87 2.13 8.72
8/9/2022 9:45:00 AM 20.97 69.746 0.158 7.85 2.04 8.55
8/9/2022 10:00:00 AM 21.02 69.836 0.192 7.82 2.22 8.29
8/9/2022 10:15:00 AM 21.1 69.98 0.166 7.83 2.58 8.46
8/9/2022 10:30:00 AM 21.02 69.836 0.151 7.76 2.11 8.22
8/9/2022 10:45:00 AM 21.12 70.016 0.163 7.72 2.1 8.29
8/9/2022 11:00:00 AM 21.32 70.376 0.163 7.9 2.36 8.79
8/9/2022 11:15:00 AM 21.37 70.466 0.157 7.86 2.32 8.7
8/9/2022 11:30:00 AM 21.47 70.646 0.161 7.94 2.35 8.68
8/9/2022 11:45:00 AM 21.56 70.808 0.192 8 2.37 8.81
8/9/2022 12:00:00 PM 21.63 70.934 0.16 8 2.16 8.89
8/9/2022 12:15:00 PM 21.74 71.132 0.155 8.08 1.93 8.85
8/9/2022 12:30:00 PM 21.74 71.132 0.153 8.13 2.36 8.85
8/9/2022 12:45:00 PM 21.82 71.276 0.158 8.19 1.93 9.15
8/9/2022 1:00:00 PM 21.94 71.492 0.159 8.3 2.09 9.38
8/9/2022 1:15:00 PM 22.02 71.636 0.151 8.36 2.18 9.52
8/9/2022 1:30:00 PM 22.07 71.726 0.151 8.38 2.18 9.53
8/9/2022 1:45:00 PM 22.1 71.78 0.158 8.31 2.1 9.41
8/9/2022 2:00:00 PM 22.24 72.032 0.162 8.43 2.01 9.65
8/9/2022 2:15:00 PM 22.24 72.032 0.189 8.34 2.1 9.54
8/9/2022 2:30:00 PM 22.49 72.482 0.167 8.54 2.27 9.74
8/9/2022 2:45:00 PM 22.67 72.806 0.156 8.62 1.98 9.79
8/9/2022 3:00:00 PM 22.81 73.058 0.16 8.67 1.95 9.75
8/9/2022 3:15:00 PM 22.87 73.166 0.162 8.69 2.01 9.63
8/9/2022 3:30:00 PM 22.77 72.986 0.156 8.53 2.15 9.46
8/9/2022 3:45:00 PM 22.96 73.328 0.163 8.65 2.07 9.61
8/9/2022 4:00:00 PM 23.14 73.652 0.166 8.76 1.9 9.71
8/9/2022 4:15:00 PM 23.28 73.904 0.157 8.81 1.89 9.85
8/9/2022 4:30:00 PM 23.27 73.886 0.165 8.86 1.97 9.93
8/9/2022 4:45:00 PM 23.3 73.94 0.161 8.9 1.88 9.95
8/9/2022 5:00:00 PM 23.29 73.922 0.164 8.82 1.96 9.8
8/9/2022 5:15:00 PM 23.29 73.922 0.161 8.83 2.44 9.78
8/9/2022 5:30:00 PM 23.23 73.814 0.16 8.86 1.99 9.71
8/9/2022 5:45:00 PM 23.19 73.742 0.188 8.8 1.92 9.52
8/9/2022 6:00:00 PM 23.14 73.652 0.159 8.75 1.96 9.47
8/9/2022 6:15:00 PM 23.12 73.616 0.16 8.77 1.86 9.47
8/9/2022 6:30:00 PM 23.05 73.49 0.156 8.73 1.95 9.34
8/9/2022 6:45:00 PM 22.92 73.256 0.157 8.64 2.06 9.11
8/9/2022 7:00:00 PM 22.82 73.076 0.156 8.56 1.95 9
8/9/2022 7:15:00 PM 22.74 72.932 0.164 8.5 1.81 8.92
8/9/2022 7:30:00 PM 22.68 72.824 0.16 8.47 1.92 8.87
8/9/2022 7:45:00 PM 22.58 72.644 0.163 8.38 1.95 8.74
8/9/2022 8:00:00 PM 22.51 72.518 0.163 8.33 1.9 8.6
8/9/2022 8:15:00 PM 22.51 72.518 0.159 8.28 1.88 8.44
8/9/2022 8:30:00 PM 22.29 72.122 0.162 8.14 1.96 8.32
8/9/2022 8:45:00 PM 22.24 72.032 0.167 8.09 2.16 8.23
8/9/2022 9:00:00 PM 22.2 71.96 0.161 8.05 2.01 8.12
8/9/2022 9:15:00 PM 22.2 71.96 0.162 8.08 2.84 8.14
8/9/2022 9:30:00 PM 22.01 71.618 0.164 8.02 2.19 8.14
8/9/2022 9:45:00 PM 21.86 71.348 0.165 7.96 2.23 8.08
8/9/2022 10:00:00 PM 21.78 71.204 0.17 7.92 1.93 8
8/9/2022 10:15:00 PM 21.82 71.276 0.16 7.92 1.89 7.97
8/9/2022 10:30:00 PM 21.66 70.988 0.165 7.9 2.14 8
8/9/2022 10:45:00 PM 21.58 70.844 0.159 7.87 2.13 7.94
8/9/2022 11:00:00 PM 21.46 70.628 0.156 7.85 2.17 7.96
8/9/2022 11:15:00 PM 21.39 70.502 0.16 7.83 2.06 7.93
8/9/2022 11:30:00 PM 21.32 70.376 0.161 7.81 3.87 7.91
8/9/2022 11:45:00 PM 21.23 70.214 0.17 7.81 2.1 7.94
8/10/2022 12:00:00 AM 21.17 70.106 0.17 7.79 3.58 7.89
8/10/2022 12:15:00 AM 21.12 70.016 0.166 7.79 2.17 7.91
8/10/2022 12:30:00 AM 21.04 69.872 0.167 7.78 2.06 7.91
8/10/2022 12:45:00 AM 20.98 69.764 0.163 7.77 2.09 7.9
8/10/2022 1:00:00 AM 20.91 69.638 0.162 7.77 1.95 7.9
8/10/2022 1:15:00 AM 20.84 69.512 0.197 7.76 1.99 7.92
8/10/2022 1:30:00 AM 20.78 69.404 0.167 7.76 2.15 7.93
8/10/2022 1:45:00 AM 20.73 69.314 0.167 7.76 2.02 7.94
8/10/2022 2:00:00 AM 20.65 69.17 0.166 7.75 2.05 7.93
8/10/2022 2:15:00 AM 20.58 69.044 0.162 7.74 2.06 7.94
8/10/2022 2:30:00 AM 20.51 68.918 0.196 7.74 2.13 7.98
8/10/2022 2:45:00 AM 20.44 68.792 0.165 7.74 2.01 7.97
8/10/2022 3:00:00 AM 20.47 68.846 0.172 7.73 2 7.91
8/10/2022 3:15:00 AM 20.41 68.738 0.167 7.72 2.11 7.76
8/10/2022 3:30:00 AM 20.36 68.648 0.168 7.72 2.69 7.87
8/10/2022 3:45:00 AM 20.28 68.504 0.162 7.72 2.26 7.8
8/10/2022 4:00:00 AM 20.19 68.342 0.169 7.72 2.15 7.86
8/10/2022 4:15:00 AM 20.04 68.07201 0.165 7.72 2.44 7.93
8/10/2022 4:30:00 AM 19.83 67.694 0.198 7.73 2.47 8.13
8/10/2022 4:45:00 AM 19.79 67.622 0.161 7.73 5.54 8.14
8/10/2022 5:00:00 AM 19.73 67.514 0.17 7.73 2.48 8.16
8/10/2022 5:15:00 AM 19.67 67.406 0.165 7.72 2.68 8.12
8/10/2022 5:30:00 AM 19.6 67.28 0.197 7.73 2.77 8.19
8/10/2022 5:45:00 AM 19.53 67.154 0.165 7.73 2.36 8.22
8/10/2022 6:00:00 AM 19.49 67.082 0.171 7.73 2.26 8.2
8/10/2022 6:15:00 AM 19.43 66.974 0.158 7.73 2.41 8.24
8/10/2022 6:30:00 AM 19.39 66.902 0.162 7.73 2.12 8.29
8/10/2022 6:45:00 AM 19.36 66.848 0.164 7.74 2.36 8.3
8/10/2022 7:00:00 AM 19.33 66.794 0.165 7.75 2.37 8.41
8/10/2022 7:15:00 AM 19.33 66.794 0.168 7.76 2.24 8.46
8/10/2022 7:30:00 AM 19.32 66.776 0.196 7.78 2.14 8.54
8/10/2022 7:45:00 AM 19.32 66.776 0.164 7.8 2.26 8.66
8/10/2022 8:00:00 AM 19.32 66.776 0.161 7.84 2.15 8.78
8/10/2022 8:15:00 AM 19.32 66.776 0.162 7.87 2.37 8.94
8/10/2022 8:30:00 AM 19.34 66.812 0.172 7.91 2.11 9.07
8/10/2022 8:45:00 AM 19.37 66.866 0.159 7.94 2.03 9.2
8/10/2022 9:00:00 AM 19.39 66.902 0.16 7.96 2.21 9.26
8/10/2022 9:15:00 AM 19.41 66.938 0.153 7.94 2.13 9.14
8/10/2022 9:30:00 AM 19.43 66.974 0.158 7.93 2.07 9.09
8/10/2022 9:45:00 AM 19.48 67.064 0.161 7.98 2.26 9.24
8/10/2022 10:00:00 AM 19.52 67.136 0.153 8.02 2.16 9.3
8/10/2022 10:15:00 AM 19.52 67.136 0.157 7.97 2.01 9.08
8/10/2022 10:30:00 AM 19.54 67.172 0.164 7.95 2.19 9.05
8/10/2022 10:45:00 AM 19.72 67.496 0.193 8.05 2.08 9.33
8/10/2022 11:00:00 AM 19.78 67.604 0.149 8.14 2.02 9.62
8/10/2022 11:15:00 AM 19.82 67.676 0.159 8.07 3.49 9.23
8/10/2022 11:30:00 AM 19.8 67.64 0.161 8.01 2.69 9.11
8/10/2022 11:45:00 AM 19.87 67.766 0.164 8.04 2.56 9.25
8/10/2022 12:00:00 PM 20 68 0.155 8.08 2.57 9.26
8/10/2022 12:15:00 PM 20.21 68.378 0.163 8.17 2.44 9.56
8/10/2022 12:30:00 PM 20.25 68.45 0.162 8.19 2.41 9.39
8/10/2022 12:45:00 PM 20.42 68.756 0.162 8.2 2.22 9.55
8/10/2022 1:00:00 PM 20.62 69.116 0.191 8.25 2.6 9.54
8/10/2022 1:15:00 PM 20.77 69.386 0.191 8.34 2.27 9.68
8/10/2022 1:30:00 PM 21.06 69.908 0.162 8.44 2.1 9.84
8/10/2022 1:45:00 PM 21.12 70.016 0.166 8.41 2.24 9.66
8/10/2022 2:00:00 PM 21.27 70.286 0.165 8.45 1.98 9.85
8/10/2022 2:15:00 PM 21.44 70.592 0.19 8.57 1.96 9.85
8/10/2022 2:30:00 PM 21.56 70.808 0.15 8.61 2.11 9.9
8/10/2022 2:45:00 PM 21.74 71.132 0.16 8.71 2.04 9.98
8/10/2022 3:00:00 PM 21.75 71.15 0.165 8.66 2.56 9.85
8/10/2022 3:15:00 PM 21.94 71.492 0.158 8.7 1.95 9.94
8/10/2022 3:30:00 PM 22.18 71.924 0.168 8.79 2.03 9.84
8/10/2022 3:45:00 PM 22.31 72.158 0.155 8.8 2.23 9.83
8/10/2022 4:00:00 PM 22.33 72.194 0.16 8.77 2.28 9.83
8/10/2022 4:15:00 PM 22.45 72.41 0.163 8.8 2.02 9.79
8/10/2022 4:30:00 PM 22.51 72.518 0.165 8.8 104.21 9.91
8/10/2022 4:45:00 PM 22.5 72.5 0.154 8.77 2.59 9.78
8/10/2022 5:00:00 PM 22.47 72.446 0.17 8.7 3.85 9.61
8/10/2022 5:15:00 PM 22.46 72.42799 0.157 8.65 3.37 9.46
8/10/2022 5:30:00 PM 22.32 72.176 0.166 8.69 2.36 9.65
8/10/2022 5:45:00 PM 22.12 71.816 0.153 8.63 2.07 9.45
8/10/2022 6:00:00 PM 21.95 71.51 0.163 8.61 1.99 9.49
8/10/2022 6:15:00 PM 21.79 71.222 0.157 8.55 2.03 9.35
8/10/2022 6:30:00 PM 21.69 71.042 0.166 8.51 2 9.24
8/10/2022 6:45:00 PM 21.53 70.754 0.168 8.42 1.99 9.03
8/10/2022 7:00:00 PM 21.4 70.52 0.165 8.36 2.07 9.03
8/10/2022 7:15:00 PM 21.17 70.106 0.164 8.25 1.99 8.88
8/10/2022 7:30:00 PM 21.17 70.106 0.164 8.23 1.95 8.81
8/10/2022 7:45:00 PM 21.05 69.89 0.162 8.16 2.19 8.71
8/10/2022 8:00:00 PM 20.94 69.692 0.194 8.11 2.07 8.62
8/10/2022 8:15:00 PM 20.87 69.566 0.194 8.09 1.94 8.56
8/10/2022 8:30:00 PM 20.75 69.35 0.163 8.03 2.04 8.48
8/10/2022 8:45:00 PM 20.7 69.26 0.16 7.97 2.04 8.25
8/10/2022 9:00:00 PM 20.61 69.098 0.157 7.94 5.13 8.26
8/10/2022 9:15:00 PM 20.52 68.936 0.17 7.92 2.15 8.22
8/10/2022 9:30:00 PM 20.45 68.81 0.156 7.91 2.31 8.25
8/10/2022 9:45:00 PM 20.38 68.684 0.159 7.88 2.03 8.18
8/10/2022 10:00:00 PM 20.36 68.648 0.159 7.86 6.41 8.13
8/10/2022 10:15:00 PM 20.21 68.378 0.195 7.84 2.18 8.14
8/10/2022 10:30:00 PM 20.15 68.27 0.195 7.83 2.32 8.11
8/10/2022 10:45:00 PM 20.06 68.108 0.166 7.81 2.26 8.1
8/10/2022 11:00:00 PM 19.98 67.964 0.161 7.81 2.2 8.08
8/10/2022 11:15:00 PM 19.87 67.766 0.161 7.8 2.24 8.13
8/10/2022 11:30:00 PM 19.79 67.622 0.16 7.79 2.24 8.08
8/10/2022 11:45:00 PM 19.72 67.496 0.197 7.78 2.07 8.08
8/11/2022 12:00:00 AM 19.63 67.334 0.159 7.77 2.15 8.09
8/11/2022 12:15:00 AM 19.55 67.19 0.155 7.76 2.29 8.09
8/11/2022 12:30:00 AM 19.47 67.046 0.154 7.76 2.47 8.13
8/11/2022 12:45:00 AM 19.4 66.92 0.172 7.76 2.55 8.04
8/11/2022 1:00:00 AM 19.29 66.722 0.163 7.75 2.33 8.15
8/11/2022 1:15:00 AM 19.22 66.596 0.172 7.75 2.29 8.11
8/11/2022 1:30:00 AM 19.19 66.542 0.165 7.74 2.33 8.07
8/11/2022 1:45:00 AM 19.03 66.254 0.162 7.74 2.44 8.19
8/11/2022 2:00:00 AM 18.97 66.146 0.198 7.73 2.11 8.15
8/11/2022 2:15:00 AM 18.9 66.02 0.156 7.74 2.16 8.15
8/11/2022 2:30:00 AM 18.86 65.948 0.166 7.73 2.2 8.14
8/11/2022 2:45:00 AM 18.73 65.714 0.16 7.73 2.29 8.24
8/11/2022 3:00:00 AM 18.71 65.67799 0.156 7.72 2.6 8.2
8/11/2022 3:15:00 AM 18.64 65.552 0.159 7.72 2.44 8.14
8/11/2022 3:30:00 AM 18.56 65.408 0.198 7.72 2.22 8.18
8/11/2022 3:45:00 AM 18.47 65.246 0.169 7.72 2.26 8.19
8/11/2022 4:00:00 AM 18.42 65.156 0.17 7.68 3.92 8.08
8/11/2022 4:15:00 AM 18.36 65.048 0.172 7.7 2.69 8.18
8/11/2022 4:30:00 AM 18.28 64.904 0.162 7.71 2.24 8.18
8/11/2022 4:45:00 AM 18.21 64.778 0.172 7.7 3.47 8.21
8/11/2022 5:00:00 AM 18.13 64.634 0.166 7.71 2.42 8.2
8/11/2022 5:15:00 AM 18.09 64.562 0.198 7.7 2.21 8.27
8/11/2022 5:30:00 AM 18.01 64.418 0.163 7.69 2.58 8.24
8/11/2022 5:45:00 AM 18.01 64.418 0.165 7.69 3.24 8.24
8/11/2022 6:00:00 AM 17.66 63.788 0.158 7.73 2.36 8.59
8/11/2022 6:15:00 AM 17.6 63.68 0.154 7.74 2.23 8.61
8/11/2022 6:30:00 AM 17.56 63.608 0.173 7.74 2.21 8.62
8/11/2022 6:45:00 AM 17.5 63.5 0.168 7.75 2.62 8.71
8/11/2022 7:00:00 AM 17.49 63.482 0.175 7.76 2.32 8.75
8/11/2022 7:15:00 AM 17.44 63.392 0.166 7.78 2.34 8.86
8/11/2022 7:30:00 AM 17.43 63.374 0.165 7.77 2.28 8.87
8/11/2022 7:45:00 AM 17.41 63.338 0.167 7.78 2.24 8.9
8/11/2022 8:00:00 AM 17.4 63.32 0.169 7.78 2.09 8.91
8/11/2022 8:15:00 AM 17.4 63.32 0.182 7.79 2.28 8.92
8/11/2022 8:30:00 AM 17.41 63.338 0.16 7.78 2.43 8.77
8/11/2022 8:45:00 AM 17.42 63.356 0.173 7.82 3.5 9.07
8/11/2022 9:00:00 AM 17.46 63.428 0.162 7.82 2.75 9.03
8/11/2022 9:15:00 AM 17.5 63.5 0.166 7.81 2.33 8.81
8/11/2022 9:30:00 AM 17.52 63.536 0.159 7.8 2.38 8.89
8/11/2022 9:45:00 AM 17.55 63.59 0.17 7.79 2.08 8.88
8/11/2022 10:00:00 AM 17.67 63.806 0.196 7.81 2.02 9
8/11/2022 10:15:00 AM 17.7 63.86 0.157 7.81 2.22 8.91
8/11/2022 10:30:00 AM 17.65 63.77 0.172 7.79 2.24 8.63
8/11/2022 10:45:00 AM 17.69 63.842 0.164 7.77 2.21 8.66
8/11/2022 11:00:00 AM 17.96 64.328 0.163 7.81 2 8.71
8/11/2022 11:15:00 AM 18.08 64.544 0.166 7.77 2.21 8.61
8/11/2022 11:30:00 AM 18.4 65.12 0.161 7.95 2.11 9.13
8/11/2022 11:45:00 AM 18.74 65.732 0.164 7.98 2.43 9.28
8/11/2022 12:00:00 PM 18.98 66.164 0.159 8.04 2.53 9.36
8/11/2022 12:15:00 PM 19.33 66.794 0.165 8.16 2.26 9.48
8/11/2022 12:30:00 PM 19.62 67.316 0.16 8.27 2.36 9.69
8/11/2022 12:45:00 PM 19.86 67.748 0.153 8.28 2.05 9.77
8/11/2022 1:00:00 PM 20.11 68.198 0.153 8.34 2.07 9.67
8/11/2022 1:15:00 PM 20.31 68.558 0.152 8.39 2.09 9.74
8/11/2022 1:30:00 PM 20.78 69.404 0.16 8.53 1.9 9.94
8/11/2022 1:45:00 PM 20.93 69.674 0.158 8.53 1.87 9.94
8/11/2022 2:00:00 PM 21.12 70.016 0.16 8.59 1.91 9.92
8/11/2022 2:15:00 PM 21.28 70.304 0.192 8.58 1.97 9.87
8/11/2022 2:30:00 PM 21.45 70.61 0.16 8.64 1.91 10
8/11/2022 2:45:00 PM 21.59 70.862 0.163 8.66 1.9 9.97
8/11/2022 3:00:00 PM 21.61 70.898 0.192 8.64 2.4 9.75
8/11/2022 3:15:00 PM 21.64 70.952 0.164 8.61 2 9.53
8/11/2022 3:30:00 PM 21.63 70.934 0.16 8.63 2.2 9.51
8/11/2022 3:45:00 PM 21.74 71.132 0.162 8.63 2.11 9.5
8/11/2022 4:00:00 PM 21.74 71.132 0.162 8.64 2.1 9.55
8/11/2022 4:15:00 PM 21.81 71.258 0.163 8.68 1.95 9.61
8/11/2022 4:30:00 PM 21.92 71.456 0.167 8.63 1.87 9.55
8/11/2022 4:45:00 PM 21.9 71.42 0.165 8.65 2.18 9.67
8/11/2022 5:00:00 PM 21.9 71.42 0.192 8.69 1.97 9.6
8/11/2022 5:15:00 PM 21.83 71.294 0.162 8.64 2.15 9.6
8/11/2022 5:30:00 PM 21.71 71.078 0.164 8.48 2.1 9.34
8/11/2022 5:45:00 PM 21.55 70.79 0.156 8.56 2.1 9.43
8/11/2022 6:00:00 PM 21.38 70.484 0.152 8.57 2.15 9.47
8/11/2022 6:15:00 PM 21.22 70.196 0.167 8.48 1.98 9.33
8/11/2022 6:30:00 PM 21.08 69.944 0.157 8.43 2.07 9.24
8/11/2022 6:45:00 PM 20.95 69.71 0.17 8.41 1.94 9.16
8/11/2022 7:00:00 PM 20.82 69.476 0.167 8.32 2.51 8.95
8/11/2022 7:15:00 PM 20.69 69.242 0.162 8.27 2.45 8.91
8/11/2022 7:30:00 PM 20.57 69.026 0.163 8.22 1.96 8.81
8/11/2022 7:45:00 PM 20.47 68.846 0.161 8.2 2.11 8.81
8/11/2022 8:00:00 PM 20.38 68.684 0.155 8.15 2.13 8.7
8/11/2022 8:15:00 PM 20.31 68.558 0.157 8.1 1.96 8.58
8/11/2022 8:30:00 PM 20.23 68.414 0.195 8.07 1.97 8.48
8/11/2022 8:45:00 PM 20.19 68.342 0.154 8.02 2.03 8.42
8/11/2022 9:00:00 PM 20.07 68.126 0.159 7.99 2.1 8.41
8/11/2022 9:15:00 PM 19.98 67.964 0.164 7.96 3.76 8.41
8/11/2022 9:30:00 PM 19.89 67.802 0.161 7.93 2.2 8.28
8/11/2022 9:45:00 PM 19.81 67.658 0.164 7.92 2.17 8.3
8/11/2022 10:00:00 PM 19.71 67.478 0.168 7.9 2.24 8.25
8/11/2022 10:15:00 PM 19.64 67.352 0.161 7.89 2.48 8.21
8/11/2022 10:30:00 PM 19.54 67.172 0.154 7.87 2.22 8.25
8/11/2022 10:45:00 PM 19.47 67.046 0.166 7.85 2.16 8.18
8/11/2022 11:00:00 PM 19.42 66.956 0.168 7.83 4.04 8.15
8/11/2022 11:15:00 PM 19.3 66.74 0.197 7.82 2.12 8.15
8/11/2022 11:30:00 PM 19.2 66.56 0.159 7.81 2.16 8.17
8/11/2022 11:45:00 PM 19.13 66.434 0.158 7.8 2.33 8.15
8/12/2022 12:00:00 AM 19.03 66.254 0.161 7.8 2.53 8.1
8/12/2022 12:15:00 AM 18.95 66.11 0.166 7.79 2.6 8.19
8/12/2022 12:30:00 AM 18.84 65.912 0.178 7.78 2.63 8.11
8/12/2022 12:45:00 AM 18.7 65.66 0.165 7.77 2.9 8.28
8/12/2022 1:00:00 AM 18.62 65.516 0.198 7.77 2.18 8.3
8/12/2022 1:15:00 AM 18.52 65.336 0.174 7.76 4.14 8.29
8/12/2022 1:30:00 AM 18.4 65.12 0.16 7.76 3.18 8.28
8/12/2022 1:45:00 AM 18.36 65.048 0.159 7.75 2.45 8.25
8/12/2022 2:00:00 AM 18.27 64.886 0.164 7.76 2.71 8.32
8/12/2022 2:15:00 AM 18.15 64.67 0.163 7.75 2.39 8.34
8/12/2022 2:30:00 AM 18.07 64.526 0.164 7.74 2.53 8.39
8/12/2022 2:45:00 AM 17.96 64.328 0.166 7.75 2.15 8.43
8/12/2022 3:00:00 AM 17.86 64.148 0.166 7.75 2.27 8.41
8/12/2022 3:15:00 AM 17.81 64.058 0.167 7.75 2.1 8.39
8/12/2022 3:30:00 AM 17.75 63.95 0.169 7.74 2.26 8.38
8/12/2022 3:45:00 AM 17.65 63.77 0.168 7.74 2.13 8.46
8/12/2022 4:00:00 AM 17.58 63.644 0.167 7.74 2.16 8.47
8/12/2022 4:15:00 AM 17.55 63.59 0.173 7.73 2.26 8.47
8/12/2022 4:30:00 AM 17.42 63.356 0.16 7.74 2.28 8.54
8/12/2022 4:45:00 AM 17.37 63.266 0.171 7.73 2.48 8.44
8/12/2022 5:00:00 AM 17.32 63.176 0.169 7.73 2.55 8.46
8/12/2022 5:15:00 AM 17.16 62.888 0.199 7.74 2.47 8.66
8/12/2022 5:30:00 AM 17.02 62.636 0.175 7.75 2.44 8.74
8/12/2022 5:45:00 AM 16.98 62.564 0.166 7.75 2.3 8.76
8/12/2022 6:00:00 AM 16.91 62.438 0.172 7.75 2.37 8.8
8/12/2022 6:15:00 AM 16.86 62.348 0.171 7.75 2.22 8.8
8/12/2022 6:30:00 AM 16.78 62.204 0.172 7.76 2.34 8.85
8/12/2022 6:45:00 AM 16.72 62.096 0.161 7.76 2.17 8.89
8/12/2022 7:00:00 AM 16.66 61.988 0.2 7.77 2.16 8.96
8/12/2022 7:15:00 AM 16.61 61.898 0.173 7.78 2.18 9.01
8/12/2022 7:30:00 AM 16.59 61.862 0.158 7.79 2.23 9.07
8/12/2022 7:45:00 AM 16.57 61.826 0.167 7.81 2.16 9.15
8/12/2022 8:00:00 AM 16.56 61.808 0.164 7.82 2.13 9.18
8/12/2022 8:15:00 AM 16.56 61.808 0.164 7.83 2.13 9.21
8/12/2022 8:30:00 AM 16.57 61.826 0.184 7.84 2.13 9.28
8/12/2022 8:45:00 AM 16.59 61.862 0.169 7.84 2.1 9.26
8/12/2022 9:00:00 AM 16.63 61.934 0.17 7.85 2.08 9.28
8/12/2022 9:15:00 AM 16.68 62.024 0.16 7.86 2.18 9.3
8/12/2022 9:30:00 AM 16.72 62.096 0.172 7.86 2.04 9.35
8/12/2022 9:45:00 AM 16.79 62.222 0.167 7.87 2.16 9.34
8/12/2022 10:00:00 AM 16.84 62.312 0.198 7.86 1.97 9.23
8/12/2022 10:15:00 AM 16.92 62.456 0.168 7.85 2.35 9.26
8/12/2022 10:30:00 AM 16.83 62.294 0.16 7.79 2.58 8.99
8/12/2022 10:45:00 AM 16.83 62.294 0.162 7.79 2.5 8.93
8/12/2022 11:00:00 AM 16.9 62.42 0.152 7.82 2.16 8.96
8/12/2022 11:15:00 AM 17.12 62.816 0.172 7.85 2.07 8.99
8/12/2022 11:30:00 AM 17.33 63.194 0.157 7.89 2.02 9.13
8/12/2022 11:45:00 AM 17.62 63.716 0.162 7.92 2.04 9.45
8/12/2022 12:00:00 PM 17.94 64.292 0.159 8.01 2 9.54
8/12/2022 12:15:00 PM 18.09 64.562 0.171 8.03 2.05 9.65
8/12/2022 12:30:00 PM 18.33 64.994 0.153 8.1 2 9.7
8/12/2022 12:45:00 PM 18.67 65.606 0.168 8.21 1.93 9.82
8/12/2022 1:00:00 PM 18.95 66.11 0.195 8.28 2.03 9.86
8/12/2022 1:15:00 PM 19.17 66.506 0.158 8.3 3.01 9.87
8/12/2022 1:30:00 PM 19.39 66.902 0.163 8.33 2.1 9.92
8/12/2022 1:45:00 PM 19.67 67.406 0.156 8.42 2.07 9.95
8/12/2022 2:00:00 PM 19.78 67.604 0.152 8.46 2.19 9.93
8/12/2022 2:15:00 PM 19.94 67.892 0.158 8.46 2.11 9.97
8/12/2022 2:30:00 PM 20 68 0.168 8.43 2.11 9.75
8/12/2022 2:45:00 PM 20.41 68.738 0.162 8.61 1.99 9.98
8/12/2022 3:00:00 PM 20.45 68.81 0.194 8.62 2 9.84
8/12/2022 3:15:00 PM 20.64 69.152 0.193 8.63 1.92 9.94
8/12/2022 3:30:00 PM 20.6 69.08 0.16 8.59 2.04 9.84
8/12/2022 3:45:00 PM 20.76 69.368 0.193 8.62 1.91 9.91
8/12/2022 4:00:00 PM 20.9 69.62 0.15 8.68 2.05 9.94
8/12/2022 4:15:00 PM 21.02 69.836 0.166 8.73 1.96 10.13
8/12/2022 4:30:00 PM 21.06 69.908 0.155 8.77 2.07 10.22
8/12/2022 4:45:00 PM 21.03 69.854 0.161 8.82 1.95 10.25
8/12/2022 5:00:00 PM 20.89 69.602 0.167 8.8 2.03 10.2
8/12/2022 5:15:00 PM 20.73 69.314 0.161 8.76 1.96 10.14
8/12/2022 5:30:00 PM 20.5 68.9 0.195 8.69 1.95 9.97
8/12/2022 5:45:00 PM 20.32 68.576 0.195 8.66 2.02 9.9
8/12/2022 6:00:00 PM 20.09 68.162 0.154 8.55 2.49 9.67
8/12/2022 6:15:00 PM 20.02 68.036 0.158 8.53 2.06 9.49
8/12/2022 6:30:00 PM 19.88 67.784 0.159 8.47 2.05 9.48
8/12/2022 6:45:00 PM 19.73 67.514 0.161 8.42 2.01 9.4
8/12/2022 7:00:00 PM 19.59 67.262 0.151 8.36 2.1 9.31
8/12/2022 7:15:00 PM 19.4 66.92 0.157 8.3 2.04 9.27
8/12/2022 7:30:00 PM 19.28 66.704 0.195 8.24 2.25 9.19
8/12/2022 7:45:00 PM 19.2 66.56 0.161 8.2 2.27 9.04
8/12/2022 8:00:00 PM 19.13 66.434 0.162 8.11 3.86 8.87
8/12/2022 8:15:00 PM 19.01 66.218 0.163 8.07 2.84 8.81
8/12/2022 8:30:00 PM 18.86 65.948 0.167 8.07 2.2 8.87
8/12/2022 8:45:00 PM 18.77 65.786 0.155 8.01 2.29 8.78
8/12/2022 9:00:00 PM 18.7 65.66 0.163 7.99 2.36 8.67
8/12/2022 9:15:00 PM 18.53 65.354 0.157 7.97 2.39 8.74
8/12/2022 9:30:00 PM 18.41 65.138 0.158 7.94 2.72 8.68
8/12/2022 9:45:00 PM 18.3 64.94 0.165 7.91 2.25 8.63
8/12/2022 10:00:00 PM 18.15 64.67 0.17 7.89 2.74 8.6
8/12/2022 10:15:00 PM 18.05 64.49 0.197 7.83 9.28 8.38
8/12/2022 10:30:00 PM 17.96 64.328 0.151 7.82 3.96 8.5
8/12/2022 10:45:00 PM 17.82 64.076 0.163 7.85 2.38 8.59
8/12/2022 11:00:00 PM 17.79 64.022 0.162 7.84 2.23 8.59
8/12/2022 11:15:00 PM 17.59 63.662 0.159 7.83 2.24 8.65
8/12/2022 11:30:00 PM 17.56 63.608 0.17 7.82 3.91 8.62
8/12/2022 11:45:00 PM 17.39 63.302 0.158 7.81 2.54 8.68
8/13/2022 12:00:00 AM 17.35 63.23 0.159 7.81 2.87 8.64
8/13/2022 12:15:00 AM 17.21 62.978 0.166 7.8 2.43 8.65
8/13/2022 12:30:00 AM 17.08 62.744 0.163 7.79 2.38 8.72
8/13/2022 12:45:00 AM 17.01 62.618 0.169 7.79 2.34 8.69
8/13/2022 1:00:00 AM 16.9 62.42 0.159 7.78 2.3 8.73
8/13/2022 1:15:00 AM 16.81 62.258 0.157 7.78 2.21 8.73
8/13/2022 1:30:00 AM 16.71 62.078 0.162 7.77 2.17 8.77
8/13/2022 1:45:00 AM 16.63 61.934 0.159 7.77 2.13 8.71
8/13/2022 2:00:00 AM 16.55 61.79 0.168 7.77 2.2 8.73
8/13/2022 2:15:00 AM 16.43 61.574 0.158 7.76 2.44 8.78
8/13/2022 2:30:00 AM 16.35 61.43 0.168 7.76 2.16 8.78
8/13/2022 2:45:00 AM 16.17 61.106 0.158 7.76 2.04 8.86
8/13/2022 3:00:00 AM 15.92 60.656 0.154 7.77 2.28 9.01
8/13/2022 3:15:00 AM 15.82 60.476 0.176 7.77 2.08 9.07
8/13/2022 3:30:00 AM 15.7 60.26 0.161 7.78 2.66 9.09
8/13/2022 3:45:00 AM 15.63 60.134 0.174 7.77 2.63 9.09
8/13/2022 4:00:00 AM 15.55 59.99 0.163 7.76 2.16 9.11
8/13/2022 4:15:00 AM 15.46 59.828 0.17 7.77 2.21 9.13
8/13/2022 4:30:00 AM 15.39 59.702 0.173 7.77 2.24 9.15
8/13/2022 4:45:00 AM 15.3 59.54 0.182 7.77 2.37 9.19
8/13/2022 5:00:00 AM 15.23 59.414 0.172 7.77 2.35 9.19
8/13/2022 5:15:00 AM 15.13 59.234 0.17 7.77 2.53 9.25
8/13/2022 5:30:00 AM 15.05 59.09 0.185 7.77 2.47 9.27
8/13/2022 5:45:00 AM 14.98 58.964 0.179 7.77 2.34 9.26
8/13/2022 6:00:00 AM 14.91 58.838 0.177 7.76 2.36 9.29
8/13/2022 6:15:00 AM 14.82 58.676 0.177 7.77 2.31 9.34
8/13/2022 6:30:00 AM 14.75 58.55 0.176 7.78 5.87 9.37
8/13/2022 6:45:00 AM 14.69 58.442 0.175 7.78 2.17 9.43
8/13/2022 7:00:00 AM 14.63 58.334 0.202 7.79 2.26 9.5
8/13/2022 7:15:00 AM 14.59 58.262 0.188 7.8 1.98 9.56
8/13/2022 7:30:00 AM 14.57 58.226 0.19 7.81 2.19 9.59
8/13/2022 7:45:00 AM 14.54 58.172 0.188 7.82 2.03 9.66
8/13/2022 8:00:00 AM 14.53 58.154 0.184 7.84 1.93 9.75
8/13/2022 8:15:00 AM 14.54 58.172 0.182 7.84 2.05 9.76
8/13/2022 8:30:00 AM 14.56 58.208 0.187 7.86 2.05 9.83
8/13/2022 8:45:00 AM 14.6 58.28 0.181 7.83 2.34 9.74
8/13/2022 9:00:00 AM 14.63 58.334 0.179 7.85 1.92 9.78
8/13/2022 9:15:00 AM 14.69 58.442 0.176 7.87 1.87 9.81
8/13/2022 9:30:00 AM 14.74 58.532 0.185 7.86 1.82 9.8
8/13/2022 9:45:00 AM 14.82 58.676 0.201 7.89 1.95 9.86
8/13/2022 10:00:00 AM 14.94 58.892 0.175 7.88 1.97 9.79
8/13/2022 10:15:00 AM 14.99 58.982 0.171 7.9 2.11 9.61
8/13/2022 10:30:00 AM 14.87 58.766 0.172 7.81 2.23 9.53
8/13/2022 10:45:00 AM 14.87 58.766 0.181 7.8 2.13 9.44
8/13/2022 11:00:00 AM 14.94 58.892 0.175 7.81 2.03 9.49
8/13/2022 11:15:00 AM 15.12 59.216 0.179 7.82 2.13 9.43
8/13/2022 11:30:00 AM 15.41 59.738 0.167 7.85 1.99 9.56
8/13/2022 11:45:00 AM 15.81 60.458 0.166 7.98 1.89 9.75
8/13/2022 12:00:00 PM 16.27 61.286 0.172 8.06 1.83 10
8/13/2022 12:15:00 PM 16.49 61.682 0.198 8.08 1.86 9.89
8/13/2022 12:30:00 PM 16.87 62.366 0.18 8.15 3.05 10.15
8/13/2022 12:45:00 PM 16.94 62.492 0.165 8.15 2.14 9.96
8/13/2022 1:00:00 PM 17.45 63.41 0.17 8.3 1.84 10.26
8/13/2022 1:15:00 PM 17.67 63.806 0.174 8.35 1.96 10.14
8/13/2022 1:30:00 PM 17.79 64.022 0.173 8.36 2.08 10.25
8/13/2022 1:45:00 PM 18.18 64.724 0.161 8.42 2.8 10.33
8/13/2022 2:00:00 PM 18.46 65.228 0.167 8.48 2.07 10.33
8/13/2022 2:15:00 PM 18.58 65.444 0.157 8.51 1.87 10.15
8/13/2022 2:30:00 PM 18.81 65.858 0.168 8.55 1.89 10.29
8/13/2022 2:45:00 PM 19 66.2 0.164 8.59 1.95 10.18
8/13/2022 3:00:00 PM 19.1 66.38 0.166 8.61 2.12 10.23
8/13/2022 3:15:00 PM 19.35 66.83 0.169 8.67 2.01 10.29
8/13/2022 3:30:00 PM 19.49 67.082 0.164 8.68 1.92 10.3
8/13/2022 3:45:00 PM 19.57 67.226 0.194 8.66 2.01 10.27
8/13/2022 4:00:00 PM 19.66 67.388 0.163 8.63 2.13 10.34
8/13/2022 4:15:00 PM 19.93 67.874 0.162 8.74 2.13 10.47
8/13/2022 4:30:00 PM 20.16 68.288 0.194 8.82 1.94 10.51
8/13/2022 4:45:00 PM 20.1 68.18 0.161 8.81 2.06 10.44
8/13/2022 5:00:00 PM 20.09 68.162 0.161 8.78 1.85 10.45
8/13/2022 5:15:00 PM 19.78 67.604 0.17 8.72 3.25 10.26
8/13/2022 5:30:00 PM 19.6 67.28 0.169 8.64 2.06 10.05
8/13/2022 5:45:00 PM 19.42 66.956 0.17 8.57 2 9.85
8/13/2022 6:00:00 PM 19.34 66.812 0.171 8.53 2.49 9.8
8/13/2022 6:15:00 PM 19.14 66.452 0.163 8.45 2.13 9.68
8/13/2022 6:30:00 PM 19 66.2 0.196 8.39 2.02 9.59
8/13/2022 6:45:00 PM 18.86 65.948 0.169 8.33 2.14 9.53
8/13/2022 7:00:00 PM 18.7 65.66 0.164 8.26 2.14 9.42
8/13/2022 7:15:00 PM 18.59 65.462 0.171 8.21 2.05 9.36
8/13/2022 7:30:00 PM 18.48 65.264 0.165 8.17 2.07 9.3
8/13/2022 7:45:00 PM 18.38 65.084 0.197 8.13 2.06 9.23
8/13/2022 8:00:00 PM 18.31 64.958 0.198 8.09 2.01 9.16
8/13/2022 8:15:00 PM 18.22 64.796 0.161 8.05 2.06 9.08
8/13/2022 8:30:00 PM 18.11 64.598 0.176 8.01 2.09 9.01
8/13/2022 8:45:00 PM 18.02 64.436 0.198 7.99 2.16 8.97
8/13/2022 9:00:00 PM 17.94 64.292 0.171 7.97 2.17 8.95
8/13/2022 9:15:00 PM 17.84 64.112 0.166 7.95 2.87 8.92
8/13/2022 9:30:00 PM 17.71 63.878 0.154 7.93 2.36 8.92
8/13/2022 9:45:00 PM 17.63 63.734 0.198 7.92 2.55 8.9
8/13/2022 10:00:00 PM 17.53 63.554 0.167 7.9 2.7 8.9
8/13/2022 10:15:00 PM 17.43 63.374 0.161 7.89 2.66 8.9
8/13/2022 10:30:00 PM 17.33 63.194 0.199 7.88 2.37 8.89
8/13/2022 10:45:00 PM 17.22 62.996 0.165 7.87 2.31 8.9
8/13/2022 11:00:00 PM 17.13 62.834 0.159 7.86 2.25 8.9
8/13/2022 11:15:00 PM 17.04 62.672 0.165 7.85 2.3 8.91
8/13/2022 11:30:00 PM 16.97 62.546 0.17 7.84 2.34 8.89
8/13/2022 11:45:00 PM 16.85 62.33 0.164 7.83 2.47 8.9
8/14/2022 12:00:00 AM 16.76 62.168 0.166 7.83 2.23 8.93
8/14/2022 12:15:00 AM 16.69 62.042 0.169 7.82 2.25 8.92
8/14/2022 12:30:00 AM 16.57 61.826 0.159 7.82 2.21 8.96
8/14/2022 12:45:00 AM 16.49 61.682 0.141 7.82 2.48 8.95
8/14/2022 1:00:00 AM 16.4 61.52 0.145 7.81 2.25 8.97
8/14/2022 1:15:00 AM 16.29 61.322 0.152 7.81 2.13 9.01
8/14/2022 1:30:00 AM 16.22 61.196 0.174 7.8 2.26 8.99
8/14/2022 1:45:00 AM 16.15 61.07 0.169 7.8 2.33 9
8/14/2022 2:00:00 AM 16.02 60.836 0.171 7.79 2.37 9.04
8/14/2022 2:15:00 AM 15.94 60.692 0.159 7.79 2.3 9.04
8/14/2022 2:30:00 AM 15.85 60.53 0.167 7.79 2.31 9.07
8/14/2022 2:45:00 AM 15.78 60.404 0.202 7.78 2.47 9.07
8/14/2022 3:00:00 AM 15.7 60.26 0.173 7.79 2.31 9.09
8/14/2022 3:15:00 AM 15.63 60.134 0.175 7.78 2.29 9.1
8/14/2022 3:30:00 AM 15.54 59.972 0.159 7.78 2.13 9.1
8/14/2022 3:45:00 AM 15.45 59.81 0.17 7.78 2.28 9.14
8/14/2022 4:00:00 AM 15.37 59.666 0.175 7.78 2.17 9.17
8/14/2022 4:15:00 AM 15.29 59.522 0.161 7.78 2.3 9.16
8/14/2022 4:30:00 AM 15.22 59.396 0.17 7.78 2.14 9.22
8/14/2022 4:45:00 AM 15.13 59.234 0.175 7.78 2.3 9.24
8/14/2022 5:00:00 AM 15.06 59.108 0.174 7.77 3.19 9.22
8/14/2022 5:15:00 AM 14.98 58.964 0.169 7.77 2.74 9.25
8/14/2022 5:30:00 AM 14.88 58.784 0.171 7.78 2.43 9.31
8/14/2022 5:45:00 AM 14.83 58.694 0.182 7.78 3.48 9.31
8/14/2022 6:00:00 AM 14.75 58.55 0.181 7.77 108.6 9.3
8/14/2022 6:15:00 AM 14.66 58.388 0.176 7.78 128.59 9.37
8/14/2022 6:30:00 AM 14.6 58.28 0.179 7.78 11.68 9.41
8/14/2022 6:45:00 AM 14.53 58.154 0.181 7.79 3.13 9.47
8/14/2022 7:00:00 AM 14.47 58.046 0.175 7.8 7.41 9.53
8/14/2022 7:15:00 AM 14.41 57.938 0.185 7.81 3.53 9.61
8/14/2022 7:30:00 AM 14.38 57.884 0.176 7.82 2.4 9.67
8/14/2022 7:45:00 AM 14.39 57.902 0.172 7.82 2.43 9.67
8/14/2022 8:00:00 AM 14.38 57.884 0.174 7.84 2.23 9.74
8/14/2022 8:15:00 AM 14.38 57.884 0.178 7.84 2.17 9.77
8/14/2022 8:30:00 AM 14.38 57.884 0.202 7.86 1.97 9.85
8/14/2022 8:45:00 AM 14.41 57.938 0.171 7.87 1.96 9.88
8/14/2022 9:00:00 AM 14.46 58.028 0.178 7.89 2.08 9.94
8/14/2022 9:15:00 AM 14.53 58.154 0.171 7.9 2.02 9.99
8/14/2022 9:30:00 AM 14.6 58.28 0.172 7.92 2.05 10
8/14/2022 9:45:00 AM 14.67 58.406 0.178 7.92 1.84 10.05
8/14/2022 10:00:00 AM 14.76 58.568 0.173 7.92 2 10.06
8/14/2022 10:15:00 AM 14.67 58.406 0.172 7.85 2.24 9.77
8/14/2022 10:30:00 AM 14.62 58.316 0.172 7.83 2.15 9.6
8/14/2022 10:45:00 AM 14.62 58.316 0.177 7.81 2.03 9.53
8/14/2022 11:00:00 AM 14.76 58.568 0.179 7.82 1.94 9.51
8/14/2022 11:15:00 AM 14.97 58.946 0.176 7.87 2.15 9.41
8/14/2022 11:30:00 AM 15.23 59.414 0.201 7.9 1.9 9.6
8/14/2022 11:45:00 AM 15.65 60.17 0.164 7.99 2.75 9.86
8/14/2022 12:00:00 PM 15.88 60.584 0.2 8.06 1.95 9.98
8/14/2022 12:15:00 PM 16.08 60.944 0.199 8 2.45 10.02
8/14/2022 12:30:00 PM 16.32 61.376 0.165 8.07 2.25 9.99
8/14/2022 12:45:00 PM 16.47 61.646 0.175 8.07 2.46 9.96
8/14/2022 1:00:00 PM 16.71 62.078 0.167 8.09 2.08 10.1
8/14/2022 1:15:00 PM 16.82 62.276 0.156 8.11 2.19 10.14
8/14/2022 1:30:00 PM 17.12 62.816 0.174 8.23 2.03 10.2
8/14/2022 1:45:00 PM 17.45 63.41 0.174 8.36 1.96 10.44
8/14/2022 2:00:00 PM 17.4 63.32 0.163 8.24 2.1 10.23
8/14/2022 2:15:00 PM 17.67 63.806 0.158 8.35 3.52 10.5
8/14/2022 2:30:00 PM 18.34 65.012 0.159 8.6 2.38 10.75
8/14/2022 2:45:00 PM 18.06 64.508 0.163 8.47 2.16 10.45
8/14/2022 3:00:00 PM 18.23 64.814 0.163 8.55 2.19 10.62
8/14/2022 3:15:00 PM 18.26 64.868 0.196 8.51 2.16 10.61
8/14/2022 3:30:00 PM 18.46 65.228 0.157 8.58 1.96 10.79
8/14/2022 3:45:00 PM 18.68 65.624 0.158 8.65 1.89 10.79
8/14/2022 4:00:00 PM 18.7 65.66 0.166 8.6 2.22 10.82
8/14/2022 4:15:00 PM 19.22 66.596 0.194 8.8 2.13 11.03
8/14/2022 4:30:00 PM 19.06 66.308 0.151 8.71 3.72 10.67
8/14/2022 4:45:00 PM 19.3 66.74 0.169 8.8 2.08 11.29
8/14/2022 5:00:00 PM 19.45 67.01 0.164 8.83 1.88 11.19
8/14/2022 5:15:00 PM 19.53 67.154 0.166 8.91 1.96 11.26
8/14/2022 5:30:00 PM 19.53 67.154 0.162 8.9 1.95 11.03
8/14/2022 5:45:00 PM 19.44 66.992 0.166 8.87 2.34 10.85
8/14/2022 6:00:00 PM 19.45 67.01 0.165 8.85 2.15 10.79
8/14/2022 6:15:00 PM 19.36 66.848 0.17 8.85 2.11 10.61
8/14/2022 6:30:00 PM 19.34 66.812 0.159 8.84 2.14 10.58
8/14/2022 6:45:00 PM 19.25 66.65 0.155 8.8 2.04 10.49
8/14/2022 7:00:00 PM 19.18 66.524 0.16 8.79 2.12 10.34
8/14/2022 7:15:00 PM 19.1 66.38 0.161 8.72 2.25 10.23
8/14/2022 7:30:00 PM 19.05 66.29 0.164 8.68 2.76 10.01
8/14/2022 7:45:00 PM 18.97 66.146 0.162 8.63 2.19 9.92
8/14/2022 8:00:00 PM 18.91 66.038 0.163 8.56 2.17 9.73
8/14/2022 8:15:00 PM 18.81 65.858 0.161 8.5 2.31 9.59
8/14/2022 8:30:00 PM 18.74 65.732 0.162 8.42 2.46 9.48
8/14/2022 8:45:00 PM 18.72 65.696 0.161 8.28 3.8 9.21
8/14/2022 9:00:00 PM 18.63 65.534 0.159 8.24 2.67 9.19
8/14/2022 9:15:00 PM 18.59 65.462 0.157 8.23 2.35 9.06
8/14/2022 9:30:00 PM 18.52 65.336 0.168 8.17 2.32 8.99
8/14/2022 9:45:00 PM 18.45 65.21 0.168 8.06 2.41 8.85
8/14/2022 10:00:00 PM 18.38 65.084 0.164 8.05 2.43 8.78
8/14/2022 10:15:00 PM 18.32 64.976 0.16 8.01 2.55 8.71
8/14/2022 10:30:00 PM 18.24 64.832 0.174 7.99 2.23 8.69
8/14/2022 10:45:00 PM 18.17 64.706 0.198 7.96 2.4 8.66
8/14/2022 11:00:00 PM 18.08 64.544 0.161 7.94 2.34 8.65
8/14/2022 11:15:00 PM 18.02 64.436 0.166 7.92 2.21 8.57
8/14/2022 11:30:00 PM 17.94 64.292 0.163 7.91 2.23 8.57
8/14/2022 11:45:00 PM 17.84 64.112 0.168 7.89 2.06 8.56
8/15/2022 12:00:00 AM 17.78 64.004 0.164 7.88 2.28 8.58
8/15/2022 12:15:00 AM 17.74 63.932 0.171 7.85 3.96 8.56
8/15/2022 12:30:00 AM 17.68 63.824 0.162 7.85 2.5 8.6
8/15/2022 12:45:00 AM 17.59 63.662 0.156 7.84 2.19 8.57
8/15/2022 1:00:00 AM 17.53 63.554 0.166 7.84 2.22 8.6
8/15/2022 1:15:00 AM 17.48 63.464 0.161 7.83 2.16 8.57
8/15/2022 1:30:00 AM 17.38 63.284 0.176 7.83 2.1 8.54
8/15/2022 1:45:00 AM 17.27 63.086 0.172 7.82 2.08 8.61
8/15/2022 2:00:00 AM 17.25 63.05 0.177 7.8 2.35 8.56
8/15/2022 2:15:00 AM 17.19 62.942 0.162 7.79 2.29 8.55
8/15/2022 2:30:00 AM 17.1 62.78 0.201 7.8 2.07 8.55
8/15/2022 2:45:00 AM 17.04 62.672 0.167 7.78 4.06 8.57
8/15/2022 3:00:00 AM 16.98 62.564 0.169 7.78 2.4 8.52
8/15/2022 3:15:00 AM 16.88 62.384 0.165 7.78 2.28 8.63
8/15/2022 3:30:00 AM 16.8 62.24 0.161 7.78 2.25 8.69
8/15/2022 3:45:00 AM 16.76 62.168 0.176 7.77 2.06 8.65
8/15/2022 4:00:00 AM 16.67 62.006 0.161 7.78 1.99 8.69
8/15/2022 4:15:00 AM 16.57 61.826 0.169 7.77 2.14 8.73
8/15/2022 4:30:00 AM 16.54 61.772 0.172 7.77 2.08 8.68
8/15/2022 4:45:00 AM 16.49 61.682 0.178 7.76 2.05 8.7
8/15/2022 5:00:00 AM 16.42 61.556 0.17 7.75 2.47 8.62
8/15/2022 5:15:00 AM 16.31 61.358 0.165 7.76 2.45 8.67
8/15/2022 5:30:00 AM 16.29 61.322 0.163 7.75 3.15 8.73
8/15/2022 5:45:00 AM 16.21 61.178 0.176 7.73 2.27 8.71
8/15/2022 6:00:00 AM 16.17 61.106 0.203 7.74 2.4 8.71
8/15/2022 6:15:00 AM 16.1 60.98 0.203 7.74 2.94 8.74
8/15/2022 6:30:00 AM 16.05 60.89 0.161 7.73 2.44 8.66
8/15/2022 6:45:00 AM 15.99 60.782 0.168 7.75 2.33 8.78
8/15/2022 7:00:00 AM 15.95 60.71 0.157 7.75 2.21 8.8
8/15/2022 7:15:00 AM 15.9 60.62 0.164 7.76 2.09 8.9
8/15/2022 7:30:00 AM 15.86 60.548 0.172 7.74 2.31 8.81
8/15/2022 7:45:00 AM 15.85 60.53 0.176 7.76 2.14 8.86
8/15/2022 8:00:00 AM 15.82 60.476 0.166 7.75 2.15 8.86
8/15/2022 8:15:00 AM 15.8 60.44 0.158 7.77 2.22 8.97
8/15/2022 8:30:00 AM 15.79 60.422 0.172 7.79 2.23 9
8/15/2022 8:45:00 AM 15.8 60.44 0.157 7.79 2.14 9.04
8/15/2022 9:00:00 AM 15.81 60.458 0.173 7.79 2.14 9.01
8/15/2022 9:15:00 AM 15.81 60.458 0.16 7.78 1.98 9
8/15/2022 9:30:00 AM 15.82 60.476 0.203 7.78 1.97 8.92
8/15/2022 9:45:00 AM 15.85 60.53 0.172 7.79 2.14 8.99
8/15/2022 10:00:00 AM 15.88 60.584 0.163 7.78 2.27 8.99
8/15/2022 10:15:00 AM 15.89 60.602 0.166 7.78 2.89 9.02
8/15/2022 10:30:00 AM 15.95 60.71 0.174 7.78 2.32 9.06
8/15/2022 10:45:00 AM 16.08 60.944 0.175 7.78 2.43 8.81
8/15/2022 11:00:00 AM 16.24 61.232 0.16 7.86 2.15 9.01
8/15/2022 11:15:00 AM 16.36 61.448 0.167 7.95 2.14 9.14
8/15/2022 11:30:00 AM 16.52 61.736 0.153 8.02 1.98 9.54
8/15/2022 11:45:00 AM 16.71 62.078 0.159 8.11 1.9 9.73
8/15/2022 12:00:00 PM 16.93 62.474 0.161 8.19 1.98 9.98
8/15/2022 12:15:00 PM 17.11 62.798 0.166 8.21 2.02 10.23
8/15/2022 12:30:00 PM 17.41 63.338 0.164 8.29 2.13 10.5
8/15/2022 12:45:00 PM 17.57 63.626 0.164 8.34 2.33 10.44
8/15/2022 1:00:00 PM 17.76 63.968 0.159 8.36 2.13 10.58
8/15/2022 1:15:00 PM 18.01 64.418 0.174 8.43 2.87 10.35
8/15/2022 1:30:00 PM 18.17 64.706 0.198 8.49 2.06 10.72
8/15/2022 1:45:00 PM 18.3 64.94 0.165 8.51 2.3 10.55
8/15/2022 2:00:00 PM 18.53 65.354 0.16 8.59 2.13 10.65
8/15/2022 2:15:00 PM 18.59 65.462 0.153 8.61 2.21 10.48
8/15/2022 2:30:00 PM 18.72 65.696 0.154 8.67 3.17 10.39
8/15/2022 2:45:00 PM 19.01 66.218 0.154 8.7 2.28 10.54
8/15/2022 3:00:00 PM 18.96 66.128 0.162 8.69 2.03 10.37
8/15/2022 3:15:00 PM 18.91 66.038 0.16 8.69 2.11 10.27
8/15/2022 3:30:00 PM 19.02 66.236 0.164 8.75 2.06 10.42
8/15/2022 3:45:00 PM 19.08 66.344 0.167 8.72 1.99 10.22
8/15/2022 4:00:00 PM 19.11 66.398 0.168 8.7 1.97 10.01
8/15/2022 4:15:00 PM 19.07 66.326 0.17 8.65 2 10.05
8/15/2022 4:30:00 PM 19 66.2 0.16 8.6 1.99 9.8
8/15/2022 4:45:00 PM 19.05 66.29 0.161 8.63 2.23 9.67
8/15/2022 5:00:00 PM 19.06 66.308 0.157 8.59 2.07 9.72
8/15/2022 5:15:00 PM 19.03 66.254 0.155 8.55 2.19 9.72
8/15/2022 5:30:00 PM 19 66.2 0.159 8.52 2.01 9.44
8/15/2022 5:45:00 PM 19.02 66.236 0.157 8.55 2.05 9.45
8/15/2022 6:00:00 PM 18.95 66.11 0.166 8.51 2.09 9.52
8/15/2022 6:15:00 PM 18.95 66.11 0.161 8.53 1.99 9.74
8/15/2022 6:30:00 PM 18.92 66.056 0.153 8.52 2.04 9.46
8/15/2022 6:45:00 PM 18.88 65.984 0.169 8.5 2.07 9.47
8/15/2022 7:00:00 PM 18.85 65.93 0.169 8.48 2.04 9.52
8/15/2022 7:15:00 PM 18.81 65.858 0.197 8.42 1.94 9.45
8/15/2022 7:30:00 PM 18.77 65.786 0.165 8.37 2.06 9.34
8/15/2022 7:45:00 PM 18.71 65.67799 0.164 8.34 2.25 9.28
8/15/2022 8:00:00 PM 18.62 65.516 0.16 8.27 2.35 9.16
8/15/2022 8:15:00 PM 18.56 65.408 0.171 8.22 2.34 9.07
8/15/2022 8:30:00 PM 18.48 65.264 0.16 8.16 2.22 9.01
8/15/2022 8:45:00 PM 18.43 65.174 0.152 8.13 2.18 8.96
8/15/2022 9:00:00 PM 18.38 65.084 0.165 8.1 2.51 8.98
8/15/2022 9:15:00 PM 18.34 65.012 0.199 8.07 2.45 8.93
8/15/2022 9:30:00 PM 18.3 64.94 0.154 8.04 3.14 8.86
8/15/2022 9:45:00 PM 18.23 64.814 0.162 7.99 2.45 8.76
8/15/2022 10:00:00 PM 18.2 64.76 0.16 7.99 2.79 8.76
8/15/2022 10:15:00 PM 18.13 64.634 0.167 7.94 2.31 8.67
8/15/2022 10:30:00 PM 18.07 64.526 0.164 7.93 2.21 8.64
8/15/2022 10:45:00 PM 18 64.4 0.2 7.91 3.44 8.57
8/15/2022 11:00:00 PM 17.96 64.328 0.164 7.88 5.38 8.52
8/15/2022 11:15:00 PM 17.88 64.184 0.157 7.88 2.38 8.57
8/15/2022 11:30:00 PM 17.8 64.04 0.159 7.88 2.62 8.54
8/15/2022 11:45:00 PM 17.74 63.932 0.154 7.86 2.57 8.56
8/16/2022 12:00:00 AM 17.69 63.842 0.163 7.84 2.16 8.56
8/16/2022 12:15:00 AM 17.62 63.716 0.201 7.84 2.08 8.58
8/16/2022 12:30:00 AM 17.59 63.662 0.157 7.83 2.18 8.54
8/16/2022 12:45:00 AM 17.5 63.5 0.148 7.82 2.19 8.56
8/16/2022 1:00:00 AM 17.44 63.392 0.161 7.81 2.22 8.55
8/16/2022 1:15:00 AM 17.42 63.356 0.172 7.81 2.48 8.57
8/16/2022 1:30:00 AM 17.39 63.302 0.16 7.8 2.33 8.52
8/16/2022 1:45:00 AM 17.33 63.194 0.159 7.8 2.65 8.58
8/16/2022 2:00:00 AM 17.32 63.176 0.162 7.79 2.5 8.55
8/16/2022 2:15:00 AM 17.26 63.068 0.163 7.79 2.37 8.54
8/16/2022 2:30:00 AM 17.24 63.032 0.161 7.77 2.44 8.51
8/16/2022 2:45:00 AM 17.22 62.996 0.159 7.78 2.93 8.52
8/16/2022 3:00:00 AM 17.18 62.924 0.165 7.77 2.9 8.53
8/16/2022 3:15:00 AM 17.1 62.78 0.171 7.77 2.42 8.62
8/16/2022 3:30:00 AM 16.98 62.564 0.16 7.78 2.36 8.77
8/16/2022 3:45:00 AM 16.93 62.474 0.165 7.78 2.23 8.78
8/16/2022 4:00:00 AM 16.89 62.402 0.155 7.78 2.08 8.77
8/16/2022 4:15:00 AM 16.84 62.312 0.157 7.78 2.26 8.81
8/16/2022 4:30:00 AM 16.79 62.222 0.205 7.78 2.27 8.81
8/16/2022 4:45:00 AM 16.75 62.15 0.158 7.77 2.09 8.81
8/16/2022 5:00:00 AM 16.72 62.096 0.161 7.77 2.15 8.8
8/16/2022 5:15:00 AM 16.67 62.006 0.163 7.77 2.15 8.83
8/16/2022 5:30:00 AM 16.64 61.952 0.168 7.77 2.31 8.83
8/16/2022 5:45:00 AM 16.62 61.916 0.152 7.77 2.77 8.78
8/16/2022 6:00:00 AM 16.59 61.862 0.159 7.76 2.12 8.81
8/16/2022 6:15:00 AM 16.56 61.808 0.172 7.77 2.07 8.86
8/16/2022 6:30:00 AM 16.55 61.79 0.181 7.77 2.1 8.87
8/16/2022 6:45:00 AM 16.5 61.7 0.162 7.78 2.16 8.94
8/16/2022 7:00:00 AM 16.48 61.664 0.17 7.8 2.11 9.08
8/16/2022 7:15:00 AM 16.47 61.646 0.156 7.83 2.08 9.23
8/16/2022 7:30:00 AM 16.48 61.664 0.185 7.85 2.02 9.34
8/16/2022 7:45:00 AM 16.49 61.682 0.171 7.88 1.98 9.45
8/16/2022 8:00:00 AM 16.51 61.718 0.162 7.9 1.98 9.52
8/16/2022 8:15:00 AM 16.54 61.772 0.155 7.93 2.02 9.62
8/16/2022 8:30:00 AM 16.57 61.826 0.168 7.97 1.99 9.72
8/16/2022 8:45:00 AM 16.61 61.898 0.154 7.97 2.06 9.73
8/16/2022 9:00:00 AM 16.64 61.952 0.2 7.97 2 9.75
8/16/2022 9:15:00 AM 16.69 62.042 0.163 7.99 1.94 9.74
8/16/2022 9:30:00 AM 16.74 62.132 0.173 7.97 1.93 9.62
8/16/2022 9:45:00 AM 16.8 62.24 0.157 7.96 1.96 9.57
8/16/2022 10:00:00 AM 16.78 62.204 0.164 7.86 2.44 9.55
8/16/2022 10:15:00 AM 16.74 62.132 0.158 7.88 2.18 9.47
8/16/2022 10:30:00 AM 16.7 62.06 0.164 7.83 2.47 9.03
8/16/2022 10:45:00 AM 16.75 62.15 0.201 7.83 2.19 9.05
8/16/2022 11:00:00 AM 16.83 62.294 0.159 7.84 2.26 9.02
8/16/2022 11:15:00 AM 17.03 62.654 0.155 7.9 2 9.26
8/16/2022 11:30:00 AM 17.27 63.086 0.161 7.97 2.01 9.38
8/16/2022 11:45:00 AM 17.55 63.59 0.151 8.09 2.31 9.6
8/16/2022 12:00:00 PM 17.8 64.04 0.157 8.1 2.06 9.72
8/16/2022 12:15:00 PM 18 64.4 0.157 8.25 2.03 9.89
8/16/2022 12:30:00 PM 18.27 64.886 0.172 8.3 2.03 10.05
8/16/2022 12:45:00 PM 18.41 65.138 0.16 8.33 2.04 10.02
8/16/2022 1:00:00 PM 18.6 65.48 0.157 8.36 3.32 10.04
8/16/2022 1:15:00 PM 18.88 65.984 0.167 8.4 2.56 10.18
8/16/2022 1:30:00 PM 19.01 66.218 0.163 8.45 2.13 10.17
8/16/2022 1:45:00 PM 19.27 66.686 0.158 8.54 2.13 10.34
8/16/2022 2:00:00 PM 19.34 66.812 0.16 8.6 2.02 10.26
8/16/2022 2:15:00 PM 19.5 67.1 0.165 8.7 1.99 10.37
8/16/2022 2:30:00 PM 19.65 67.37 0.16 8.69 2.14 10.5
8/16/2022 2:45:00 PM 19.73 67.514 0.163 8.73 2.2 10.45
8/16/2022 3:00:00 PM 19.86 67.748 0.161 8.8 2.06 10.35
8/16/2022 3:15:00 PM 19.93 67.874 0.151 8.8 2.14 10.27
8/16/2022 3:30:00 PM 19.95 67.91 0.166 8.81 2.33 10.21
8/16/2022 3:45:00 PM 20.19 68.342 0.161 8.85 1.92 10.3
8/16/2022 4:00:00 PM 20.3 68.54 0.162 8.88 2 10.25
8/16/2022 4:15:00 PM 20.28 68.504 0.17 8.9 2.02 10.36
8/16/2022 4:30:00 PM 20.34 68.612 0.162 8.91 2.01 10.48
8/16/2022 4:45:00 PM 20.35 68.63 0.161 8.89 2.13 10.32
8/16/2022 5:00:00 PM 20.25 68.45 0.158 8.85 2.17 10.07
8/16/2022 5:15:00 PM 20.25 68.45 0.152 8.82 5.17 10.08
8/16/2022 5:30:00 PM 20.2 68.36 0.165 8.82 2.1 10.07
8/16/2022 5:45:00 PM 20.11 68.198 0.194 8.77 1.93 9.92
8/16/2022 6:00:00 PM 20.06 68.108 0.156 8.75 2.04 9.92
8/16/2022 6:15:00 PM 19.98 67.964 0.17 8.72 2.05 9.88
8/16/2022 6:30:00 PM 19.91 67.838 0.164 8.66 2.1 9.72
8/16/2022 6:45:00 PM 19.81 67.658 0.164 8.59 2.16 9.6
8/16/2022 7:00:00 PM 19.71 67.478 0.166 8.51 2.16 9.42
8/16/2022 7:15:00 PM 19.61 67.298 0.196 8.42 1.99 9.25
8/16/2022 7:30:00 PM 19.52 67.136 0.167 8.36 1.97 9.16
8/16/2022 7:45:00 PM 19.47 67.046 0.162 8.29 2.01 9.07
8/16/2022 8:00:00 PM 19.4 66.92 0.164 8.23 2.01 8.98
8/16/2022 8:15:00 PM 19.34 66.812 0.17 8.17 2.39 8.9
8/16/2022 8:30:00 PM 19.25 66.65 0.158 8.12 2.04 8.82
8/16/2022 8:45:00 PM 19.2 66.56 0.162 8.07 2.22 8.75
8/16/2022 9:00:00 PM 19.11 66.398 0.159 8 103.28 8.67
8/16/2022 9:15:00 PM 19.01 66.218 0.157 8 9.3 8.67
8/16/2022 9:30:00 PM 18.96 66.128 0.157 7.98 2.44 8.63
8/16/2022 9:45:00 PM 18.86 65.948 0.161 7.96 2.35 8.63
8/16/2022 10:00:00 PM 18.8 65.84 0.169 7.95 2.43 8.63
8/16/2022 10:15:00 PM 18.73 65.714 0.199 7.93 2.01 8.61
8/16/2022 10:30:00 PM 18.67 65.606 0.172 7.91 2.08 8.59
8/16/2022 10:45:00 PM 18.61 65.498 0.159 7.89 2.26 8.58
8/16/2022 11:00:00 PM 18.49 65.282 0.169 7.89 2.07 8.6
8/16/2022 11:15:00 PM 18.44 65.192 0.157 7.87 2.19 8.58
8/16/2022 11:30:00 PM 18.38 65.084 0.159 7.86 2.1 8.57
8/16/2022 11:45:00 PM 18.31 64.958 0.168 7.85 2.8 8.54
8/17/2022 12:00:00 AM 18.22 64.796 0.174 7.84 2.63 8.56
8/17/2022 12:15:00 AM 18.14 64.652 0.163 7.84 2.55 8.59
8/17/2022 12:30:00 AM 18.05 64.49 0.158 7.83 2.16 8.59
8/17/2022 12:45:00 AM 17.99 64.382 0.161 7.83 2.16 8.6
8/17/2022 1:00:00 AM 17.94 64.292 0.157 7.82 2.17 8.56
8/17/2022 1:15:00 AM 17.85 64.13 0.158 7.81 2.32 8.58
8/17/2022 1:30:00 AM 17.75 63.95 0.148 7.81 2.24 8.61
8/17/2022 1:45:00 AM 17.69 63.842 0.171 7.8 2.18 8.62
8/17/2022 2:00:00 AM 17.62 63.716 0.158 7.81 2.26 8.63
8/17/2022 2:15:00 AM 17.55 63.59 0.167 7.8 2.14 8.63
8/17/2022 2:30:00 AM 17.55 63.59 0.17 7.78 2.09 8.58
8/17/2022 2:45:00 AM 17.52 63.536 0.158 7.78 2.45 8.53
8/17/2022 3:00:00 AM 17.43 63.374 0.157 7.79 2.18 8.57
8/17/2022 3:15:00 AM 17.36 63.248 0.157 7.79 2.14 8.62
8/17/2022 3:30:00 AM 17.33 63.194 0.168 7.77 3.43 8.51
8/17/2022 3:45:00 AM 17.25 63.05 0.161 7.77 2.43 8.52
8/17/2022 4:00:00 AM 17.21 62.978 0.162 7.74 2.18 8.51
8/17/2022 4:15:00 AM 17.19 62.942 0.149 7.72 2.44 8.42
8/17/2022 4:30:00 AM 17.15 62.87 0.169 7.75 2.33 8.55
8/17/2022 4:45:00 AM 17.07 62.726 0.173 7.76 2.41 8.6
8/17/2022 5:00:00 AM 16.99 62.582 0.166 7.76 2.13 8.63
8/17/2022 5:15:00 AM 16.87 62.366 0.156 7.77 2.33 8.74
8/17/2022 5:30:00 AM 16.81 62.258 0.165 7.76 3.19 8.69
8/17/2022 5:45:00 AM 16.74 62.132 0.164 7.74 2.86 8.68
8/17/2022 6:00:00 AM 16.67 62.006 0.159 7.76 2.12 8.77
8/17/2022 6:15:00 AM 16.61 61.898 0.157 7.76 2.1 8.78
8/17/2022 6:30:00 AM 16.55 61.79 0.16 7.75 2.08 8.76
8/17/2022 6:45:00 AM 16.5 61.7 0.15 7.75 2.18 8.78
8/17/2022 7:00:00 AM 16.46 61.628 0.159 7.76 2.1 8.77
8/17/2022 7:15:00 AM 16.44 61.592 0.167 7.77 2.08 8.94
8/17/2022 7:30:00 AM 16.43 61.574 0.158 7.78 2.44 8.89
8/17/2022 7:45:00 AM 16.44 61.592 0.156 7.79 2.2 8.93
8/17/2022 8:00:00 AM 16.47 61.646 0.166 7.81 2.09 9.08
8/17/2022 8:15:00 AM 16.48 61.664 0.161 7.84 2.02 9.19
8/17/2022 8:30:00 AM 16.5 61.7 0.152 7.85 2.11 9.22
8/17/2022 8:45:00 AM 16.54 61.772 0.158 7.87 2.11 9.24
8/17/2022 9:00:00 AM 16.58 61.844 0.157 7.91 2.19 9.33
8/17/2022 9:15:00 AM 16.59 61.862 0.176 7.91 2.16 9.55
8/17/2022 9:30:00 AM 16.6 61.88 0.2 7.91 2.28 9.43
8/17/2022 9:45:00 AM 16.6 61.88 0.169 7.88 2.32 9.34
8/17/2022 10:00:00 AM 16.62 61.916 0.15 7.85 2.16 9.32
8/17/2022 10:15:00 AM 16.67 62.006 0.161 7.89 2.06 9.38
8/17/2022 10:30:00 AM 16.69 62.042 0.168 7.9 2.31 9.31
8/17/2022 10:45:00 AM 16.76 62.168 0.164 7.88 2.21 9.11
8/17/2022 11:00:00 AM 16.87 62.366 0.152 7.94 2.24 9.9
8/17/2022 11:15:00 AM 16.98 62.564 0.159 8.07 2.14 9.91
8/17/2022 11:30:00 AM 17.01 62.618 0.173 8.15 2.32 10.02
8/17/2022 11:45:00 AM 16.93 62.474 0.156 7.99 2.96 9.6
8/17/2022 12:00:00 PM 16.95 62.51 0.155 8.04 2.36 9.7
8/17/2022 12:15:00 PM 16.93 62.474 0.146 7.98 2.65 9.38
8/17/2022 12:30:00 PM 16.99 62.582 0.163 8.08 2.19 9.39
8/17/2022 12:45:00 PM 17.05 62.69 0.162 8.12 2.61 9.55
8/17/2022 1:00:00 PM 17.09 62.762 0.159 8.1 2.28 9.72
8/17/2022 1:15:00 PM 17.1 62.78 0.154 8.06 2.24 9.76
8/17/2022 1:30:00 PM 17.16 62.888 0.197 8.17 2.61 9.84
8/17/2022 1:45:00 PM 17.26 63.068 0.165 8.16 2.43 9.99
8/17/2022 2:00:00 PM 17.31 63.158 0.152 8.19 2.35 10.09
8/17/2022 2:15:00 PM 17.4 63.32 0.151 8.25 2.29 10.05
8/17/2022 2:30:00 PM 17.42 63.356 0.165 8.17 2.48 9.94
8/17/2022 2:45:00 PM 17.45 63.41 0.168 8.26 2.6 9.86
8/17/2022 3:00:00 PM 17.53 63.554 0.159 8.33 2.1 10.05
8/17/2022 3:15:00 PM 17.65 63.77 0.157 8.32 2.3 10.2
8/17/2022 3:30:00 PM 17.75 63.95 0.159 8.4 2.38 10.35
8/17/2022 3:45:00 PM 17.81 64.058 0.158 8.39 2.66 10.37
8/17/2022 4:00:00 PM 17.86 64.148 0.161 8.33 2.46 10.25
8/17/2022 4:15:00 PM 17.95 64.31 0.148 8.51 5.03 10.45
8/17/2022 4:30:00 PM 18.08 64.544 0.153 8.61 2.62 10.41
8/17/2022 4:45:00 PM 18.3 64.94 0.153 8.63 2.2 10.96
8/17/2022 5:00:00 PM 18.34 65.012 0.159 8.65 2.31 10.62
8/17/2022 5:15:00 PM 18.45 65.21 0.159 8.74 2.13 10.75
8/17/2022 5:30:00 PM 18.52 65.336 0.165 8.8 2.12 10.54
8/17/2022 5:45:00 PM 18.52 65.336 0.162 8.83 2.07 10.35
8/17/2022 6:00:00 PM 18.51 65.318 0.152 8.78 1.95 10.18
8/17/2022 6:15:00 PM 18.49 65.282 0.159 8.76 1.99 10.17
8/17/2022 6:30:00 PM 18.45 65.21 0.149 8.75 2.03 10.13
8/17/2022 6:45:00 PM 18.38 65.084 0.149 8.63 11.15 9.82
8/17/2022 7:00:00 PM 18.34 65.012 0.169 8.57 2.23 9.7
8/17/2022 7:15:00 PM 18.27 64.886 0.151 8.49 2.11 9.57
8/17/2022 7:30:00 PM 18.2 64.76 0.143 8.42 2.01 9.49
8/17/2022 7:45:00 PM 18.15 64.67 0.143 8.37 1.99 9.37
8/17/2022 8:00:00 PM 18.08 64.544 0.195 8.28 1.94 9.26
8/17/2022 8:15:00 PM 18.03 64.454 0.195 8.22 1.96 9.16
8/17/2022 8:30:00 PM 17.98 64.364 0.146 8.15 2.12 9.07
8/17/2022 8:45:00 PM 17.93 64.274 0.158 8.09 2.33 9.01
8/17/2022 9:00:00 PM 17.89 64.202 0.161 8.05 2.23 8.97
8/17/2022 9:15:00 PM 17.86 64.148 0.141 8.02 2.82 8.91
8/17/2022 9:30:00 PM 17.8 64.04 0.155 7.99 2.64 8.9
8/17/2022 9:45:00 PM 17.72 63.896 0.196 7.97 2.53 8.86
8/17/2022 10:00:00 PM 17.64 63.752 0.154 7.95 2.49 8.86
8/17/2022 10:15:00 PM 17.54 63.572 0.156 7.94 2.4 8.87
8/17/2022 10:30:00 PM 17.46 63.428 0.156 7.92 2.35 8.86
8/17/2022 10:45:00 PM 17.38 63.284 0.197 7.91 2.23 8.86
8/17/2022 11:00:00 PM 17.29 63.122 0.158 7.89 2.23 8.86
8/17/2022 11:15:00 PM 17.22 62.996 0.161 7.88 2.18 8.84
8/17/2022 11:30:00 PM 17.12 62.816 0.197 7.87 2.39 8.85
8/17/2022 11:45:00 PM 17.05 62.69 0.149 7.86 2.23 8.85
8/18/2022 12:00:00 AM 17 62.6 0.167 7.85 2.44 8.85
8/18/2022 12:15:00 AM 16.93 62.474 0.15 7.84 2.31 8.85
8/18/2022 12:30:00 AM 16.86 62.348 0.156 7.83 2.29 8.86
8/18/2022 12:45:00 AM 16.78 62.204 0.157 7.83 2.42 8.88
8/18/2022 1:00:00 AM 16.74 62.132 0.199 7.82 2.6 8.85
8/18/2022 1:15:00 AM 16.67 62.006 0.155 7.82 2.63 8.88
8/18/2022 1:30:00 AM 16.61 61.898 0.15 7.81 2.29 8.87
8/18/2022 1:45:00 AM 16.56 61.808 0.154 7.81 2.17 8.9
8/18/2022 2:00:00 AM 16.52 61.736 0.165 7.8 2.63 8.89
8/18/2022 2:15:00 AM 16.45 61.61 0.147 7.8 2.16 8.92
8/18/2022 2:30:00 AM 16.4 61.52 0.199 7.8 2.13 8.91
8/18/2022 2:45:00 AM 16.37 61.466 0.149 7.8 2.38 8.92
8/18/2022 3:00:00 AM 16.32 61.376 0.199 7.79 2.25 8.92
8/18/2022 3:15:00 AM 16.25 61.25 0.162 7.79 2.29 8.94
8/18/2022 3:30:00 AM 16.21 61.178 0.154 7.79 2.47 8.93
8/18/2022 3:45:00 AM 16.16 61.088 0.162 7.79 2.38 8.96
8/18/2022 4:00:00 AM 16.16 61.088 0.155 7.78 2.45 8.95
8/18/2022 4:15:00 AM 16.12 61.016 0.153 7.78 2.29 8.96
8/18/2022 4:30:00 AM 16.07 60.926 0.16 7.79 2.32 9
8/18/2022 4:45:00 AM 16.03 60.854 0.164 7.78 2.28 9
8/18/2022 5:00:00 AM 15.99 60.782 0.147 7.78 2.57 8.98
8/18/2022 5:15:00 AM 15.92 60.656 0.17 7.78 2.24 9.01
8/18/2022 5:30:00 AM 15.86 60.548 0.145 7.78 2.37 9.03
8/18/2022 5:45:00 AM 15.81 60.458 0.168 7.78 2.47 9.03
8/18/2022 6:00:00 AM 15.76 60.368 0.146 7.78 2.31 9.06
8/18/2022 6:15:00 AM 15.69 60.242 0.155 7.78 2.45 9.09
8/18/2022 6:30:00 AM 15.65 60.17 0.143 7.78 2.31 9.11
8/18/2022 6:45:00 AM 15.62 60.116 0.171 7.78 2.36 9.14
8/18/2022 7:00:00 AM 15.6 60.08 0.162 7.79 2.31 9.2
8/18/2022 7:15:00 AM 15.57 60.026 0.156 7.82 2.28 9.35
8/18/2022 7:30:00 AM 15.56 60.008 0.157 7.84 2.26 9.47
8/18/2022 7:45:00 AM 15.55 59.99 0.164 7.87 2.28 9.56
8/18/2022 8:00:00 AM 15.56 60.008 0.162 7.9 2.16 9.69
8/18/2022 8:15:00 AM 15.57 60.026 0.199 7.94 2.11 9.79
8/18/2022 8:30:00 AM 15.57 60.026 0.175 7.94 2.3 9.8
8/18/2022 8:45:00 AM 15.57 60.026 0.167 7.95 2.19 9.77
8/18/2022 9:00:00 AM 15.61 60.098 0.161 7.95 2.18 9.82
8/18/2022 9:15:00 AM 15.66 60.188 0.17 8 2.22 9.94
8/18/2022 9:30:00 AM 15.76 60.368 0.153 8.06 2.21 10.2
8/18/2022 9:45:00 AM 15.88 60.584 0.198 8.13 2.13 10.41
8/18/2022 10:00:00 AM 15.9 60.62 0.16 8.12 2.54 10.37
8/18/2022 10:15:00 AM 15.94 60.692 0.15 8.12 2.37 10.42
8/18/2022 10:30:00 AM 16.12 61.016 0.196 8.14 2.39 10.23
8/18/2022 10:45:00 AM 16 60.8 0.171 8.06 2.31 10.17
8/18/2022 11:00:00 AM 15.92 60.656 0.156 7.93 2.39 9.82
8/18/2022 11:15:00 AM 16.05 60.89 0.157 7.97 2.25 9.62
8/18/2022 11:30:00 AM 16.24 61.232 0.151 8.06 2.11 9.83
8/18/2022 11:45:00 AM 16.45 61.61 0.133 8.12 2.16 9.91
8/18/2022 12:00:00 PM 16.79 62.222 0.16 8.22 2.09 10.11
8/18/2022 12:15:00 PM 16.92 62.456 0.163 8.23 2.29 10.07
8/18/2022 12:30:00 PM 17.33 63.194 0.15 8.38 2.08 10.29
8/18/2022 12:45:00 PM 17.61 63.698 0.139 8.41 2.22 10.36
8/18/2022 1:00:00 PM 17.91 64.238 0.161 8.52 2.14 10.4
8/18/2022 1:15:00 PM 18.03 64.454 0.149 8.47 2.14 10.37
8/18/2022 1:30:00 PM 18.39 65.102 0.159 8.57 3.17 10.48
8/18/2022 1:45:00 PM 18.67 65.606 0.157 8.59 2.36 10.51
8/18/2022 2:00:00 PM 18.71 65.67799 0.192 8.62 2.29 10.59
8/18/2022 2:15:00 PM 19.07 66.326 0.155 8.74 2.21 10.68
8/18/2022 2:30:00 PM 19.34 66.812 0.155 8.8 2.28 10.87
8/18/2022 2:45:00 PM 19.72 67.496 0.156 8.88 2.18 10.95
8/18/2022 3:00:00 PM 19.77 67.586 0.156 8.86 2.31 10.91
8/18/2022 3:15:00 PM 20 68 0.157 8.95 2.39 10.82
8/18/2022 3:30:00 PM 20.08 68.144 0.15 9.04 2.28 10.85
8/18/2022 3:45:00 PM 20.13 68.234 0.165 9.02 2.42 10.65
8/18/2022 4:00:00 PM 20.38 68.684 0.155 9.08 2.3 10.72
8/18/2022 4:15:00 PM 20.43 68.774 0.158 9.08 2.12 10.64
8/18/2022 4:30:00 PM 20.36 68.648 0.151 9.1 2.3 10.56
8/18/2022 4:45:00 PM 20.24 68.432 0.147 9.07 2.18 10.51
8/18/2022 5:00:00 PM 20.17 68.306 0.149 9.06 2.07 10.6
8/18/2022 5:15:00 PM 20.06 68.108 0.15 9.03 2.07 10.39
8/18/2022 5:30:00 PM 19.94 67.892 0.157 8.99 2.12 10.24
8/18/2022 5:45:00 PM 19.86 67.748 0.161 8.95 6.7 10.22
8/18/2022 6:00:00 PM 19.75 67.55 0.162 8.89 18.64 10.04
8/18/2022 6:15:00 PM 19.73 67.514 0.163 8.87 2.08 10.06
8/18/2022 6:30:00 PM 19.62 67.316 0.16 8.83 2.05 9.94
8/18/2022 6:45:00 PM 19.59 67.262 0.156 8.79 1.93 9.92
8/18/2022 7:00:00 PM 19.49 67.082 0.15 8.74 1.93 9.79
8/18/2022 7:15:00 PM 19.4 66.92 0.162 8.66 1.83 9.64
8/18/2022 7:30:00 PM 19.32 66.776 0.193 8.57 2.15 9.46
8/18/2022 7:45:00 PM 19.23 66.614 0.158 8.49 1.91 9.31
8/18/2022 8:00:00 PM 19.14 66.452 0.16 8.4 1.94 9.17
8/18/2022 8:15:00 PM 19.04 66.272 0.162 8.31 1.93 9.06
8/18/2022 8:30:00 PM 18.94 66.092 0.157 8.23 1.92 8.97
8/18/2022 8:45:00 PM 18.83 65.894 0.17 8.17 1.96 8.9
8/18/2022 9:00:00 PM 18.75 65.75 0.165 8.13 1.93 8.85
8/18/2022 9:15:00 PM 18.66 65.588 0.154 8.09 2 8.83
8/18/2022 9:30:00 PM 18.56 65.408 0.164 8.05 2.06 8.78
8/18/2022 9:45:00 PM 18.45 65.21 0.148 8.01 2.13 8.76
8/18/2022 10:00:00 PM 18.36 65.048 0.161 7.98 2.06 8.73
8/18/2022 10:15:00 PM 18.25 64.85 0.16 7.96 2.15 8.73
8/18/2022 10:30:00 PM 18.17 64.706 0.169 7.94 2.12 8.69
8/18/2022 10:45:00 PM 18.07 64.526 0.152 7.92 2.04 8.7
8/18/2022 11:00:00 PM 17.99 64.382 0.163 7.91 2.22 8.69
8/18/2022 11:15:00 PM 17.91 64.238 0.153 7.89 1.98 8.69
8/18/2022 11:30:00 PM 17.83 64.094 0.154 7.88 2.23 8.68
8/18/2022 11:45:00 PM 17.73 63.914 0.161 7.87 2.17 8.7
8/19/2022 12:00:00 AM 17.65 63.77 0.167 7.86 2.37 8.69
8/19/2022 12:15:00 AM 17.56 63.608 0.158 7.85 4.54 8.72
8/19/2022 12:30:00 AM 17.51 63.518 0.157 7.84 2.3 8.68
8/19/2022 12:45:00 AM 17.42 63.356 0.15 7.84 2.38 8.7
8/19/2022 1:00:00 AM 17.35 63.23 0.152 7.83 3.17 8.69
8/19/2022 1:15:00 AM 17.25 63.05 0.151 7.82 2.11 8.74
8/19/2022 1:30:00 AM 17.18 62.924 0.152 7.81 2.13 8.73
8/19/2022 1:45:00 AM 17.11 62.798 0.164 7.81 2.2 8.74
8/19/2022 2:00:00 AM 17.03 62.654 0.167 7.8 2.13 8.75
8/19/2022 2:15:00 AM 16.96 62.528 0.162 7.8 2.04 8.75
8/19/2022 2:30:00 AM 16.87 62.366 0.155 7.79 2.14 8.77
8/19/2022 2:45:00 AM 16.82 62.276 0.16 7.79 2.31 8.78
8/19/2022 3:00:00 AM 16.73 62.114 0.2 7.79 2.12 8.77
8/19/2022 3:15:00 AM 16.65 61.97 0.2 7.78 2.18 8.78
8/19/2022 3:30:00 AM 16.58 61.844 0.159 7.78 2.12 8.82
8/19/2022 3:45:00 AM 16.5 61.7 0.158 7.78 2.13 8.84
8/19/2022 4:00:00 AM 16.45 61.61 0.162 7.78 2.32 8.83
8/19/2022 4:15:00 AM 16.41 61.538 0.169 7.78 2.14 8.86
8/19/2022 4:30:00 AM 16.38 61.484 0.162 7.77 2.06 8.86
8/19/2022 4:45:00 AM 16.35 61.43 0.156 7.76 2.06 8.85
8/19/2022 5:00:00 AM 16.3 61.34 0.164 7.77 2.38 8.89
8/19/2022 5:15:00 AM 16.28 61.304 0.155 7.77 2.15 8.88
8/19/2022 5:30:00 AM 16.24 61.232 0.153 7.77 2.09 8.9
8/19/2022 5:45:00 AM 16.21 61.178 0.167 7.77 2.32 8.93
8/19/2022 6:00:00 AM 16.18 61.124 0.154 7.77 2.16 8.93
8/19/2022 6:15:00 AM 16.15 61.07 0.164 7.76 2.31 8.95
8/19/2022 6:30:00 AM 16.13 61.034 0.201 7.76 2.1 8.94
8/19/2022 6:45:00 AM 16.1 60.98 0.163 7.78 2.18 9.03
8/19/2022 7:00:00 AM 16.07 60.926 0.167 7.79 2.13 9.12
8/19/2022 7:15:00 AM 16.05 60.89 0.164 7.8 2.21 9.21
8/19/2022 7:30:00 AM 16.03 60.854 0.169 7.83 2.22 9.32
8/19/2022 7:45:00 AM 16 60.8 0.158 7.84 2.04 9.41
8/19/2022 8:00:00 AM 16 60.8 0.153 7.87 2.06 9.54
8/19/2022 8:15:00 AM 16.02 60.836 0.161 7.92 2.09 9.73
8/19/2022 8:30:00 AM 16.06 60.908 0.162 7.95 2.5 9.85
8/19/2022 8:45:00 AM 16.1 60.98 0.156 7.99 2.33 9.94
8/19/2022 9:00:00 AM 16.14 61.052 0.147 8.05 2.12 10.18
8/19/2022 9:15:00 AM 16.17 61.106 0.199 8.08 2.1 10.21
8/19/2022 9:30:00 AM 16.19 61.142 0.144 8.06 2.14 10.11
8/19/2022 9:45:00 AM 16.26 61.268 0.145 8.07 2.03 10.08
8/19/2022 10:00:00 AM 16.37 61.466 0.163 8.06 2.11 10.05
8/19/2022 10:15:00 AM 16.27 61.286 0.156 7.91 3.05 9.71
8/19/2022 10:30:00 AM 16.18 61.124 0.152 7.8 2.51 9.08
8/19/2022 10:45:00 AM 16.17 61.106 0.201 7.8 2.17 9.02
8/19/2022 11:00:00 AM 16.23 61.214 0.199 7.79 2.03 8.94
8/19/2022 11:15:00 AM 16.44 61.592 0.158 7.87 2.07 9.15
8/19/2022 11:30:00 AM 16.72 62.096 0.199 7.96 2.09 9.41
8/19/2022 11:45:00 AM 16.93 62.474 0.149 7.96 2 9.61
8/19/2022 12:00:00 PM 17.2 62.96 0.142 8.05 2.08 9.75
8/19/2022 12:15:00 PM 17.42 63.356 0.163 8.1 2.14 9.83
8/19/2022 12:30:00 PM 17.59 63.662 0.16 8.16 2.17 9.97
8/19/2022 12:45:00 PM 17.85 64.13 0.15 8.19 2.14 10.11
8/19/2022 1:00:00 PM 18.11 64.598 0.197 8.25 2.01 10.14
8/19/2022 1:15:00 PM 18.29 64.922 0.195 8.29 2.38 10.1
8/19/2022 1:30:00 PM 18.44 65.192 0.166 8.31 2.56 10.15
8/19/2022 1:45:00 PM 18.57 65.426 0.163 8.35 2.19 10.21
8/19/2022 2:00:00 PM 18.76 65.768 0.158 8.44 2.02 10.14
8/19/2022 2:15:00 PM 18.89 66.002 0.161 8.48 2.15 10.15
8/19/2022 2:30:00 PM 19.07 66.326 0.161 8.5 2.05 10.3
8/19/2022 2:45:00 PM 19.16 66.488 0.168 8.53 2.66 10.21
8/19/2022 3:00:00 PM 19.47 67.046 0.194 8.69 2.02 10.41
8/19/2022 3:15:00 PM 19.61 67.298 0.159 8.64 2.19 10.35
8/19/2022 3:30:00 PM 19.71 67.478 0.164 8.71 2.06 10.4
8/19/2022 3:45:00 PM 19.86 67.748 0.155 8.76 2.18 10.41
8/19/2022 4:00:00 PM 19.96 67.92799 0.169 8.83 2.09 10.3
8/19/2022 4:15:00 PM 19.92 67.856 0.161 8.82 1.95 10.15
8/19/2022 4:30:00 PM 19.9 67.82 0.173 8.78 2.15 10.16
8/19/2022 4:45:00 PM 20.08 68.144 0.16 8.86 1.96 10.43
8/19/2022 5:00:00 PM 20.18 68.324 0.164 8.93 1.98 10.6
8/19/2022 5:15:00 PM 20.15 68.27 0.156 8.91 2.05 10.44
8/19/2022 5:30:00 PM 20.12 68.216 0.154 8.9 1.94 10.43
8/19/2022 5:45:00 PM 20.04 68.07201 0.158 8.84 2.62 10.11
8/19/2022 6:00:00 PM 19.94 67.892 0.16 8.78 2.02 9.98
8/19/2022 6:15:00 PM 19.88 67.784 0.157 8.72 2.11 9.9
8/19/2022 6:30:00 PM 19.8 67.64 0.158 8.67 2.25 9.81
8/19/2022 6:45:00 PM 19.71 67.478 0.159 8.59 2.01 9.65
8/19/2022 7:00:00 PM 19.62 67.316 0.159 8.52 1.88 9.53
8/19/2022 7:15:00 PM 19.53 67.154 0.155 8.44 1.91 9.42
8/19/2022 7:30:00 PM 19.46 67.028 0.195 8.38 1.92 9.31
8/19/2022 7:45:00 PM 19.34 66.812 0.196 8.29 1.85 9.18
8/19/2022 8:00:00 PM 19.27 66.686 0.159 8.22 1.89 9.09
8/19/2022 8:15:00 PM 19.19 66.542 0.165 8.17 1.99 8.98
8/19/2022 8:30:00 PM 19.12 66.416 0.196 8.12 1.96 8.9
8/19/2022 8:45:00 PM 19.03 66.254 0.166 8.07 2.1 8.83
8/19/2022 9:00:00 PM 18.95 66.11 0.159 8.03 1.93 8.79
8/19/2022 9:15:00 PM 18.87 65.966 0.155 8 2.06 8.76
8/19/2022 9:30:00 PM 18.78 65.804 0.153 7.98 2.02 8.69
8/19/2022 9:45:00 PM 18.71 65.67799 0.197 7.96 2.06 8.71
8/19/2022 10:00:00 PM 18.62 65.516 0.16 7.94 2.1 8.69
8/19/2022 10:15:00 PM 18.59 65.462 0.159 7.92 2.39 8.62
8/19/2022 10:30:00 PM 18.53 65.354 0.162 7.91 2.05 8.65
8/19/2022 10:45:00 PM 18.46 65.228 0.159 7.89 2.22 8.64
8/19/2022 11:00:00 PM 18.36 65.048 0.158 7.87 2.09 8.64
8/19/2022 11:15:00 PM 18.31 64.958 0.167 7.86 2.02 8.56
8/19/2022 11:30:00 PM 18.24 64.832 0.155 7.85 2.47 8.58
8/19/2022 11:45:00 PM 18.18 64.724 0.16 7.84 2.24 8.58
8/20/2022 12:00:00 AM 18.1 64.58 0.169 7.83 2.42 8.6
8/20/2022 12:15:00 AM 18.04 64.472 0.172 7.83 2.24 8.6
8/20/2022 12:30:00 AM 17.96 64.328 0.169 7.82 2.38 8.59
8/20/2022 12:45:00 AM 17.89 64.202 0.171 7.82 2.1 8.62
8/20/2022 1:00:00 AM 17.82 64.076 0.175 7.81 2.03 8.63
8/20/2022 1:15:00 AM 17.77 63.986 0.201 7.8 2.06 8.61
8/20/2022 1:30:00 AM 17.71 63.878 0.2 7.8 1.94 8.62
8/20/2022 1:45:00 AM 17.64 63.752 0.174 7.8 1.96 8.65
8/20/2022 2:00:00 AM 17.58 63.644 0.167 7.79 2.44 8.65
8/20/2022 2:15:00 AM 17.54 63.572 0.2 7.78 2.12 8.64
8/20/2022 2:30:00 AM 17.48 63.464 0.174 7.79 1.99 8.66
8/20/2022 2:45:00 AM 17.42 63.356 0.201 7.78 1.96 8.66
8/20/2022 3:00:00 AM 17.36 63.248 0.168 7.77 2.05 8.67
8/20/2022 3:15:00 AM 17.29 63.122 0.166 7.77 2.24 8.69
8/20/2022 3:30:00 AM 17.23 63.014 0.167 7.77 2.07 8.7
8/20/2022 3:45:00 AM 17.17 62.906 0.161 7.76 2.09 8.7
8/20/2022 4:00:00 AM 17.11 62.798 0.155 7.76 2.26 8.72
8/20/2022 4:15:00 AM 17.06 62.708 0.165 7.76 2.12 8.69
8/20/2022 4:30:00 AM 16.99 62.582 0.173 7.76 2.33 8.74
8/20/2022 4:45:00 AM 16.93 62.474 0.164 7.76 2.33 8.77
8/20/2022 5:00:00 AM 16.91 62.438 0.177 7.76 3.17 8.76
8/20/2022 5:15:00 AM 16.87 62.366 0.168 7.76 2.09 8.78
8/20/2022 5:30:00 AM 16.85 62.33 0.202 7.75 2.35 8.76
8/20/2022 5:45:00 AM 16.81 62.258 0.172 7.75 2.16 8.78
8/20/2022 6:00:00 AM 16.78 62.204 0.162 7.75 2.18 8.79
8/20/2022 6:15:00 AM 16.76 62.168 0.178 7.74 2.34 8.74
8/20/2022 6:30:00 AM 16.72 62.096 0.177 7.75 2.13 8.83
8/20/2022 6:45:00 AM 16.71 62.078 0.179 7.76 2.24 8.87
8/20/2022 7:00:00 AM 16.7 62.06 0.167 7.76 2.1 8.92
8/20/2022 7:15:00 AM 16.69 62.042 0.18 7.79 2.02 8.98
8/20/2022 7:30:00 AM 16.66 61.988 0.169 7.79 2.08 9.06
8/20/2022 7:45:00 AM 16.64 61.952 0.173 7.81 2.27 9.17
8/20/2022 8:00:00 AM 16.65 61.97 0.158 7.82 2.14 9.18
8/20/2022 8:15:00 AM 16.64 61.952 0.167 7.85 2.15 9.31
8/20/2022 8:30:00 AM 16.66 61.988 0.169 7.87 2.11 9.37
8/20/2022 8:45:00 AM 16.69 62.042 0.164 7.87 2.05 9.4
8/20/2022 9:00:00 AM 16.73 62.114 0.163 7.87 2.62 9.4
8/20/2022 9:15:00 AM 16.77 62.186 0.179 7.88 1.99 9.44
8/20/2022 9:30:00 AM 16.83 62.294 0.161 7.87 2 9.31
8/20/2022 9:45:00 AM 16.88 62.384 0.148 7.87 2.24 9.32
8/20/2022 10:00:00 AM 16.85 62.33 0.166 7.81 2.48 9.09
8/20/2022 10:15:00 AM 16.77 62.186 0.175 7.75 2.6 8.8
8/20/2022 10:30:00 AM 16.78 62.204 0.165 7.76 2.15 8.79
8/20/2022 10:45:00 AM 16.86 62.348 0.173 7.75 2.09 8.7
8/20/2022 11:00:00 AM 17 62.6 0.167 7.8 1.99 8.58
8/20/2022 11:15:00 AM 17.15 62.87 0.168 7.84 2.07 8.74
8/20/2022 11:30:00 AM 17.33 63.194 0.157 7.95 2.2 9.35
8/20/2022 11:45:00 AM 17.48 63.464 0.155 7.97 1.93 9.4
8/20/2022 12:00:00 PM 17.71 63.878 0.167 8.06 1.97 9.71
8/20/2022 12:15:00 PM 17.88 64.184 0.171 8.08 2.05 9.7
8/20/2022 12:30:00 PM 18.14 64.652 0.172 8.21 1.91 10.06
8/20/2022 12:45:00 PM 18.29 64.922 0.168 8.24 3.75 9.96
8/20/2022 1:00:00 PM 18.51 65.318 0.167 8.3 2.36 10.2
8/20/2022 1:15:00 PM 18.75 65.75 0.197 8.4 2.05 10.19
8/20/2022 1:30:00 PM 18.82 65.876 0.158 8.35 2.53 10.15
8/20/2022 1:45:00 PM 19.03 66.254 0.167 8.41 2.16 10.35
8/20/2022 2:00:00 PM 19.2 66.56 0.197 8.45 1.99 10.32
8/20/2022 2:15:00 PM 19.3 66.74 0.161 8.52 2.32 10.23
8/20/2022 2:30:00 PM 19.5 67.1 0.167 8.58 2.05 10.27
8/20/2022 2:45:00 PM 19.89 67.802 0.168 8.7 1.97 10.53
8/20/2022 3:00:00 PM 19.91 67.838 0.161 8.69 1.99 10.41
8/20/2022 3:15:00 PM 20.03 68.054 0.173 8.71 2.11 10.41
8/20/2022 3:30:00 PM 20.2 68.36 0.169 8.71 2.02 10.49
8/20/2022 3:45:00 PM 20.33 68.594 0.16 8.74 2.13 10.51
8/20/2022 4:00:00 PM 20.44 68.792 0.173 8.72 2.19 10.77
8/20/2022 4:15:00 PM 20.63 69.134 0.17 8.77 2.13 10.61
8/20/2022 4:30:00 PM 20.63 69.134 0.172 8.73 2.14 10.31
8/20/2022 4:45:00 PM 20.74 69.332 0.168 8.77 2.22 10.46
8/20/2022 5:00:00 PM 20.9 69.62 0.163 8.8 2.25 10.43
8/20/2022 5:15:00 PM 21.13 70.034 0.172 8.94 1.91 10.46
8/20/2022 5:30:00 PM 21.19 70.142 0.196 8.92 1.89 10.21
8/20/2022 5:45:00 PM 21.13 70.034 0.196 8.88 1.96 10.06
8/20/2022 6:00:00 PM 21.03 69.854 0.173 8.81 2.12 9.84
8/20/2022 6:15:00 PM 20.92 69.656 0.164 8.75 1.98 9.73
8/20/2022 6:30:00 PM 20.85 69.53 0.16 8.7 2.56 9.62
8/20/2022 6:45:00 PM 20.74 69.332 0.163 8.62 1.92 9.48
8/20/2022 7:00:00 PM 20.64 69.152 0.165 8.54 1.92 9.36
8/20/2022 7:15:00 PM 20.57 69.026 0.172 8.48 1.91 9.28
8/20/2022 7:30:00 PM 20.49 68.882 0.171 8.4 1.98 9.14
8/20/2022 7:45:00 PM 20.42 68.756 0.162 8.33 1.96 9.01
8/20/2022 8:00:00 PM 20.35 68.63 0.178 8.24 1.89 8.86
8/20/2022 8:15:00 PM 20.29 68.522 0.199 8.17 2.18 8.75
8/20/2022 8:30:00 PM 20.24 68.432 0.201 8.11 2.08 8.66
8/20/2022 8:45:00 PM 20.16 68.288 0.171 8.06 3.3 8.58
8/20/2022 9:00:00 PM 20.12 68.216 0.167 8.03 2.17 8.51
8/20/2022 9:15:00 PM 20.07 68.126 0.175 8 3.04 8.48
8/20/2022 9:30:00 PM 20.02 68.036 0.2 7.97 3.02 8.43
8/20/2022 9:45:00 PM 19.96 67.92799 0.175 7.95 2.13 8.41
8/20/2022 10:00:00 PM 19.91 67.838 0.167 7.92 2.78 8.34
8/20/2022 10:15:00 PM 19.83 67.694 0.172 7.91 2.15 8.37
8/20/2022 10:30:00 PM 19.77 67.586 0.173 7.89 2.12 8.36
8/20/2022 10:45:00 PM 19.68 67.424 0.168 7.88 2.33 8.35
8/20/2022 11:00:00 PM 19.61 67.298 0.174 7.87 2.06 8.28
8/20/2022 11:15:00 PM 19.58 67.244 0.201 7.86 2.94 8.28
8/20/2022 11:30:00 PM 19.47 67.046 0.171 7.85 3.7 8.32
8/20/2022 11:45:00 PM 19.42 66.956 0.201 7.83 2.4 8.3
8/21/2022 12:00:00 AM 19.34 66.812 0.202 7.82 2.18 8.3
8/21/2022 12:15:00 AM 19.25 66.65 0.202 7.82 2.23 8.32
8/21/2022 12:30:00 AM 19.22 66.596 0.161 7.81 2.26 8.28
8/21/2022 12:45:00 AM 19.13 66.434 0.177 7.8 2.43 8.28
8/21/2022 1:00:00 AM 19.03 66.254 0.202 7.8 2.11 8.32
8/21/2022 1:15:00 AM 18.98 66.164 0.17 7.79 2.16 8.3
8/21/2022 1:30:00 AM 18.92 66.056 0.166 7.79 2.12 8.29
8/21/2022 1:45:00 AM 18.85 65.93 0.168 7.78 2.14 8.31
8/21/2022 2:00:00 AM 18.77 65.786 0.17 7.78 2.13 8.33
8/21/2022 2:15:00 AM 18.7 65.66 0.167 7.78 2.14 8.31
8/21/2022 2:30:00 AM 18.63 65.534 0.168 7.78 2.15 8.34
8/21/2022 2:45:00 AM 18.57 65.426 0.175 7.77 2.23 8.34
8/21/2022 3:00:00 AM 18.51 65.318 0.168 7.77 2.17 8.34
8/21/2022 3:15:00 AM 18.46 65.228 0.183 7.76 2.1 8.34
8/21/2022 3:30:00 AM 18.39 65.102 0.177 7.77 2.26 8.36
8/21/2022 3:45:00 AM 18.35 65.03 0.204 7.76 2.98 8.36
8/21/2022 4:00:00 AM 18.31 64.958 0.173 7.75 2.51 8.33
8/21/2022 4:15:00 AM 18.25 64.85 0.185 7.75 2.3 8.38
8/21/2022 4:30:00 AM 18.2 64.76 0.171 7.75 2.6 8.44
8/21/2022 4:45:00 AM 18.16 64.688 0.166 7.75 2.2 8.39
8/21/2022 5:00:00 AM 18.12 64.616 0.169 7.75 2.1 8.38
8/21/2022 5:15:00 AM 18.08 64.544 0.177 7.75 2.1 8.39
8/21/2022 5:30:00 AM 18.05 64.49 0.204 7.74 2.49 8.35
8/21/2022 5:45:00 AM 18 64.4 0.165 7.74 2.49 8.36
8/21/2022 6:00:00 AM 17.97 64.346 0.204 7.73 2.28 8.38
8/21/2022 6:15:00 AM 17.9 64.22 0.17 7.74 2.17 8.49
8/21/2022 6:30:00 AM 17.87 64.166 0.204 7.75 2.36 8.51
8/21/2022 6:45:00 AM 17.84 64.112 0.203 7.76 2.11 8.58
8/21/2022 7:00:00 AM 17.83 64.094 0.165 7.77 2.19 8.65
8/21/2022 7:15:00 AM 17.83 64.094 0.167 7.77 2.19 8.73
8/21/2022 7:30:00 AM 17.85 64.13 0.169 7.81 2.16 8.83
8/21/2022 7:45:00 AM 17.87 64.166 0.166 7.82 2.13 8.92
8/21/2022 8:00:00 AM 17.9 64.22 0.165 7.85 2.08 9.04
8/21/2022 8:15:00 AM 17.95 64.31 0.203 7.9 2.04 9.2
8/21/2022 8:30:00 AM 18 64.4 0.204 7.92 1.98 9.39
8/21/2022 8:45:00 AM 18.06 64.508 0.177 7.94 2.15 9.33
8/21/2022 9:00:00 AM 18.1 64.58 0.175 7.92 2.03 9.29
8/21/2022 9:15:00 AM 18.13 64.634 0.175 7.93 2.03 9.3
8/21/2022 9:30:00 AM 18.16 64.688 0.203 7.94 1.98 9.33
8/21/2022 9:45:00 AM 18.18 64.724 0.17 7.95 2.07 9.28
8/21/2022 10:00:00 AM 18.19 64.742 0.179 7.97 2.09 9.3
8/21/2022 10:15:00 AM 18.19 64.742 0.161 7.96 2.1 9.22
8/21/2022 10:30:00 AM 18.21 64.778 0.168 7.95 2.11 9.19
8/21/2022 10:45:00 AM 18.23 64.814 0.176 7.91 2.07 9.16
8/21/2022 11:00:00 AM 18.24 64.832 0.171 7.94 2.03 9.09
8/21/2022 11:15:00 AM 18.29 64.922 0.167 7.99 2.04 9.4
8/21/2022 11:30:00 AM 18.32 64.976 0.157 7.98 2.03 9.42
8/21/2022 11:45:00 AM 18.35 65.03 0.202 7.98 2.04 9.41
8/21/2022 12:00:00 PM 18.28 64.904 0.178 7.89 3.21 9.07
8/21/2022 12:15:00 PM 18.21 64.778 0.168 7.83 2.48 8.84
8/21/2022 12:30:00 PM 18.26 64.868 0.168 7.84 2.22 8.82
8/21/2022 12:45:00 PM 18.32 64.976 0.177 7.87 2.63 8.84
8/21/2022 1:00:00 PM 18.39 65.102 0.176 7.9 2.16 8.92
8/21/2022 1:15:00 PM 18.46 65.228 0.163 7.94 2.23 8.89
8/21/2022 1:30:00 PM 18.57 65.426 0.175 7.98 2 9.01
8/21/2022 1:45:00 PM 18.69 65.642 0.202 8.11 1.98 9.23
8/21/2022 2:00:00 PM 18.77 65.786 0.163 8.19 2.11 9.44
8/21/2022 2:15:00 PM 18.89 66.002 0.17 8.3 2.08 9.54
8/21/2022 2:30:00 PM 18.99 66.182 0.171 8.27 1.98 9.89
8/21/2022 2:45:00 PM 19.12 66.416 0.176 8.41 1.98 10.13
8/21/2022 3:00:00 PM 19.24 66.632 0.163 8.5 2.02 10.03
8/21/2022 3:15:00 PM 19.35 66.83 0.165 8.47 2.1 10.16
8/21/2022 3:30:00 PM 19.41 66.938 0.199 8.5 2.06 10.04
8/21/2022 3:45:00 PM 19.45 67.01 0.164 8.54 2.06 9.77
8/21/2022 4:00:00 PM 19.44 66.992 0.163 8.46 1.98 9.68
8/21/2022 4:15:00 PM 19.42 66.956 0.17 8.43 1.93 9.53
8/21/2022 4:30:00 PM 19.41 66.938 0.174 8.37 2.01 9.47
8/21/2022 4:45:00 PM 19.38 66.884 0.175 8.27 2.44 9.3
8/21/2022 5:00:00 PM 19.36 66.848 0.176 8.25 2.25 9.18
8/21/2022 5:15:00 PM 19.34 66.812 0.199 8.21 2.2 9.02
8/21/2022 5:30:00 PM 19.34 66.812 0.171 8.17 2.21 9.03
8/21/2022 5:45:00 PM 19.35 66.83 0.168 8.24 2.21 9.12
8/21/2022 6:00:00 PM 19.36 66.848 0.169 8.2 2.31 9.17
8/21/2022 6:15:00 PM 19.37 66.866 0.162 8.29 2.2 9.23
8/21/2022 6:30:00 PM 19.36 66.848 0.171 8.34 2.48 9.6
8/21/2022 6:45:00 PM 19.33 66.794 0.199 8.31 2.3 9.45
8/21/2022 7:00:00 PM 19.3 66.74 0.166 8.25 2.55 9.37
8/21/2022 7:15:00 PM 19.26 66.668 0.174 8.22 2.22 9.29
8/21/2022 7:30:00 PM 19.18 66.524 0.166 8.18 2.07 9.21
8/21/2022 7:45:00 PM 19.14 66.452 0.158 8.09 2.33 9.06
8/21/2022 8:00:00 PM 19.09 66.362 0.2 8.07 2.21 8.94
8/21/2022 8:15:00 PM 19.03 66.254 0.176 8.03 2.2 8.86
8/21/2022 8:30:00 PM 18.98 66.164 0.167 7.99 2.22 8.77
8/21/2022 8:45:00 PM 18.93 66.074 0.168 7.97 2.23 8.73
8/21/2022 9:00:00 PM 18.86 65.948 0.201 7.94 2.12 8.68
8/21/2022 9:15:00 PM 18.82 65.876 0.174 7.91 2.51 8.62
8/21/2022 9:30:00 PM 18.79 65.82201 0.201 7.89 2.35 8.58
8/21/2022 9:45:00 PM 18.75 65.75 0.178 7.87 2.25 8.56
8/21/2022 10:00:00 PM 18.7 65.66 0.171 7.86 2.1 8.52
8/21/2022 10:15:00 PM 18.67 65.606 0.177 7.84 2.63 8.49
8/21/2022 10:30:00 PM 18.62 65.516 0.201 7.83 3.16 8.44
8/21/2022 10:45:00 PM 18.57 65.426 0.177 7.82 2.88 8.47
8/21/2022 11:00:00 PM 18.53 65.354 0.17 7.82 2.27 8.52
8/21/2022 11:15:00 PM 18.5 65.3 0.175 7.81 2.28 8.46
8/21/2022 11:30:00 PM 18.47 65.246 0.202 7.8 2.43 8.47
8/21/2022 11:45:00 PM 18.44 65.192 0.176 7.79 2.45 8.46
8/22/2022 12:00:00 AM 18.41 65.138 0.173 7.78 2.44 8.43
8/22/2022 12:15:00 AM 18.37 65.066 0.177 7.77 2.62 8.42
8/22/2022 12:30:00 AM 18.31 64.958 0.171 7.77 2.45 8.48
8/22/2022 12:45:00 AM 18.28 64.904 0.159 7.77 2.54 8.46
8/22/2022 1:00:00 AM 18.25 64.85 0.171 7.76 2.24 8.46
8/22/2022 1:15:00 AM 18.21 64.778 0.175 7.76 2.37 8.45
8/22/2022 1:30:00 AM 18.18 64.724 0.176 7.76 2.25 8.43
8/22/2022 1:45:00 AM 18.13 64.634 0.17 7.75 2.38 8.42
8/22/2022 2:00:00 AM 18.1 64.58 0.178 7.74 2.39 8.43
8/22/2022 2:15:00 AM 18.07 64.526 0.169 7.73 2.44 8.4
8/22/2022 2:30:00 AM 18.03 64.454 0.177 7.74 2.26 8.43
8/22/2022 2:45:00 AM 18 64.4 0.171 7.74 2.32 8.44
8/22/2022 3:00:00 AM 17.97 64.346 0.163 7.74 2.15 8.44
8/22/2022 3:15:00 AM 17.95 64.31 0.177 7.74 2.85 8.42
8/22/2022 3:30:00 AM 17.93 64.274 0.168 7.73 3.74 8.42
8/22/2022 3:45:00 AM 17.89 64.202 0.17 7.73 2.34 8.45
8/22/2022 4:00:00 AM 17.88 64.184 0.167 7.72 2.3 8.43
8/22/2022 4:15:00 AM 17.86 64.148 0.203 7.73 2.23 8.39
8/22/2022 4:30:00 AM 17.86 64.148 0.187 7.72 2.23 8.39
8/22/2022 4:45:00 AM 17.83 64.094 0.161 7.73 2.31 8.45
8/22/2022 5:00:00 AM 17.82 64.076 0.18 7.72 2.42 8.42
8/22/2022 5:15:00 AM 17.79 64.022 0.165 7.72 2.27 8.46
8/22/2022 5:30:00 AM 17.78 64.004 0.177 7.71 4 8.39
8/22/2022 5:45:00 AM 17.77 63.986 0.17 7.71 3 8.38
8/22/2022 6:00:00 AM 17.76 63.968 0.162 7.71 2.8 8.4
8/22/2022 6:15:00 AM 17.79 64.022 0.164 7.7 4.35 8.4
8/22/2022 6:30:00 AM 17.94 64.292 0.16 7.7 6.89 8.44
8/22/2022 6:45:00 AM 18.23 64.814 0.137 7.68 21.81 8.53
8/22/2022 7:00:00 AM 18.34 65.012 0.146 7.67 28 8.67
8/22/2022 7:15:00 AM 18.32 64.976 0.125 7.65 20.67 8.73
8/22/2022 7:30:00 AM 18.26 64.868 0.119 7.63 15.5 8.7
8/22/2022 7:45:00 AM 18.18 64.724 0.116 7.61 12.47 8.7
8/22/2022 8:00:00 AM 18.07 64.526 0.123 7.6 10.5 8.69
8/22/2022 8:15:00 AM 17.98 64.364 0.115 7.58 9.47 8.72
8/22/2022 8:30:00 AM 17.94 64.292 0.124 7.57 8.81 8.74
8/22/2022 8:45:00 AM 17.93 64.274 0.122 7.59 8.47 8.83
8/22/2022 9:00:00 AM 17.97 64.346 0.119 7.6 15.6 8.88
8/22/2022 9:15:00 AM 18 64.4 0.113 7.62 5.77 8.88
8/22/2022 9:30:00 AM 18.05 64.49 0.113 7.65 5.44 8.95
8/22/2022 9:45:00 AM 18.12 64.616 0.11 7.68 5.06 9
8/22/2022 10:00:00 AM 18.18 64.724 0.114 7.69 5.01 9.01
8/22/2022 10:15:00 AM 18.21 64.778 0.119 7.7 4.94 9.04
8/22/2022 10:30:00 AM 18.26 64.868 0.117 7.73 4.62 9.09
8/22/2022 10:45:00 AM 18.35 65.03 0.117 7.77 4.55 9.11
8/22/2022 11:00:00 AM 18.44 65.192 0.123 7.78 4.32 9.17
8/22/2022 11:15:00 AM 18.61 65.498 0.129 7.82 4.12 9.11
8/22/2022 11:30:00 AM 18.84 65.912 0.127 7.88 3.94 9.35
8/22/2022 11:45:00 AM 19.05 66.29 0.133 7.92 4.01 9.37
8/22/2022 12:00:00 PM 19.3 66.74 0.133 7.96 3.7 9.38
8/22/2022 12:15:00 PM 19.53 67.154 0.129 7.99 3.74 9.44
8/22/2022 12:30:00 PM 19.67 67.406 0.158 8.03 3.45 9.44
8/22/2022 12:45:00 PM 19.86 67.748 0.139 8.06 3.88 9.45
8/22/2022 1:00:00 PM 20.11 68.198 0.135 8.08 3.42 9.43
8/22/2022 1:15:00 PM 20.35 68.63 0.136 8.1 3.58 9.38
8/22/2022 1:30:00 PM 20.48 68.864 0.13 8.13 3.51 9.39
8/22/2022 1:45:00 PM 20.54 68.972 0.139 8.12 3.35 9.31
8/22/2022 2:00:00 PM 20.56 69.008 0.139 8.11 3.18 9.26
8/22/2022 2:15:00 PM 20.69 69.242 0.137 8.15 3.14 9.3
8/22/2022 2:30:00 PM 20.74 69.332 0.139 8.18 3.21 9.32
8/22/2022 2:45:00 PM 20.72 69.296 0.139 8.17 3.28 9.27
8/22/2022 3:00:00 PM 20.63 69.134 0.139 8.15 3.35 8.76
8/22/2022 3:15:00 PM 20.51 68.918 0.136 8.1 3.72 8.83
8/22/2022 3:30:00 PM 20.39 68.702 0.135 8.06 3.62 8.82
8/22/2022 3:45:00 PM 20.28 68.504 0.142 8.01 4 8.86
8/22/2022 4:00:00 PM 20.19 68.342 0.136 7.97 4.92 8.74
8/22/2022 4:15:00 PM 20.18 68.324 0.127 7.94 6.8 8.77
8/22/2022 4:30:00 PM 20.2 68.36 0.125 7.91 8.85 8.74
8/22/2022 4:45:00 PM 20.17 68.306 0.131 7.9 6.97 8.72
8/22/2022 5:00:00 PM 20.1 68.18 0.13 7.9 6.54 8.79
8/22/2022 5:15:00 PM 20.02 68.036 0.131 7.91 5.74 8.9
8/22/2022 5:30:00 PM 19.94 67.892 0.126 7.91 5.04 8.96
8/22/2022 5:45:00 PM 19.85 67.73 0.139 7.9 5.17 8.92
8/22/2022 6:00:00 PM 19.78 67.604 0.156 7.91 4.74 8.93
8/22/2022 6:15:00 PM 19.71 67.478 0.138 7.91 4.44 8.89
8/22/2022 6:30:00 PM 19.65 67.37 0.156 7.9 4.33 8.91
8/22/2022 6:45:00 PM 19.6 67.28 0.139 7.88 4.59 8.87
8/22/2022 7:00:00 PM 19.55 67.19 0.127 7.87 3.85 8.76
8/22/2022 7:15:00 PM 19.5 67.1 0.131 7.86 3.64 8.85
8/22/2022 7:30:00 PM 19.46 67.028 0.135 7.84 3.44 8.79
8/22/2022 7:45:00 PM 19.4 66.92 0.157 7.82 3.47 8.49
8/22/2022 8:00:00 PM 19.34 66.812 0.137 7.81 3.32 8.63
8/22/2022 8:15:00 PM 19.28 66.704 0.134 7.79 3.74 8.47
8/22/2022 8:30:00 PM 19.21 66.578 0.131 7.76 3.3 8.4
8/22/2022 8:45:00 PM 19.16 66.488 0.143 7.76 3.53 8.54
8/22/2022 9:00:00 PM 19.11 66.398 0.132 7.75 3.39 8.55
8/22/2022 9:15:00 PM 19.07 66.326 0.146 7.74 3.5 8.54
8/22/2022 9:30:00 PM 19.03 66.254 0.135 7.72 3.38 8.42
8/22/2022 9:45:00 PM 18.99 66.182 0.144 7.73 3.28 8.44
8/22/2022 10:00:00 PM 18.95 66.11 0.142 7.72 3.27 8.5
8/22/2022 10:15:00 PM 18.92 66.056 0.14 7.71 3.1 8.49
8/22/2022 10:30:00 PM 18.89 66.002 0.134 7.7 3.3 8.49
8/22/2022 10:45:00 PM 18.86 65.948 0.167 7.7 3.31 8.46
8/22/2022 11:00:00 PM 18.83 65.894 0.139 7.69 3.1 8.26
8/22/2022 11:15:00 PM 18.81 65.858 0.145 7.7 2.98 8.46
8/22/2022 11:30:00 PM 18.79 65.82201 0.146 7.69 3.07 8.45
8/22/2022 11:45:00 PM 18.76 65.768 0.14 7.68 3.22 8.26
8/23/2022 12:00:00 AM 18.73 65.714 0.134 7.69 3.54 8.45
8/23/2022 12:15:00 AM 18.7 65.66 0.146 7.69 3.57 8.49
8/23/2022 12:30:00 AM 18.68 65.624 0.138 7.69 3.7 8.47
8/23/2022 12:45:00 AM 18.66 65.588 0.148 7.67 3.22 8.34
8/23/2022 1:00:00 AM 18.65 65.57 0.142 7.68 3.22 8.37
8/23/2022 1:15:00 AM 18.62 65.516 0.145 7.69 3.22 8.39
8/23/2022 1:30:00 AM 18.61 65.498 0.172 7.68 3.06 8.34
8/23/2022 1:45:00 AM 18.58 65.444 0.144 7.67 2.98 8.32
8/23/2022 2:00:00 AM 18.56 65.408 0.172 7.7 2.83 8.49
8/23/2022 2:15:00 AM 18.54 65.372 0.15 7.7 4.2 8.49
8/23/2022 2:30:00 AM 18.52 65.336 0.137 7.7 2.92 8.52
8/23/2022 2:45:00 AM 18.5 65.3 0.15 7.69 2.86 8.53
8/23/2022 3:00:00 AM 18.48 65.264 0.145 7.7 2.83 8.52
8/23/2022 3:15:00 AM 18.46 65.228 0.151 7.7 3.01 8.51
8/23/2022 3:30:00 AM 18.44 65.192 0.138 7.7 3.83 8.47
8/23/2022 3:45:00 AM 18.42 65.156 0.155 7.71 3.41 8.56
8/23/2022 4:00:00 AM 18.38 65.084 0.173 7.7 3.04 8.53
8/23/2022 4:15:00 AM 18.35 65.03 0.152 7.69 3.07 8.52
8/23/2022 4:30:00 AM 18.33 64.994 0.146 7.7 2.86 8.55
8/23/2022 4:45:00 AM 18.31 64.958 0.14 7.68 2.94 8.45
8/23/2022 5:00:00 AM 18.29 64.922 0.149 7.7 2.84 8.55
8/23/2022 5:15:00 AM 18.27 64.886 0.144 7.71 2.87 8.58
8/23/2022 5:30:00 AM 18.25 64.85 0.148 7.7 3.5 8.52
8/23/2022 5:45:00 AM 18.24 64.832 0.146 7.68 3.07 8.51
8/23/2022 6:00:00 AM 18.22 64.796 0.144 7.7 3.2 8.53
8/23/2022 6:15:00 AM 18.2 64.76 0.144 7.71 3.33 8.4
8/23/2022 6:30:00 AM 18.19 64.742 0.153 7.7 3.47 8.48
8/23/2022 6:45:00 AM 18.18 64.724 0.141 7.71 3.11 8.58
8/23/2022 7:00:00 AM 18.16 64.688 0.151 7.7 3.26 8.56
8/23/2022 7:15:00 AM 18.16 64.688 0.144 7.71 3.12 8.51
8/23/2022 7:30:00 AM 18.15 64.67 0.153 7.72 2.99 8.48
8/23/2022 7:45:00 AM 18.16 64.688 0.145 7.71 2.91 8.6
8/23/2022 8:00:00 AM 18.17 64.706 0.152 7.73 3.6 8.65
8/23/2022 8:15:00 AM 18.17 64.706 0.151 7.74 2.96 8.62
8/23/2022 8:30:00 AM 18.17 64.706 0.143 7.7 3.05 8.75
8/23/2022 8:45:00 AM 18.18 64.724 0.15 7.77 2.92 8.66
8/23/2022 9:00:00 AM 18.2 64.76 0.15 7.78 2.92 8.71
8/23/2022 9:15:00 AM 18.24 64.832 0.156 7.79 2.95 8.79
8/23/2022 9:30:00 AM 18.29 64.922 0.149 7.83 2.67 8.85
8/23/2022 9:45:00 AM 18.35 65.03 0.155 7.84 2.77 8.89
8/23/2022 10:00:00 AM 18.4 65.12 0.14 7.87 2.88 9.06
8/23/2022 10:15:00 AM 18.47 65.246 0.158 7.93 2.85 9.07
8/23/2022 10:30:00 AM 18.62 65.516 0.145 7.97 3.03 9.11
8/23/2022 10:45:00 AM 18.7 65.66 0.155 7.97 2.71 9.09
8/23/2022 11:00:00 AM 18.77 65.786 0.143 7.95 2.57 9.17
8/23/2022 11:15:00 AM 18.79 65.82201 0.151 8.01 2.7 9.26
8/23/2022 11:30:00 AM 18.85 65.93 0.146 8.03 2.96 9.25
8/23/2022 11:45:00 AM 18.92 66.056 0.148 8.04 2.72 9.23
8/23/2022 12:00:00 PM 19.02 66.236 0.136 8.09 3.7 9.35
8/23/2022 12:15:00 PM 19.22 66.596 0.175 8.07 3.46 9.39
8/23/2022 12:30:00 PM 19.4 66.92 0.147 8.07 2.77 9.49
8/23/2022 12:45:00 PM 19.62 67.316 0.176 8.2 2.71 9.38
8/23/2022 1:00:00 PM 19.79 67.622 0.144 8.25 3.43 9.43
8/23/2022 1:15:00 PM 19.88 67.784 0.149 8.26 3.28 9.4
8/23/2022 1:30:00 PM 20.15 68.27 0.15 8.27 2.54 9.37
8/23/2022 1:45:00 PM 20.37 68.666 0.176 8.31 2.67 9.4
8/23/2022 2:00:00 PM 20.5 68.9 0.145 8.39 2.55 9.57
8/23/2022 2:15:00 PM 20.53 68.954 0.145 8.36 2.88 9.4
8/23/2022 2:30:00 PM 20.55 68.99 0.148 8.36 2.85 9.41
8/23/2022 2:45:00 PM 20.64 69.152 0.144 8.38 2.9 9.35
8/23/2022 3:00:00 PM 20.68 69.224 0.144 8.36 3.23 9.36
8/23/2022 3:15:00 PM 20.69 69.242 0.148 8.38 3.07 9.39
8/23/2022 3:30:00 PM 20.65 69.17 0.149 8.34 3.02 9.26
8/23/2022 3:45:00 PM 20.62 69.116 0.148 8.33 3.15 9.28
8/23/2022 4:00:00 PM 20.66 69.188 0.147 8.32 3.05 9.14
8/23/2022 4:15:00 PM 20.69 69.242 0.146 8.35 3.02 9.37
8/23/2022 4:30:00 PM 20.69 69.242 0.148 8.34 3.2 9.19
8/23/2022 4:45:00 PM 20.68 69.224 0.175 8.37 2.95 9.37
8/23/2022 5:00:00 PM 20.65 69.17 0.149 8.37 2.77 9.31
8/23/2022 5:15:00 PM 20.6 69.08 0.149 8.37 3.05 9.11
8/23/2022 5:30:00 PM 20.48 68.864 0.148 8.34 3.6 9.35
8/23/2022 5:45:00 PM 20.38 68.684 0.152 8.3 2.81 9.12
8/23/2022 6:00:00 PM 20.31 68.558 0.144 8.26 2.83 9.13
8/23/2022 6:15:00 PM 20.21 68.378 0.152 8.21 2.85 8.98
8/23/2022 6:30:00 PM 20.12 68.216 0.176 8.16 2.87 9.02
8/23/2022 6:45:00 PM 20.04 68.07201 0.154 8.12 2.74 8.95
8/23/2022 7:00:00 PM 19.96 67.92799 0.15 8.08 2.69 8.9
8/23/2022 7:15:00 PM 19.88 67.784 0.146 8.03 2.88 8.74
8/23/2022 7:30:00 PM 19.81 67.658 0.152 8 3 8.63
8/23/2022 7:45:00 PM 19.75 67.55 0.144 7.96 2.93 8.61
8/23/2022 8:00:00 PM 19.69 67.442 0.156 7.94 3.87 8.6
8/23/2022 8:15:00 PM 19.64 67.352 0.148 7.91 3.24 8.55
8/23/2022 8:30:00 PM 19.56 67.208 0.156 7.87 4.65 8.52
8/23/2022 8:45:00 PM 19.5 67.1 0.151 7.86 3.23 8.51
8/23/2022 9:00:00 PM 19.45 67.01 0.156 7.85 3.55 8.51
8/23/2022 9:15:00 PM 19.36 66.848 0.147 7.82 2.98 8.46
8/23/2022 9:30:00 PM 19.29 66.722 0.179 7.81 2.83 8.43
8/23/2022 9:45:00 PM 19.22 66.596 0.151 7.78 2.82 8.38
8/23/2022 10:00:00 PM 19.15 66.47 0.143 7.78 2.91 8.4
8/23/2022 10:15:00 PM 19.1 66.38 0.161 7.78 2.63 8.41
8/23/2022 10:30:00 PM 19.02 66.236 0.15 7.77 3.15 8.41
8/23/2022 10:45:00 PM 18.96 66.128 0.156 7.76 3.96 8.42
8/23/2022 11:00:00 PM 18.9 66.02 0.156 7.74 3.15 8.4
8/23/2022 11:15:00 PM 18.85 65.93 0.152 7.74 2.87 8.39
8/23/2022 11:30:00 PM 18.79 65.82201 0.161 7.73 3.69 8.4
8/23/2022 11:45:00 PM 18.73 65.714 0.153 7.73 2.69 8.4
8/24/2022 12:00:00 AM 18.68 65.624 0.16 7.74 2.77 8.42
8/24/2022 12:15:00 AM 18.63 65.534 0.153 7.73 2.62 8.38
8/24/2022 12:30:00 AM 18.58 65.444 0.153 7.73 2.71 8.4
8/24/2022 12:45:00 AM 18.53 65.354 0.161 7.72 2.81 8.42
8/24/2022 1:00:00 AM 18.48 65.264 0.16 7.71 2.67 8.45
8/24/2022 1:15:00 AM 18.44 65.192 0.16 7.71 2.76 8.46
8/24/2022 1:30:00 AM 18.39 65.102 0.157 7.71 2.65 8.46
8/24/2022 1:45:00 AM 18.34 65.012 0.161 7.71 2.67 8.47
8/24/2022 2:00:00 AM 18.3 64.94 0.146 7.7 2.69 8.47
8/24/2022 2:15:00 AM 18.24 64.832 0.154 7.69 2.6 8.48
8/24/2022 2:30:00 AM 18.19 64.742 0.148 7.71 2.67 8.47
8/24/2022 2:45:00 AM 18.14 64.652 0.154 7.71 2.6 8.5
8/24/2022 3:00:00 AM 18.09 64.562 0.156 7.7 2.77 8.48
8/24/2022 3:15:00 AM 18.04 64.472 0.153 7.69 2.72 8.52
8/24/2022 3:30:00 AM 17.98 64.364 0.145 7.7 2.81 8.52
8/24/2022 3:45:00 AM 17.93 64.274 0.156 7.7 2.67 8.55
8/24/2022 4:00:00 AM 17.87 64.166 0.156 7.7 2.86 8.57
8/24/2022 4:15:00 AM 17.82 64.076 0.167 7.7 2.73 8.58
8/24/2022 4:30:00 AM 17.77 63.986 0.152 7.7 2.92 8.6
8/24/2022 4:45:00 AM 17.71 63.878 0.16 7.7 2.79 8.61
8/24/2022 5:00:00 AM 17.66 63.788 0.183 7.7 2.91 8.62
8/24/2022 5:15:00 AM 17.61 63.698 0.156 7.7 2.7 8.6
8/24/2022 5:30:00 AM 17.56 63.608 0.15 7.7 2.85 8.65
8/24/2022 5:45:00 AM 17.52 63.536 0.143 7.7 3.61 8.64
8/24/2022 6:00:00 AM 17.47 63.446 0.183 7.7 3.14 8.65
8/24/2022 6:15:00 AM 17.43 63.374 0.152 7.7 5.07 8.65
8/24/2022 6:30:00 AM 17.38 63.284 0.159 7.7 3.54 8.68
8/24/2022 6:45:00 AM 17.34 63.212 0.158 7.69 2.72 8.68
8/24/2022 7:00:00 AM 17.29 63.122 0.154 7.7 2.85 8.7
8/24/2022 7:15:00 AM 17.25 63.05 0.153 7.69 2.76 8.67
8/24/2022 7:30:00 AM 17.21 62.978 0.155 7.7 2.79 8.74
8/24/2022 7:45:00 AM 17.17 62.906 0.145 7.7 2.73 8.77
8/24/2022 8:00:00 AM 17.15 62.87 0.161 7.73 2.94 8.84
8/24/2022 8:15:00 AM 17.14 62.852 0.183 7.73 2.87 8.89
8/24/2022 8:30:00 AM 17.14 62.852 0.141 7.74 2.84 8.91
8/24/2022 8:45:00 AM 17.16 62.888 0.161 7.72 2.59 8.96
8/24/2022 9:00:00 AM 17.19 62.942 0.152 7.78 2.63 9.08
8/24/2022 9:15:00 AM 17.21 62.978 0.159 7.8 2.57 9.16
8/24/2022 9:30:00 AM 17.24 63.032 0.15 7.81 2.7 9.16
8/24/2022 9:45:00 AM 17.28 63.104 0.157 7.83 2.59 9.16
8/24/2022 10:00:00 AM 17.33 63.194 0.149 7.84 2.59 9.2
8/24/2022 10:15:00 AM 17.43 63.374 0.149 7.84 2.81 9.18
8/24/2022 10:30:00 AM 17.58 63.644 0.161 7.87 2.5 9.02
8/24/2022 10:45:00 AM 17.75 63.95 0.152 7.9 2.53 9.14
8/24/2022 11:00:00 AM 18.01 64.418 0.154 7.85 2.43 9.1
8/24/2022 11:15:00 AM 18.27 64.886 0.156 7.89 2.5 9.32
8/24/2022 11:30:00 AM 18.6 65.48 0.143 8.06 2.55 9.34
8/24/2022 11:45:00 AM 18.88 65.984 0.16 8.08 2.41 9.44
8/24/2022 12:00:00 PM 19.13 66.434 0.149 8.16 2.39 9.48
8/24/2022 12:15:00 PM 19.36 66.848 0.162 8.14 2.46 9.64
8/24/2022 12:30:00 PM 19.6 67.28 0.155 8.22 2.51 9.72
8/24/2022 12:45:00 PM 19.85 67.73 0.158 8.29 2.49 9.74
8/24/2022 1:00:00 PM 20.03 68.054 0.157 8.21 6.5 9.64
8/24/2022 1:15:00 PM 20.33 68.594 0.156 8.2 2.97 9.64
8/24/2022 1:30:00 PM 20.52 68.936 0.159 8.34 2.89 9.7
8/24/2022 1:45:00 PM 20.76 69.368 0.159 8.36 2.35 9.74
8/24/2022 2:00:00 PM 20.94 69.692 0.153 8.47 2.39 9.75
8/24/2022 2:15:00 PM 21.03 69.854 0.157 8.45 2.49 9.63
8/24/2022 2:30:00 PM 21.17 70.106 0.157 8.46 2.6 9.62
8/24/2022 2:45:00 PM 21.3 70.34 0.16 8.55 2.55 9.71
8/24/2022 3:00:00 PM 21.35 70.43 0.161 8.58 2.58 9.71
8/24/2022 3:15:00 PM 21.37 70.466 0.159 8.57 2.51 9.67
8/24/2022 3:30:00 PM 21.38 70.484 0.159 8.57 2.45 9.66
8/24/2022 3:45:00 PM 21.41 70.538 0.159 8.55 2.35 9.65
8/24/2022 4:00:00 PM 21.4 70.52 0.16 8.54 2.43 9.41
8/24/2022 4:15:00 PM 21.41 70.538 0.156 8.52 2.49 9.54
8/24/2022 4:30:00 PM 21.34 70.412 0.157 8.5 2.46 9.58
8/24/2022 4:45:00 PM 21.29 70.32201 0.155 8.46 2.44 9.4
8/24/2022 5:00:00 PM 21.23 70.214 0.156 8.45 2.51 9.42
8/24/2022 5:15:00 PM 21.15 70.07 0.183 8.43 2.4 9.28
8/24/2022 5:30:00 PM 21.06 69.908 0.151 8.38 2.46 9.33
8/24/2022 5:45:00 PM 20.96 69.728 0.152 8.36 2.53 9.31
8/24/2022 6:00:00 PM 20.87 69.566 0.16 8.32 2.54 9.23
8/24/2022 6:15:00 PM 20.8 69.44 0.165 8.3 2.55 9.26
8/24/2022 6:30:00 PM 20.71 69.278 0.167 8.26 2.68 9.13
8/24/2022 6:45:00 PM 20.64 69.152 0.156 8.23 2.47 9.15
8/24/2022 7:00:00 PM 20.53 68.954 0.185 8.17 2.46 8.91
8/24/2022 7:15:00 PM 20.46 68.828 0.157 8.15 2.51 9
8/24/2022 7:30:00 PM 20.38 68.684 0.161 8.1 6.94 8.87
8/24/2022 7:45:00 PM 20.3 68.54 0.162 8.06 2.73 8.82
8/24/2022 8:00:00 PM 20.24 68.432 0.163 8.02 2.51 8.71
8/24/2022 8:15:00 PM 20.03 68.054 0.163 7.91 3.11 8.49
8/24/2022 8:30:00 PM 19.9 67.82 0.163 7.93 2.28 8.55
8/24/2022 8:45:00 PM 19.83 67.694 0.187 7.91 2.16 8.45
8/24/2022 9:00:00 PM 19.76 67.568 0.162 7.88 2.37 8.44
8/24/2022 9:15:00 PM 19.71 67.478 0.159 7.87 2.3 8.33
8/24/2022 9:30:00 PM 19.62 67.316 0.158 7.85 2.78 8.34
8/24/2022 9:45:00 PM 19.52 67.136 0.187 7.83 2.31 8.38
8/24/2022 10:00:00 PM 19.45 67.01 0.168 7.81 2.47 8.3
8/24/2022 10:15:00 PM 19.34 66.812 0.157 7.8 2.55 8.35
8/24/2022 10:30:00 PM 19.31 66.758 0.154 7.79 2.32 8.34
8/24/2022 10:45:00 PM 19.22 66.596 0.168 7.79 2.37 8.37
8/24/2022 11:00:00 PM 19.14 66.452 0.188 7.77 2.55 8.33
8/24/2022 11:15:00 PM 19.07 66.326 0.155 7.76 2.41 8.33
8/24/2022 11:30:00 PM 19 66.2 0.163 7.76 2.56 8.33
8/24/2022 11:45:00 PM 18.94 66.092 0.157 7.75 2.35 8.36
8/25/2022 12:00:00 AM 18.85 65.93 0.165 7.75 2.31 8.35
8/25/2022 12:15:00 AM 18.79 65.82201 0.161 7.73 2.88 8.21
8/25/2022 12:30:00 AM 18.73 65.714 0.161 7.74 2.25 8.38
8/25/2022 12:45:00 AM 18.65 65.57 0.164 7.74 2.37 8.31
8/25/2022 1:00:00 AM 18.57 65.426 0.154 7.73 2.16 8.26
8/25/2022 1:15:00 AM 18.47 65.246 0.155 7.73 2.85 8.43
8/25/2022 1:30:00 AM 18.41 65.138 0.16 7.73 2.51 8.38
8/25/2022 1:45:00 AM 18.34 65.012 0.162 7.71 2.6 8.42
8/25/2022 2:00:00 AM 18.34 65.012 0.159 7.72 2.29 8.4
8/25/2022 2:15:00 AM 18.23 64.814 0.156 7.74 2.24 8.38
8/25/2022 2:30:00 AM 18.14 64.652 0.167 7.72 2.21 8.39
8/25/2022 2:45:00 AM 18.1 64.58 0.153 7.71 2.27 8.49
8/25/2022 3:00:00 AM 18.01 64.418 0.164 7.71 2.44 8.51
8/25/2022 3:15:00 AM 17.92 64.256 0.157 7.7 2.34 8.54
8/25/2022 3:30:00 AM 17.89 64.202 0.165 7.71 2.3 8.5
8/25/2022 3:45:00 AM 17.83 64.094 0.16 7.71 2.39 8.47
8/25/2022 4:00:00 AM 17.77 63.986 0.154 7.71 2.28 8.54
8/25/2022 4:15:00 AM 17.66 63.788 0.162 7.71 2.5 8.62
8/25/2022 4:30:00 AM 17.61 63.698 0.188 7.71 2.24 8.53
8/25/2022 4:45:00 AM 17.54 63.572 0.163 7.7 2.35 8.56
8/25/2022 5:00:00 AM 17.56 63.608 0.16 7.69 2.33 8.58
8/25/2022 5:15:00 AM 17.46 63.428 0.162 7.69 2.83 8.57
8/25/2022 5:30:00 AM 17.42 63.356 0.155 7.7 2.34 8.54
8/25/2022 5:45:00 AM 17.36 63.248 0.167 7.69 2.61 8.54
8/25/2022 6:00:00 AM 17.32 63.176 0.157 7.68 2.38 8.64
8/25/2022 6:15:00 AM 17.31 63.158 0.167 7.67 2.2 8.56
8/25/2022 6:30:00 AM 17.23 63.014 0.166 7.69 2.43 8.55
8/25/2022 6:45:00 AM 17.17 62.906 0.17 7.7 2.51 8.61
8/25/2022 7:00:00 AM 17.21 62.978 0.16 7.64 2.24 8.57
8/25/2022 7:15:00 AM 17.2 62.96 0.158 7.68 2.28 8.48
8/25/2022 7:30:00 AM 17.18 62.924 0.174 7.64 2.46 8.42
8/25/2022 7:45:00 AM 17.16 62.888 0.157 7.64 2.32 8.49
8/25/2022 8:00:00 AM 17.14 62.852 0.165 7.66 2.31 8.43
8/25/2022 8:15:00 AM 17.13 62.834 0.163 7.68 2.34 8.45
8/25/2022 8:30:00 AM 17.11 62.798 0.167 7.69 2.37 8.53
8/25/2022 8:45:00 AM 17.1 62.78 0.159 7.66 2.3 8.59
8/25/2022 9:00:00 AM 17.1 62.78 0.156 7.69 2.24 8.77
8/25/2022 9:15:00 AM 17.08 62.744 0.16 7.71 2.35 8.72
8/25/2022 9:30:00 AM 17.08 62.744 0.152 7.75 2.33 8.74
8/25/2022 9:45:00 AM 17.09 62.762 0.159 7.73 2.19 8.81
8/25/2022 10:00:00 AM 17.11 62.798 0.154 7.71 2.18 8.81
8/25/2022 10:15:00 AM 17.15 62.87 0.167 7.77 2.2 8.8
8/25/2022 10:30:00 AM 17.22 62.996 0.165 7.64 2.32 8.7
8/25/2022 10:45:00 AM 17.38 63.284 0.187 7.68 2.23 8.7